Darstellungsparameter: Aktuell verwendete Einstellungen:
Skalierung der Graphiken ... ?
xyx+y,   Skalierungsfaktor:      Skalierung: Modus: x, Faktor: 1
Darstellungszeitraum ... ?
Vom - - bis: - -   Zeitraum: 01.08.2020 - 31.10.2020
Min/Max/Avg-Anzeige ... ?
Zeige MMA aktuell
Zeige MMA Monat
Zeige MMA alles
Zeige --A aktuell
Zeige --A Monat
Zeige --A alles
Keine MMA-Anzeige
MMA:
Average (ber die Originaldaten)
MMA-Basis: 01.08.2020 - 31.10.2020
Quicknavigation für Darstellung... ?
Tage:      1T, 2T, 3T, 5T -1T -2T -3T -5T +1T +2T +3T +5T
Wochen: 1W, 2W, 3W -1W -2W -3W +1W +2W +3W
Monate: 1M, 3M, 6M -1M -3M -6M +1M +3M +6M
Jahre:    1J, 3J, 5J, 10J -1J -3J -5J -10J +1J +3J +5J +10J
Nutze für die Darstellung ... ?
Originaldaten oder Mittelwerte auf ...
Stundenbasis Tagesbasis Wochenbasis
Monatsbasis Jahresbasis      Datenbasis: Original-Daten
Darstellen als:
Statistik (Auto) Statistik J:M      Darstellung:
Zur Graphik,    zurück zur Übersicht aller Sensoren.
 
Tabellarische Datenbersicht: ?
 
Sensor: Nr:Datum:Temp:Feuchte:
Aussen-T/F 1 01-08-2020 00:01:17 21.3 C 22 %
2 01-08-2020 00:11:18 20.9 C 24 %
3 01-08-2020 00:21:17 20.8 C 25 %
4 01-08-2020 00:31:18 20.6 C 25 %
5 01-08-2020 00:41:18 20.1 C 25 %
6 01-08-2020 00:51:18 20 C 25 %
7 01-08-2020 01:01:17 19.7 C 26 %
8 01-08-2020 01:11:18 19.6 C 26 %
9 01-08-2020 01:21:17 19.4 C 28 %
10 01-08-2020 01:31:17 19.4 C 28 %
11 01-08-2020 01:41:17 19.1 C 28 %
12 01-08-2020 01:51:17 19.1 C 28 %
13 01-08-2020 02:01:17 18.9 C 29 %
14 01-08-2020 02:11:18 18.9 C 29 %
15 01-08-2020 02:21:17 18.9 C 29 %
16 01-08-2020 02:31:17 18.9 C 29 %
17 01-08-2020 02:41:17 18.4 C 30 %
18 01-08-2020 02:51:17 18.7 C 30 %
19 01-08-2020 03:01:17 18.7 C 29 %
20 01-08-2020 03:11:17 18.3 C 29 %
21 01-08-2020 03:21:17 18.1 C 29 %
22 01-08-2020 03:31:17 17.9 C 30 %
23 01-08-2020 03:41:17 17.5 C 31 %
24 01-08-2020 03:51:17 17.5 C 31 %
25 01-08-2020 04:01:17 17.3 C 31 %
Sensor: Nr:Datum:Temp:Feuchte:
Aussen-T/F 26 01-08-2020 04:11:17 17.2 C 31 %
27 01-08-2020 04:21:17 17.2 C 31 %
28 01-08-2020 04:31:17 17.7 C 31 %
29 01-08-2020 04:41:17 18.1 C 31 %
30 01-08-2020 04:51:18 18.6 C 30 %
31 01-08-2020 05:01:18 18.5 C 30 %
32 01-08-2020 05:11:18 18 C 31 %
33 01-08-2020 05:21:17 17.7 C 31 %
34 01-08-2020 05:31:17 17.6 C 31 %
35 01-08-2020 05:41:17 17.9 C 31 %
36 01-08-2020 05:51:17 18.6 C 30 %
37 01-08-2020 06:01:17 18.8 C 30 %
38 01-08-2020 06:11:17 18.3 C 30 %
39 01-08-2020 06:21:17 17.9 C 31 %
40 01-08-2020 06:31:17 17.7 C 31 %
41 01-08-2020 06:41:17 18 C 31 %
42 01-08-2020 06:51:17 17.6 C 32 %
43 01-08-2020 07:01:18 17.5 C 32 %
44 01-08-2020 07:11:18 17.8 C 32 %
45 01-08-2020 07:21:17 18 C 32 %
46 01-08-2020 07:31:17 18.3 C 32 %
47 01-08-2020 07:41:17 18.7 C 31 %
48 01-08-2020 07:51:17 19.2 C 31 %
49 01-08-2020 08:01:17 20.4 C 29 %
50 01-08-2020 08:11:18 22 C 26 %
Sensor: Nr:Datum:Temp:Feuchte:
Aussen-T/F 51 01-08-2020 08:21:17 22.7 C 25 %
52 01-08-2020 08:31:18 22.9 C 25 %
53 01-08-2020 08:41:18 20.1 C 30 %
54 01-08-2020 08:51:17 19.1 C 35 %
55 01-08-2020 09:01:18 19 C 37 %
56 01-08-2020 09:11:18 19 C 37 %
57 01-08-2020 09:21:17 19.2 C 37 %
58 01-08-2020 09:31:17 19.5 C 36 %
59 01-08-2020 09:41:17 19.1 C 39 %
60 01-08-2020 09:51:17 19.1 C 41 %
61 01-08-2020 10:01:17 19.1 C 41 %
62 01-08-2020 10:11:17 19.3 C 42 %
63 01-08-2020 10:21:17 19.3 C 42 %
64 01-08-2020 10:31:17 19.4 C 41 %
65 01-08-2020 10:41:17 19.4 C 41 %
66 01-08-2020 10:51:17 19.6 C 41 %
67 01-08-2020 11:01:17 19.7 C 41 %
68 01-08-2020 11:11:17 19.9 C 41 %
69 01-08-2020 11:21:17 20.2 C 41 %
70 01-08-2020 11:31:17 20.2 C 40 %
71 01-08-2020 11:41:18 20.4 C 40 %
72 01-08-2020 11:51:17 20.8 C 41 %
73 01-08-2020 12:01:18 21.3 C 40 %
74 01-08-2020 12:11:18 22.3 C 37 %
75 01-08-2020 12:21:17 22.5 C 34 %
Sensor: Nr:Datum:Temp:Feuchte:
Aussen-T/F 76 01-08-2020 12:31:17 22 C 35 %
77 01-08-2020 12:41:17 21.9 C 36 %
78 01-08-2020 12:51:18 22 C 35 %
79 01-08-2020 13:01:17 21.9 C 36 %
80 01-08-2020 13:11:17 22.5 C 35 %
81 01-08-2020 13:21:17 22.9 C 35 %
82 01-08-2020 13:31:17 23.8 C 32 %
83 01-08-2020 13:41:17 25 C 30 %
84 01-08-2020 13:51:17 25.6 C 30 %
85 01-08-2020 14:01:17 26.1 C 28 %
86 01-08-2020 14:11:17 26.3 C 28 %
87 01-08-2020 14:21:17 26.8 C 28 %
88 01-08-2020 14:31:18 27.2 C 27 %
89 01-08-2020 14:41:18 26.3 C 28 %
90 01-08-2020 14:51:17 26.9 C 28 %
91 01-08-2020 15:01:18 30.8 C 25 %
92 01-08-2020 15:11:18 30.2 C 23 %
93 01-08-2020 15:21:17 33.1 C 20 %
94 01-08-2020 15:31:17 33.4 C 20 %
95 01-08-2020 15:41:17 33.5 C 20 %
96 01-08-2020 15:51:18 35.4 C 20 %
97 01-08-2020 16:01:17 34.4 C 20 %
98 01-08-2020 16:11:17 35.6 C 20 %
99 01-08-2020 16:21:17 36.5 C 20 %
100 01-08-2020 16:31:17 35.8 C 20 %
Sensor: Nr:Datum:Temp:Feuchte:
Aussen-T/F 101 01-08-2020 16:41:17 36.7 C 20 %
102 01-08-2020 16:51:17 35.7 C 20 %
103 01-08-2020 17:01:17 36.4 C 20 %
104 01-08-2020 17:11:17 35.7 C 20 %
105 01-08-2020 17:21:17 37.1 C 20 %
106 01-08-2020 17:31:18 36.3 C 20 %
107 01-08-2020 17:41:18 36.9 C 20 %
108 01-08-2020 17:51:17 33.5 C 20 %
109 01-08-2020 18:01:18 33 C 20 %
110 01-08-2020 18:11:18 32.9 C 20 %
111 01-08-2020 18:21:17 32.1 C 20 %
112 01-08-2020 18:31:17 31.3 C 20 %
113 01-08-2020 18:41:17 30.3 C 20 %
114 01-08-2020 18:51:17 28.9 C 22 %
115 01-08-2020 19:01:18 27.6 C 25 %
116 01-08-2020 19:11:18 27.2 C 25 %
117 01-08-2020 19:21:17 27 C 24 %
118 01-08-2020 19:31:17 27.7 C 23 %
119 01-08-2020 19:41:17 28.1 C 23 %
120 01-08-2020 19:51:17 26.8 C 25 %
121 01-08-2020 20:01:17 20.7 C 28 %
122 01-08-2020 20:11:17 20.8 C 42 %
123 01-08-2020 20:21:17 21.2 C 41 %
124 01-08-2020 20:31:17 21.6 C 41 %
125 01-08-2020 20:41:18 21.6 C 40 %
Sensor: Nr:Datum:Temp:Feuchte:
Aussen-T/F 126 01-08-2020 20:51:17 21.4 C 40 %
127 01-08-2020 21:01:17 21.3 C 40 %
128 01-08-2020 21:11:17 21.2 C 40 %
129 01-08-2020 21:21:17 21.1 C 40 %
130 01-08-2020 21:31:17 21 C 40 %
131 01-08-2020 21:41:17 20.9 C 41 %
132 01-08-2020 21:51:18 20.9 C 40 %
133 01-08-2020 22:01:17 20.9 C 40 %
134 01-08-2020 22:11:17 20.9 C 40 %
135 01-08-2020 22:21:17 21 C 39 %
136 01-08-2020 22:31:18 21.1 C 39 %
137 01-08-2020 22:41:18 21 C 39 %
138 01-08-2020 22:51:17 21 C 39 %
139 01-08-2020 23:01:17 20.9 C 40 %
140 01-08-2020 23:11:17 20.7 C 40 %
141 01-08-2020 23:21:17 20.5 C 40 %
142 01-08-2020 23:31:18 20.5 C 40 %
143 01-08-2020 23:41:18 20.4 C 40 %
144 01-08-2020 23:51:17 20.3 C 40 %
145 02-08-2020 00:01:17 20.2 C 40 %
146 02-08-2020 00:11:17 20.1 C 40 %
147 02-08-2020 00:21:17 20 C 40 %
148 02-08-2020 00:31:18 20.2 C 40 %
149 02-08-2020 00:41:18 20.2 C 40 %
150 02-08-2020 00:51:17 20.1 C 40 %
Sensor: Nr:Datum:Temp:Feuchte:
Aussen-T/F 151 02-08-2020 01:01:18 20.1 C 40 %
152 02-08-2020 01:11:18 20.2 C 40 %
153 02-08-2020 01:21:17 20.3 C 40 %
154 02-08-2020 01:31:17 20.3 C 40 %
155 02-08-2020 01:41:17 20.3 C 40 %
156 02-08-2020 01:51:17 20.1 C 40 %
157 02-08-2020 02:01:18 19.8 C 42 %
158 02-08-2020 02:11:18 19.6 C 42 %
159 02-08-2020 02:21:17 19.4 C 42 %
160 02-08-2020 02:31:17 19.4 C 42 %
161 02-08-2020 02:41:17 19.3 C 41 %
162 02-08-2020 02:51:17 19 C 41 %
163 02-08-2020 03:01:17 19.2 C 42 %
164 02-08-2020 03:11:17 19.1 C 41 %
165 02-08-2020 03:21:17 19.1 C 41 %
166 02-08-2020 03:31:17 19.1 C 41 %
167 02-08-2020 03:41:17 19.1 C 42 %
168 02-08-2020 03:51:17 19.1 C 41 %
169 02-08-2020 04:01:18 19.1 C 41 %
170 02-08-2020 04:11:18 19 C 41 %
171 02-08-2020 04:21:17 18.9 C 41 %
172 02-08-2020 04:31:17 18.6 C 41 %
173 02-08-2020 04:41:17 18.4 C 41 %
174 02-08-2020 04:51:17 18.3 C 41 %
175 02-08-2020 05:01:17 18.2 C 40 %
Sensor: Nr:Datum:Temp:Feuchte:
Aussen-T/F 176 02-08-2020 05:11:17 18 C 39 %
177 02-08-2020 05:21:17 18 C 40 %
178 02-08-2020 05:31:17 18 C 39 %
179 02-08-2020 05:41:17 17.8 C 40 %
180 02-08-2020 05:51:17 18.2 C 36 %
181 02-08-2020 06:01:17 18 C 38 %
182 02-08-2020 06:11:17 17.8 C 38 %
183 02-08-2020 06:21:17 17.7 C 38 %
184 02-08-2020 06:31:17 17.7 C 39 %
185 02-08-2020 06:41:17 18.1 C 35 %
186 02-08-2020 06:51:17 18.5 C 35 %
187 02-08-2020 07:01:17 18.4 C 35 %
188 02-08-2020 07:11:17 18.2 C 37 %
189 02-08-2020 07:21:17 18.1 C 37 %
190 02-08-2020 07:31:18 18.1 C 38 %
191 02-08-2020 07:41:18 18.2 C 38 %
192 02-08-2020 07:51:17 18.5 C 36 %
193 02-08-2020 08:01:17 18.8 C 37 %
194 02-08-2020 08:11:17 19.1 C 36 %
195 02-08-2020 08:21:17 19.7 C 35 %
196 02-08-2020 08:31:17 19.9 C 35 %
197 02-08-2020 08:41:17 19.9 C 35 %
198 02-08-2020 08:51:17 20.3 C 33 %
199 02-08-2020 09:01:17 20.3 C 32 %
200 02-08-2020 09:11:17 20.7 C 32 %
Sensor: Nr:Datum:Temp:Feuchte:
Aussen-T/F 201 02-08-2020 09:21:17 20.7 C 32 %
202 02-08-2020 09:31:17 21.2 C 31 %
203 02-08-2020 09:41:17 21.9 C 30 %
204 02-08-2020 09:51:17 22.4 C 29 %
205 02-08-2020 10:01:17 22.5 C 29 %
206 02-08-2020 10:11:17 22.1 C 28 %
207 02-08-2020 10:21:17 22.6 C 28 %
208 02-08-2020 10:31:17 22.7 C 27 %
209 02-08-2020 10:41:17 23.3 C 26 %
210 02-08-2020 10:51:17 23.6 C 26 %
211 02-08-2020 11:01:17 23.9 C 26 %
212 02-08-2020 11:11:17 24.7 C 25 %
213 02-08-2020 11:21:17 24.9 C 24 %
214 02-08-2020 11:31:17 24 C 25 %
215 02-08-2020 11:41:17 24.2 C 25 %
216 02-08-2020 11:51:17 24.1 C 24 %
217 02-08-2020 12:01:17 23.9 C 25 %
218 02-08-2020 12:11:17 25 C 24 %
219 02-08-2020 12:21:17 24.3 C 24 %
220 02-08-2020 12:31:17 24.2 C 22 %
221 02-08-2020 12:41:17 24.1 C 22 %
222 02-08-2020 12:51:17 24.4 C 22 %
223 02-08-2020 13:01:17 25.4 C 21 %
224 02-08-2020 13:11:17 25.8 C 22 %
225 02-08-2020 13:21:17 25.2 C 22 %
Sensor: Nr:Datum:Temp:Feuchte:
Aussen-T/F 226 02-08-2020 13:31:17 25.9 C 22 %
227 02-08-2020 13:41:17 26 C 21 %
228 02-08-2020 13:51:17 25.3 C 21 %
229 02-08-2020 14:01:18 25.5 C 21 %
230 02-08-2020 14:11:18 25.7 C 21 %
231 02-08-2020 14:21:17 27.6 C 20 %
232 02-08-2020 14:31:17 26.7 C 20 %
233 02-08-2020 14:41:17 26.5 C 20 %
234 02-08-2020 14:51:17 27.6 C 20 %
235 02-08-2020 15:01:17 28 C 20 %
236 02-08-2020 15:11:17 29.9 C 20 %
237 02-08-2020 15:21:17 27.2 C 20 %
238 02-08-2020 15:31:17 27.7 C 20 %
239 02-08-2020 15:41:17 26.5 C 20 %
240 02-08-2020 15:51:18 28.5 C 20 %
241 02-08-2020 16:01:17 27.4 C 20 %
242 02-08-2020 16:11:17 27.3 C 20 %
243 02-08-2020 16:21:17 28.7 C 20 %
244 02-08-2020 16:31:17 29.6 C 20 %
245 02-08-2020 16:41:17 30 C 20 %
246 02-08-2020 16:51:17 29.3 C 20 %
247 02-08-2020 17:01:17 28.9 C 20 %
248 02-08-2020 17:11:17 31.2 C 20 %
249 02-08-2020 17:21:17 29.8 C 20 %
250 02-08-2020 17:31:18 27.6 C 20 %
Sensor: Nr:Datum:Temp:Feuchte:
Aussen-T/F 251 02-08-2020 17:41:18 28.8 C 20 %
252 02-08-2020 17:51:17 29.2 C 20 %
253 02-08-2020 18:01:17 28.8 C 20 %
254 02-08-2020 18:11:17 30.9 C 20 %
255 02-08-2020 18:21:17 27.3 C 20 %
256 02-08-2020 18:31:17 25.5 C 20 %
257 02-08-2020 18:41:17 26.2 C 20 %
258 02-08-2020 18:51:17 25.8 C 20 %
259 02-08-2020 19:01:17 25.8 C 20 %
260 02-08-2020 19:11:17 25.6 C 20 %
261 02-08-2020 19:21:17 25.5 C 20 %
262 02-08-2020 19:31:17 25.5 C 20 %
263 02-08-2020 19:41:18 25.2 C 20 %
264 02-08-2020 19:51:17 24.7 C 20 %
265 02-08-2020 20:01:17 24.3 C 20 %
266 02-08-2020 20:11:17 23.9 C 20 %
267 02-08-2020 20:21:17 23.6 C 20 %
268 02-08-2020 20:31:17 23 C 21 %
269 02-08-2020 20:41:18 22.6 C 23 %
270 02-08-2020 20:51:17 22 C 23 %
271 02-08-2020 21:01:18 21.7 C 25 %
272 02-08-2020 21:11:18 21.3 C 25 %
273 02-08-2020 21:21:17 21.1 C 25 %
274 02-08-2020 21:31:17 20.8 C 26 %
275 02-08-2020 21:41:17 19.2 C 29 %
Sensor: Nr:Datum:Temp:Feuchte:
Aussen-T/F 276 02-08-2020 21:51:17 19.2 C 30 %
277 02-08-2020 22:01:18 19.1 C 30 %
278 02-08-2020 22:11:18 19.2 C 30 %
279 02-08-2020 22:21:17 19.2 C 30 %
280 02-08-2020 22:31:17 19.2 C 30 %
281 02-08-2020 22:41:17 19.7 C 30 %
282 02-08-2020 22:51:17 19.2 C 30 %
283 02-08-2020 23:01:17 19.1 C 30 %
284 02-08-2020 23:11:17 19.1 C 31 %
285 02-08-2020 23:21:17 19 C 31 %
286 02-08-2020 23:31:17 18.3 C 32 %
287 02-08-2020 23:41:17 18.3 C 32 %
288 02-08-2020 23:51:17 18 C 33 %
289 03-08-2020 00:01:17 17.9 C 34 %
290 03-08-2020 00:11:17 17.6 C 34 %
291 03-08-2020 00:21:17 17.5 C 34 %
292 03-08-2020 00:31:17 17 C 35 %
293 03-08-2020 00:41:17 17.5 C 35 %
294 03-08-2020 00:51:17 17.4 C 34 %
295 03-08-2020 01:01:17 17 C 35 %
296 03-08-2020 01:11:17 16.6 C 35 %
297 03-08-2020 01:21:17 16.8 C 35 %
298 03-08-2020 01:31:18 16.8 C 35 %
299 03-08-2020 01:41:18 16.6 C 35 %
300 03-08-2020 01:51:17 16.5 C 35 %
Sensor: Nr:Datum:Temp:Feuchte:
Aussen-T/F 301 03-08-2020 02:01:18 16.3 C 36 %
302 03-08-2020 02:11:18 16.1 C 36 %
303 03-08-2020 02:21:17 16 C 36 %
304 03-08-2020 02:31:17 15.9 C 37 %
305 03-08-2020 02:41:17 15.3 C 38 %
306 03-08-2020 02:51:17 14.7 C 40 %
307 03-08-2020 03:01:17 14.7 C 40 %
308 03-08-2020 03:11:17 14.5 C 40 %
309 03-08-2020 03:21:17 14.6 C 41 %
310 03-08-2020 03:31:17 14.7 C 40 %
311 03-08-2020 03:41:17 14.3 C 41 %
312 03-08-2020 03:51:18 14.2 C 41 %
313 03-08-2020 04:01:17 14.1 C 42 %
314 03-08-2020 04:11:17 14.1 C 42 %
315 03-08-2020 04:21:17 14.1 C 42 %
316 03-08-2020 04:31:17 14 C 42 %
317 03-08-2020 04:41:17 14.3 C 42 %
318 03-08-2020 04:51:17 14.4 C 42 %
319 03-08-2020 05:01:17 14.4 C 41 %
320 03-08-2020 05:11:17 14.2 C 41 %
321 03-08-2020 05:21:17 13.9 C 42 %
322 03-08-2020 05:31:17 13.7 C 43 %
323 03-08-2020 05:41:17 13.4 C 42 %
324 03-08-2020 05:51:17 13.4 C 43 %
325 03-08-2020 06:01:17 13.4 C 42 %
Sensor: Nr:Datum:Temp:Feuchte:
Aussen-T/F 326 03-08-2020 06:11:17 13.1 C 43 %
327 03-08-2020 06:21:17 12.9 C 44 %
328 03-08-2020 06:31:17 12.9 C 44 %
329 03-08-2020 06:41:17 13.1 C 44 %
330 03-08-2020 06:51:17 13.7 C 43 %
331 03-08-2020 07:01:17 13.9 C 42 %
332 03-08-2020 07:11:17 14.4 C 39 %
333 03-08-2020 07:21:17 15.3 C 36 %
334 03-08-2020 07:31:17 15.7 C 36 %
335 03-08-2020 07:41:17 15.9 C 35 %
336 03-08-2020 07:51:17 16.2 C 35 %
337 03-08-2020 08:01:17 16.4 C 35 %
338 03-08-2020 08:11:17 16.9 C 34 %
339 03-08-2020 08:21:17 17.2 C 33 %
340 03-08-2020 08:31:17 17.3 C 33 %
341 03-08-2020 08:41:17 17.9 C 32 %
342 03-08-2020 08:51:18 17.6 C 32 %
343 03-08-2020 09:01:17 17.9 C 32 %
344 03-08-2020 09:11:17 18.9 C 31 %
345 03-08-2020 09:21:17 19.3 C 31 %
346 03-08-2020 09:31:17 20 C 30 %
347 03-08-2020 09:41:17 19.8 C 30 %
348 03-08-2020 09:51:17 20.2 C 30 %
349 03-08-2020 10:01:17 19.9 C 30 %
350 03-08-2020 10:11:17 19.6 C 30 %
Sensor: Nr:Datum:Temp:Feuchte:
Aussen-T/F 351 03-08-2020 10:21:18 19.5 C 30 %
352 03-08-2020 10:31:17 20.3 C 30 %
353 03-08-2020 10:41:17 21.1 C 27 %
354 03-08-2020 10:51:18 22 C 26 %
355 03-08-2020 11:01:17 21.4 C 26 %
356 03-08-2020 11:11:17 21.6 C 26 %
357 03-08-2020 11:21:17 21.5 C 25 %
358 03-08-2020 11:31:17 21.7 C 25 %
359 03-08-2020 11:41:17 22.1 C 25 %
360 03-08-2020 11:51:18 22.1 C 24 %
361 03-08-2020 12:01:17 22.9 C 24 %
362 03-08-2020 12:11:18 23.4 C 22 %
363 03-08-2020 12:21:17 23.6 C 21 %
364 03-08-2020 12:31:17 23.7 C 21 %
365 03-08-2020 12:41:17 23.9 C 20 %
366 03-08-2020 12:51:17 23.9 C 20 %
367 03-08-2020 13:01:17 24.4 C 20 %
368 03-08-2020 13:11:17 24.1 C 20 %
369 03-08-2020 13:21:17 24.5 C 20 %
370 03-08-2020 13:31:17 23.7 C 20 %
371 03-08-2020 13:41:17 24.1 C 20 %
372 03-08-2020 13:51:17 24.3 C 20 %
373 03-08-2020 14:01:18 25.7 C 20 %
374 03-08-2020 14:11:18 25.1 C 20 %
375 03-08-2020 14:21:17 25.3 C 20 %
Sensor: Nr:Datum:Temp:Feuchte:
Aussen-T/F 376 03-08-2020 14:31:17 25.3 C 20 %
377 03-08-2020 14:41:17 24.9 C 20 %
378 03-08-2020 14:51:17 23.8 C 20 %
379 03-08-2020 15:01:17 24.3 C 20 %
380 03-08-2020 15:11:17 24.1 C 20 %
381 03-08-2020 15:21:17 24.5 C 20 %
382 03-08-2020 15:31:18 24.3 C 20 %
383 03-08-2020 15:41:18 24.9 C 20 %
384 03-08-2020 15:51:17 24.4 C 20 %
385 03-08-2020 16:01:17 24.5 C 20 %
386 03-08-2020 16:11:17 24.6 C 20 %
387 03-08-2020 16:21:17 24.6 C 20 %
388 03-08-2020 16:31:18 24.1 C 20 %
389 03-08-2020 16:41:18 23.5 C 20 %
390 03-08-2020 16:51:17 23.3 C 20 %
391 03-08-2020 17:01:17 21.6 C 22 %
392 03-08-2020 17:11:17 20.8 C 24 %
393 03-08-2020 17:21:17 19.9 C 27 %
394 03-08-2020 17:31:17 20.4 C 25 %
395 03-08-2020 17:41:18 21 C 23 %
396 03-08-2020 17:51:17 20.9 C 23 %
397 03-08-2020 18:01:18 20.9 C 23 %
398 03-08-2020 18:11:18 20.7 C 24 %
399 03-08-2020 18:21:17 20.4 C 24 %
400 03-08-2020 18:31:17 20 C 25 %
Sensor: Nr:Datum:Temp:Feuchte:
Aussen-T/F 401 03-08-2020 18:41:17 19.8 C 26 %
402 03-08-2020 18:51:17 19.6 C 26 %
403 03-08-2020 19:01:17 19.6 C 26 %
404 03-08-2020 19:11:17 19.4 C 27 %
405 03-08-2020 19:21:17 19.4 C 27 %
406 03-08-2020 19:31:17 19.3 C 27 %
407 03-08-2020 19:41:17 19.2 C 27 %
408 03-08-2020 19:51:17 19.2 C 26 %
409 03-08-2020 20:01:17 19.1 C 26 %
410 03-08-2020 20:11:17 19 C 27 %
411 03-08-2020 20:21:17 18.8 C 29 %
412 03-08-2020 20:31:17 18.4 C 29 %
413 03-08-2020 20:41:17 18.1 C 30 %
414 03-08-2020 20:51:17 17.9 C 29 %
415 03-08-2020 21:01:17 18.1 C 29 %
416 03-08-2020 21:11:17 17.9 C 30 %
417 03-08-2020 21:21:17 17.9 C 30 %
418 03-08-2020 21:31:17 17.7 C 30 %
419 03-08-2020 21:41:17 17.5 C 30 %
420 03-08-2020 21:51:18 17.6 C 29 %
421 03-08-2020 22:01:17 17.7 C 30 %
422 03-08-2020 22:11:17 17.6 C 30 %
423 03-08-2020 22:21:17 17.6 C 29 %
424 03-08-2020 22:31:18 17.2 C 30 %
425 03-08-2020 22:41:18 16.9 C 32 %
Sensor: Nr:Datum:Temp:Feuchte:
Aussen-T/F 426 03-08-2020 22:51:17 17.1 C 30 %
427 03-08-2020 23:01:17 16.9 C 32 %
428 03-08-2020 23:11:17 16.6 C 31 %
429 03-08-2020 23:21:17 16.7 C 31 %
430 03-08-2020 23:31:17 16.6 C 31 %
431 03-08-2020 23:41:17 16.6 C 31 %
432 03-08-2020 23:51:17 16.5 C 31 %
433 04-08-2020 00:01:17 16.5 C 31 %
434 04-08-2020 00:11:17 16.4 C 32 %
435 04-08-2020 00:21:17 16.5 C 32 %
436 04-08-2020 00:31:18 16.3 C 33 %
437 04-08-2020 00:41:18 16.6 C 33 %
438 04-08-2020 00:51:17 16.7 C 33 %
439 04-08-2020 01:01:17 16.3 C 33 %
440 04-08-2020 01:11:17 16.2 C 33 %
441 04-08-2020 01:21:18 16.3 C 33 %
442 04-08-2020 01:31:17 16.4 C 33 %
443 04-08-2020 01:41:17 16.4 C 33 %
444 04-08-2020 01:51:17 16.4 C 34 %
445 04-08-2020 02:01:17 16.3 C 34 %
446 04-08-2020 02:11:18 16.4 C 33 %
447 04-08-2020 02:21:17 16.5 C 33 %
448 04-08-2020 02:31:17 16.9 C 32 %
449 04-08-2020 02:41:17 17.1 C 32 %
450 04-08-2020 02:51:17 17.2 C 31 %
Sensor: Nr:Datum:Temp:Feuchte:
Aussen-T/F 451 04-08-2020 03:01:17 17 C 32 %
452 04-08-2020 03:11:17 17.1 C 32 %
453 04-08-2020 03:21:18 17 C 32 %
454 04-08-2020 03:31:17 17 C 32 %
455 04-08-2020 03:41:17 16.9 C 32 %
456 04-08-2020 03:51:17 16.7 C 33 %
457 04-08-2020 04:01:17 16.4 C 33 %
458 04-08-2020 04:11:17 16.2 C 33 %
459 04-08-2020 04:21:17 15.9 C 34 %
460 04-08-2020 04:31:17 15.5 C 35 %
461 04-08-2020 04:41:17 15.3 C 35 %
462 04-08-2020 04:51:17 15.1 C 36 %
463 04-08-2020 05:01:17 15.3 C 35 %
464 04-08-2020 05:11:17 15.4 C 35 %
465 04-08-2020 05:21:17 15.4 C 35 %
466 04-08-2020 05:31:17 15.4 C 35 %
467 04-08-2020 05:41:17 15.3 C 36 %
468 04-08-2020 05:51:17 15.2 C 36 %
469 04-08-2020 06:01:17 15 C 36 %
470 04-08-2020 06:11:17 15 C 36 %
471 04-08-2020 06:21:17 15 C 36 %
472 04-08-2020 06:31:18 15.2 C 36 %
473 04-08-2020 06:41:18 15.2 C 36 %
474 04-08-2020 06:51:17 15.3 C 36 %
475 04-08-2020 07:01:18 15.5 C 36 %
Sensor: Nr:Datum:Temp:Feuchte:
Aussen-T/F 476 04-08-2020 07:11:18 15.5 C 36 %
477 04-08-2020 07:21:17 15.5 C 36 %
478 04-08-2020 07:31:18 15.6 C 36 %
479 04-08-2020 07:41:18 15.5 C 36 %
480 04-08-2020 07:51:17 15.8 C 35 %
481 04-08-2020 08:01:18 16.1 C 35 %
482 04-08-2020 08:11:18 16.2 C 34 %
483 04-08-2020 08:21:17 16.7 C 34 %
484 04-08-2020 08:31:17 17.1 C 33 %
485 04-08-2020 08:41:17 17.5 C 32 %
486 04-08-2020 08:51:17 17.7 C 32 %
487 04-08-2020 09:01:17 17.6 C 32 %
488 04-08-2020 09:11:17 17 C 32 %
489 04-08-2020 09:21:17 17.1 C 32 %
490 04-08-2020 09:31:17 18.2 C 31 %
491 04-08-2020 09:41:18 18.5 C 30 %
492 04-08-2020 09:51:17 18.7 C 30 %
493 04-08-2020 10:01:17 18.5 C 31 %
494 04-08-2020 10:11:17 18 C 31 %
495 04-08-2020 10:21:17 18.1 C 31 %
496 04-08-2020 10:31:18 18.3 C 30 %
497 04-08-2020 10:41:18 19.4 C 30 %
498 04-08-2020 10:51:17 19.7 C 29 %
499 04-08-2020 11:01:18 20.4 C 28 %
500 04-08-2020 11:11:18 21.2 C 27 %
Sensor: Nr:Datum:Temp:Feuchte:
Aussen-T/F 501 04-08-2020 11:21:17 21 C 26 %
502 04-08-2020 11:31:17 21.2 C 26 %
503 04-08-2020 11:41:17 22.3 C 24 %
504 04-08-2020 11:51:17 21.2 C 25 %
505 04-08-2020 12:01:17 23.3 C 21 %
506 04-08-2020 12:11:17 23.1 C 21 %
507 04-08-2020 12:21:17 21.9 C 23 %
508 04-08-2020 12:31:17 21.4 C 24 %
509 04-08-2020 12:41:17 21.8 C 23 %
510 04-08-2020 12:51:17 21.8 C 23 %
511 04-08-2020 13:01:18 21.8 C 22 %
512 04-08-2020 13:11:18 22 C 22 %
513 04-08-2020 13:21:09 22.7 C 21 %
514 04-08-2020 13:31:17 22.5 C 22 %
515 04-08-2020 13:41:17 22.6 C 21 %
516 04-08-2020 13:51:17 23 C 20 %
517 04-08-2020 14:01:17 23.7 C 20 %
518 04-08-2020 14:11:17 27.3 C 20 %
519 04-08-2020 14:21:17 25.1 C 20 %
520 04-08-2020 14:31:18 26 C 20 %
521 04-08-2020 14:41:18 29.3 C 20 %
522 04-08-2020 14:51:17 26.9 C 20 %
523 04-08-2020 15:01:17 29.4 C 20 %
524 04-08-2020 15:11:17 27.7 C 20 %
525 04-08-2020 15:21:17 27.5 C 20 %
Sensor: Nr:Datum:Temp:Feuchte:
Aussen-T/F 526 04-08-2020 15:31:17 27.8 C 20 %
527 04-08-2020 15:41:17 28.6 C 20 %
528 04-08-2020 15:51:18 29.9 C 20 %
529 04-08-2020 16:01:17 31.7 C 20 %
530 04-08-2020 16:11:17 29 C 20 %
531 04-08-2020 16:21:17 29.1 C 20 %
532 04-08-2020 16:31:17 27.9 C 20 %
533 04-08-2020 16:41:17 29.5 C 20 %
534 04-08-2020 16:51:17 30.7 C 20 %
535 04-08-2020 17:01:17 27.7 C 20 %
536 04-08-2020 17:11:17 27.4 C 20 %
537 04-08-2020 17:21:17 26.4 C 20 %
538 04-08-2020 17:31:18 25.4 C 20 %
539 04-08-2020 17:41:18 27.5 C 20 %
540 04-08-2020 17:51:17 28.8 C 20 %
541 04-08-2020 18:01:17 28.2 C 20 %
542 04-08-2020 18:11:17 27.3 C 20 %
543 04-08-2020 18:21:17 25.3 C 20 %
544 04-08-2020 18:31:17 25.1 C 20 %
545 04-08-2020 18:41:18 25 C 20 %
546 04-08-2020 18:51:17 24.7 C 20 %
547 04-08-2020 19:01:17 24.8 C 20 %
548 04-08-2020 19:11:18 24.2 C 20 %
549 04-08-2020 19:21:17 23.9 C 20 %
550 04-08-2020 19:31:17 24 C 20 %
Sensor: Nr:Datum:Temp:Feuchte:
Aussen-T/F 551 04-08-2020 19:41:17 23.9 C 20 %
552 04-08-2020 19:51:18 23.6 C 20 %
553 04-08-2020 20:01:17 23.3 C 20 %
554 04-08-2020 20:11:17 23 C 20 %
555 04-08-2020 20:21:17 22.7 C 20 %
556 04-08-2020 20:31:17 22.4 C 20 %
557 04-08-2020 20:41:17 21 C 20 %
558 04-08-2020 20:51:17 19.8 C 22 %
559 04-08-2020 21:01:18 19.3 C 23 %
560 04-08-2020 21:11:18 18.9 C 24 %
561 04-08-2020 21:21:17 18.9 C 24 %
562 04-08-2020 21:31:17 18.2 C 25 %
563 04-08-2020 21:41:17 17.7 C 26 %
564 04-08-2020 21:51:17 17.4 C 26 %
565 04-08-2020 22:01:17 17.3 C 26 %
566 04-08-2020 22:11:17 16.9 C 26 %
567 04-08-2020 22:21:17 16.6 C 27 %
568 04-08-2020 22:31:17 16.3 C 27 %
569 04-08-2020 22:41:17 15.9 C 28 %
570 04-08-2020 22:51:18 15.6 C 30 %
571 04-08-2020 23:01:17 15.1 C 30 %
572 04-08-2020 23:11:17 14.8 C 31 %
573 04-08-2020 23:21:17 14.4 C 31 %
574 04-08-2020 23:31:18 14.1 C 32 %
575 04-08-2020 23:41:18 13.9 C 33 %
Sensor: Nr:Datum:Temp:Feuchte:
Aussen-T/F 576 04-08-2020 23:51:17 13.8 C 33 %
577 05-08-2020 00:01:17 13.6 C 33 %
578 05-08-2020 00:11:17 13.5 C 33 %
579 05-08-2020 00:21:17 13.4 C 33 %
580 05-08-2020 00:31:17 13.1 C 34 %
581 05-08-2020 00:41:17 12.9 C 35 %
582 05-08-2020 00:51:18 12.8 C 35 %
583 05-08-2020 01:01:17 12.8 C 35 %
584 05-08-2020 01:11:17 12.5 C 35 %
585 05-08-2020 01:21:17 12.7 C 35 %
586 05-08-2020 01:31:17 12.6 C 35 %
587 05-08-2020 01:41:17 12.4 C 35 %
588 05-08-2020 01:51:17 12.4 C 35 %
589 05-08-2020 02:01:17 12.2 C 35 %
590 05-08-2020 02:11:17 12 C 36 %
591 05-08-2020 02:21:17 11.8 C 37 %
592 05-08-2020 02:31:17 11.6 C 37 %
593 05-08-2020 02:41:17 11.6 C 37 %
594 05-08-2020 02:51:18 11.6 C 37 %
595 05-08-2020 03:01:17 11.3 C 37 %
596 05-08-2020 03:11:17 11.1 C 37 %
597 05-08-2020 03:21:17 11.2 C 38 %
598 05-08-2020 03:31:18 11 C 38 %
599 05-08-2020 03:41:18 10.9 C 39 %
600 05-08-2020 03:51:17 10.8 C 40 %
Sensor: Nr:Datum:Temp:Feuchte:
Aussen-T/F 601 05-08-2020 04:01:17 10.7 C 39 %
602 05-08-2020 04:11:17 10.7 C 40 %
603 05-08-2020 04:21:17 10.7 C 40 %
604 05-08-2020 04:31:17 10.5 C 40 %
605 05-08-2020 04:41:17 10.4 C 40 %
606 05-08-2020 04:51:18 10.1 C 40 %
607 05-08-2020 05:01:17 10 C 40 %
608 05-08-2020 05:11:17 10.3 C 40 %
609 05-08-2020 05:21:17 9.9 C 41 %
610 05-08-2020 05:31:18 10.1 C 41 %
611 05-08-2020 05:41:18 10.1 C 41 %
612 05-08-2020 05:51:17 10 C 41 %
613 05-08-2020 06:01:17 10.1 C 41 %
614 05-08-2020 06:11:17 9.9 C 41 %
615 05-08-2020 06:21:17 10 C 41 %
616 05-08-2020 06:31:17 10 C 41 %
617 05-08-2020 06:41:17 10.1 C 41 %
618 05-08-2020 06:51:17 10 C 41 %
619 05-08-2020 07:01:17 10.1 C 42 %
620 05-08-2020 07:11:17 10.3 C 41 %
621 05-08-2020 07:21:17 10.5 C 41 %
622 05-08-2020 07:31:17 10.6 C 41 %
623 05-08-2020 07:41:18 11 C 40 %
624 05-08-2020 07:51:17 11 C 40 %
625 05-08-2020 08:01:18 11.4 C 39 %
Sensor: Nr:Datum:Temp:Feuchte:
Aussen-T/F 626 05-08-2020 08:11:18 11.5 C 39 %
627 05-08-2020 08:21:17 11.8 C 39 %
628 05-08-2020 08:31:17 12 C 37 %
629 05-08-2020 08:41:17 12.2 C 37 %
630 05-08-2020 08:51:17 12.4 C 37 %
631 05-08-2020 09:01:17 13 C 36 %
632 05-08-2020 09:11:17 13.1 C 36 %
633 05-08-2020 09:21:17 13.3 C 37 %
634 05-08-2020 09:31:17 14.2 C 35 %
635 05-08-2020 09:41:17 14.9 C 35 %
636 05-08-2020 09:51:17 15.8 C 33 %
637 05-08-2020 10:01:17 16.2 C 32 %
638 05-08-2020 10:11:18 16.6 C 32 %
639 05-08-2020 10:21:17 17.5 C 31 %
640 05-08-2020 10:31:17 18.1 C 31 %
641 05-08-2020 10:41:17 19 C 30 %
642 05-08-2020 10:51:17 20.5 C 27 %
643 05-08-2020 11:01:17 21.6 C 26 %
644 05-08-2020 11:11:17 23.9 C 23 %
645 05-08-2020 11:21:17 26.1 C 20 %
646 05-08-2020 11:31:17 26.7 C 20 %
647 05-08-2020 11:41:18 27 C 20 %
648 05-08-2020 11:51:17 26.4 C 20 %
649 05-08-2020 12:01:17 27.4 C 20 %
650 05-08-2020 12:11:18 26.4 C 20 %
Sensor: Nr:Datum:Temp:Feuchte:
Aussen-T/F 651 05-08-2020 12:21:17 27.3 C 20 %
652 05-08-2020 12:31:18 25.5 C 20 %
653 05-08-2020 12:41:18 25.5 C 20 %
654 05-08-2020 12:51:17 25.5 C 20 %
655 05-08-2020 13:01:17 25.9 C 20 %
656 05-08-2020 13:11:17 25.8 C 20 %
657 05-08-2020 13:21:17 26.1 C 20 %
658 05-08-2020 13:31:18 26 C 20 %
659 05-08-2020 13:41:18 26.2 C 20 %
660 05-08-2020 13:51:17 26.4 C 20 %
661 05-08-2020 14:01:17 27.1 C 20 %
662 05-08-2020 14:11:17 30.4 C 20 %
663 05-08-2020 14:21:17 31.6 C 20 %
664 05-08-2020 14:31:17 32.5 C 20 %
665 05-08-2020 14:41:17 31.6 C 20 %
666 05-08-2020 14:51:17 33.3 C 20 %
667 05-08-2020 15:01:17 34.8 C 20 %
668 05-08-2020 15:11:17 35.9 C 20 %
669 05-08-2020 15:21:17 34.4 C 20 %
670 05-08-2020 15:31:18 35.5 C 20 %
671 05-08-2020 15:41:18 34.5 C 20 %
672 05-08-2020 15:51:17 34.4 C 20 %
673 05-08-2020 16:01:17 35 C 20 %
674 05-08-2020 16:11:17 35.4 C 20 %
675 05-08-2020 16:21:17 35.9 C 20 %
Sensor: Nr:Datum:Temp:Feuchte:
Aussen-T/F 676 05-08-2020 16:31:17 35.8 C 20 %
677 05-08-2020 16:41:17 34.8 C 20 %
678 05-08-2020 16:51:17 34.7 C 20 %
679 05-08-2020 17:01:18 35.2 C 20 %
680 05-08-2020 17:11:18 36.4 C 20 %
681 05-08-2020 17:21:17 36 C 20 %
682 05-08-2020 17:31:17 35.2 C 20 %
683 05-08-2020 17:41:17 34.7 C 20 %
684 05-08-2020 17:51:18 34.1 C 20 %
685 05-08-2020 18:01:17 34.6 C 20 %
686 05-08-2020 18:11:17 32.8 C 20 %
687 05-08-2020 18:21:17 32.4 C 20 %
688 05-08-2020 18:31:18 29.8 C 20 %
689 05-08-2020 18:41:18 30.2 C 20 %
690 05-08-2020 18:51:17 29.4 C 20 %
691 05-08-2020 19:01:17 29.2 C 20 %
692 05-08-2020 19:11:17 29.1 C 20 %
693 05-08-2020 19:21:17 28.8 C 20 %
694 05-08-2020 19:31:17 28.7 C 20 %
695 05-08-2020 19:41:18 28.4 C 20 %
696 05-08-2020 19:51:17 28 C 20 %
697 05-08-2020 20:01:18 27.6 C 20 %
698 05-08-2020 20:11:18 27.4 C 20 %
699 05-08-2020 20:21:17 26.8 C 20 %
700 05-08-2020 20:31:17 26.1 C 20 %
Sensor: Nr:Datum:Temp:Feuchte:
Aussen-T/F 701 05-08-2020 20:41:17 24.1 C 20 %
702 05-08-2020 20:51:17 23.2 C 20 %
703 05-08-2020 21:01:18 22 C 20 %
704 05-08-2020 21:11:18 21.6 C 20 %
705 05-08-2020 21:21:18 21.1 C 20 %
706 05-08-2020 21:31:17 20.7 C 20 %
707 05-08-2020 21:41:17 20.6 C 20 %
708 05-08-2020 21:51:17 20.4 C 20 %
709 05-08-2020 22:01:17 20.1 C 20 %
710 05-08-2020 22:11:17 20 C 21 %
711 05-08-2020 22:21:18 19.9 C 21 %
712 05-08-2020 22:31:17 19.8 C 21 %
713 05-08-2020 22:41:17 19.7 C 21 %
714 05-08-2020 22:51:17 19.7 C 21 %
715 05-08-2020 23:01:17 18.8 C 23 %
716 05-08-2020 23:11:17 18.7 C 23 %
717 05-08-2020 23:21:17 18.6 C 24 %
718 05-08-2020 23:31:17 17.9 C 25 %
719 05-08-2020 23:41:18 17.7 C 26 %
720 05-08-2020 23:51:17 17.2 C 26 %
721 06-08-2020 00:01:17 16.8 C 28 %
722 06-08-2020 00:11:17 17 C 27 %
723 06-08-2020 00:21:17 16.7 C 27 %
724 06-08-2020 00:31:18 16.8 C 28 %
725 06-08-2020 00:41:18 16.3 C 28 %
Sensor: Nr:Datum:Temp:Feuchte:
Aussen-T/F 726 06-08-2020 00:51:17 16 C 28 %
727 06-08-2020 01:01:17 16 C 29 %
728 06-08-2020 01:11:17 15.9 C 30 %
729 06-08-2020 01:21:17 15.4 C 30 %
730 06-08-2020 01:31:18 15.3 C 30 %
731 06-08-2020 01:41:18 15.2 C 30 %
732 06-08-2020 01:51:17 15.2 C 30 %
733 06-08-2020 02:01:17 14.9 C 31 %
734 06-08-2020 02:11:17 14.5 C 31 %
735 06-08-2020 02:21:17 14.3 C 32 %
736 06-08-2020 02:31:18 14.4 C 32 %
737 06-08-2020 02:41:18 14.2 C 32 %
738 06-08-2020 02:51:17 14.1 C 33 %
739 06-08-2020 03:01:17 13.8 C 34 %
740 06-08-2020 03:11:17 13.7 C 34 %
741 06-08-2020 03:21:17 13.5 C 34 %
742 06-08-2020 03:31:18 13.4 C 35 %
743 06-08-2020 03:41:18 13.3 C 35 %
744 06-08-2020 03:51:17 13.1 C 35 %
745 06-08-2020 04:01:17 13.1 C 35 %
746 06-08-2020 04:11:18 13 C 35 %
747 06-08-2020 04:21:17 13 C 35 %
748 06-08-2020 04:31:18 12.9 C 36 %
749 06-08-2020 04:41:18 13 C 36 %
750 06-08-2020 04:51:17 12.7 C 36 %
Sensor: Nr:Datum:Temp:Feuchte:
Aussen-T/F 751 06-08-2020 05:01:18 12.4 C 37 %
752 06-08-2020 05:11:18 12.5 C 37 %
753 06-08-2020 05:21:17 12.4 C 37 %
754 06-08-2020 05:31:17 12.3 C 37 %
755 06-08-2020 05:41:17 12.2 C 38 %
756 06-08-2020 05:51:17 12 C 38 %
757 06-08-2020 06:01:17 12.1 C 38 %
758 06-08-2020 06:11:17 12.1 C 38 %
759 06-08-2020 06:21:17 12.1 C 38 %
760 06-08-2020 06:31:17 12.1 C 38 %
761 06-08-2020 06:41:17 12 C 39 %
762 06-08-2020 06:51:17 12.1 C 39 %
763 06-08-2020 07:01:17 12.1 C 39 %
764 06-08-2020 07:11:17 12.2 C 39 %
765 06-08-2020 07:21:17 12.7 C 39 %
766 06-08-2020 07:31:18 12.6 C 39 %
767 06-08-2020 07:41:18 12.7 C 39 %
768 06-08-2020 07:51:17 12.9 C 39 %
769 06-08-2020 08:01:17 13.1 C 38 %
770 06-08-2020 08:11:17 13.3 C 37 %
771 06-08-2020 08:21:17 13.4 C 37 %
772 06-08-2020 08:31:17 13.9 C 37 %
773 06-08-2020 08:41:17 14 C 36 %
774 06-08-2020 08:51:17 14.3 C 36 %
775 06-08-2020 09:01:17 14.8 C 36 %
Sensor: Nr:Datum:Temp:Feuchte:
Aussen-T/F 776 06-08-2020 09:11:17 15.2 C 35 %
777 06-08-2020 09:21:17 15.5 C 35 %
778 06-08-2020 09:31:17 16.4 C 34 %
779 06-08-2020 09:41:17 17.1 C 33 %
780 06-08-2020 09:51:18 18.2 C 31 %
781 06-08-2020 10:01:17 18.6 C 31 %
782 06-08-2020 10:11:17 19 C 30 %
783 06-08-2020 10:21:17 21 C 27 %
784 06-08-2020 10:31:18 22.1 C 26 %
785 06-08-2020 10:41:18 24.1 C 22 %
786 06-08-2020 10:51:17 24.9 C 20 %
787 06-08-2020 11:01:17 25.8 C 20 %
788 06-08-2020 11:11:17 27 C 20 %
789 06-08-2020 11:21:17 29.2 C 20 %
790 06-08-2020 11:31:17 29.4 C 20 %
791 06-08-2020 11:41:17 29 C 20 %
792 06-08-2020 11:51:17 30.1 C 20 %
793 06-08-2020 12:01:18 31.5 C 20 %
794 06-08-2020 12:11:18 28.1 C 20 %
795 06-08-2020 12:21:17 28 C 20 %
796 06-08-2020 12:31:17 27.2 C 20 %
797 06-08-2020 12:41:17 27.4 C 20 %
798 06-08-2020 12:51:17 27.5 C 20 %
799 06-08-2020 13:01:17 27.4 C 20 %
800 06-08-2020 13:11:17 27.6 C 20 %
Sensor: Nr:Datum:Temp:Feuchte:
Aussen-T/F 801 06-08-2020 13:21:17 27.5 C 20 %
802 06-08-2020 13:31:17 27.9 C 20 %
803 06-08-2020 13:41:17 28.3 C 20 %
804 06-08-2020 13:51:18 28.5 C 20 %
805 06-08-2020 14:01:17 29.1 C 20 %
806 06-08-2020 14:11:17 31.4 C 20 %
807 06-08-2020 14:21:17 31 C 20 %
808 06-08-2020 14:31:18 33.5 C 20 %
809 06-08-2020 14:41:18 34.3 C 20 %
810 06-08-2020 14:51:17 35 C 20 %
811 06-08-2020 15:01:17 36.7 C 20 %
812 06-08-2020 15:11:17 32.9 C 20 %
813 06-08-2020 15:21:17 35.5 C 20 %
814 06-08-2020 15:31:17 38.3 C 20 %
815 06-08-2020 15:41:17 38.9 C 20 %
816 06-08-2020 15:51:18 36.1 C 20 %
817 06-08-2020 16:01:17 37.6 C 20 %
818 06-08-2020 16:11:17 37.7 C 20 %
819 06-08-2020 16:21:17 37 C 20 %
820 06-08-2020 16:31:18 37.1 C 20 %
821 06-08-2020 16:41:18 37.6 C 20 %
822 06-08-2020 16:51:17 38 C 20 %
823 06-08-2020 17:01:17 37.6 C 20 %
824 06-08-2020 17:11:17 37.7 C 20 %
825 06-08-2020 17:21:17 37.5 C 20 %
Sensor: Nr:Datum:Temp:Feuchte:
Aussen-T/F 826 06-08-2020 17:31:17 38.3 C 20 %
827 06-08-2020 17:41:17 37.3 C 20 %
828 06-08-2020 17:51:17 35.7 C 20 %
829 06-08-2020 18:01:17 36.8 C 20 %
830 06-08-2020 18:11:17 36.6 C 20 %
831 06-08-2020 18:21:17 34.1 C 20 %
832 06-08-2020 18:31:17 32.5 C 20 %
833 06-08-2020 18:41:17 31.8 C 20 %
834 06-08-2020 18:51:17 31.2 C 20 %
835 06-08-2020 19:01:17 31.2 C 20 %
836 06-08-2020 19:11:17 31.1 C 20 %
837 06-08-2020 19:21:17 31 C 20 %
838 06-08-2020 19:31:17 31 C 20 %
839 06-08-2020 19:41:17 30.8 C 20 %
840 06-08-2020 19:51:17 30.5 C 20 %
841 06-08-2020 20:01:18 30.1 C 20 %
842 06-08-2020 20:11:18 28.9 C 20 %
843 06-08-2020 20:21:17 28.2 C 20 %
844 06-08-2020 20:31:17 26.6 C 20 %
845 06-08-2020 20:41:17 25.6 C 20 %
846 06-08-2020 20:51:17 25.3 C 20 %
847 06-08-2020 21:01:17 24.7 C 20 %
848 06-08-2020 21:11:18 24.9 C 20 %
849 06-08-2020 21:21:17 24.6 C 20 %
850 06-08-2020 21:31:17 24.2 C 20 %
Sensor: Nr:Datum:Temp:Feuchte:
Aussen-T/F 851 06-08-2020 21:41:17 23.9 C 20 %
852 06-08-2020 21:51:18 23.2 C 21 %
853 06-08-2020 22:01:17 22.2 C 23 %
854 06-08-2020 22:11:17 22.5 C 22 %
855 06-08-2020 22:21:17 21.9 C 24 %
856 06-08-2020 22:31:17 21.7 C 25 %
857 06-08-2020 22:41:17 21.1 C 25 %
858 06-08-2020 22:51:17 20.8 C 26 %
859 06-08-2020 23:01:17 20.9 C 26 %
860 06-08-2020 23:11:17 20.7 C 26 %
861 06-08-2020 23:21:17 20 C 26 %
862 06-08-2020 23:31:17 19.7 C 27 %
863 06-08-2020 23:41:17 19.3 C 28 %
864 06-08-2020 23:51:17 19.4 C 28 %
865 07-08-2020 00:01:17 19 C 28 %
866 07-08-2020 00:11:18 18.7 C 29 %
867 07-08-2020 00:21:17 18.6 C 30 %
868 07-08-2020 00:31:17 18.3 C 30 %
869 07-08-2020 00:41:17 18.2 C 30 %
870 07-08-2020 00:51:18 18 C 30 %
871 07-08-2020 01:01:17 17.8 C 31 %
872 07-08-2020 01:11:17 17.7 C 31 %
873 07-08-2020 01:21:17 17.5 C 31 %
874 07-08-2020 01:31:18 17.2 C 31 %
875 07-08-2020 01:41:18 17.2 C 32 %
Sensor: Nr:Datum:Temp:Feuchte:
Aussen-T/F 876 07-08-2020 01:51:17 17 C 32 %
877 07-08-2020 02:01:17 16.9 C 32 %
878 07-08-2020 02:11:17 16.8 C 33 %
879 07-08-2020 02:21:17 16.6 C 33 %
880 07-08-2020 02:31:17 16.4 C 33 %
881 07-08-2020 02:41:17 16.6 C 33 %
882 07-08-2020 02:51:17 16.5 C 33 %
883 07-08-2020 03:01:17 16 C 34 %
884 07-08-2020 03:11:17 16.1 C 34 %
885 07-08-2020 03:21:17 15.8 C 35 %
886 07-08-2020 03:31:17 15.8 C 35 %
887 07-08-2020 03:41:17 15.8 C 35 %
888 07-08-2020 03:51:17 15.5 C 36 %
889 07-08-2020 04:01:17 15.7 C 36 %
890 07-08-2020 04:11:17 15.2 C 36 %
891 07-08-2020 04:21:17 14.9 C 37 %
892 07-08-2020 04:31:17 15.1 C 36 %
893 07-08-2020 04:41:17 15 C 36 %
894 07-08-2020 04:51:17 14.9 C 37 %
895 07-08-2020 05:01:17 14.6 C 37 %
896 07-08-2020 05:11:17 14.4 C 38 %
897 07-08-2020 05:21:17 14.3 C 38 %
898 07-08-2020 05:31:18 14.2 C 38 %
899 07-08-2020 05:41:18 14.2 C 39 %
900 07-08-2020 05:51:17 14.2 C 38 %
Sensor: Nr:Datum:Temp:Feuchte:
Aussen-T/F 901 07-08-2020 06:01:18 14.1 C 39 %
902 07-08-2020 06:11:18 14 C 39 %
903 07-08-2020 06:21:17 14.2 C 39 %
904 07-08-2020 06:31:17 14.4 C 39 %
905 07-08-2020 06:41:17 14.5 C 38 %
906 07-08-2020 06:51:17 14.7 C 38 %
907 07-08-2020 07:01:17 14.5 C 38 %
908 07-08-2020 07:11:17 14.7 C 38 %
909 07-08-2020 07:21:17 14.5 C 39 %
910 07-08-2020 07:31:18 14.6 C 39 %
911 07-08-2020 07:41:18 14.7 C 39 %
912 07-08-2020 07:51:17 14.9 C 39 %
913 07-08-2020 08:01:17 15 C 38 %
914 07-08-2020 08:11:17 15.4 C 37 %
915 07-08-2020 08:21:17 15.6 C 37 %
916 07-08-2020 08:31:17 15.8 C 37 %
917 07-08-2020 08:41:17 16 C 37 %
918 07-08-2020 08:51:18 16.4 C 37 %
919 07-08-2020 09:01:17 16.6 C 36 %
920 07-08-2020 09:11:17 16.9 C 36 %
921 07-08-2020 09:21:17 17.7 C 35 %
922 07-08-2020 09:31:17 18.3 C 34 %
923 07-08-2020 09:41:17 19.1 C 32 %
924 07-08-2020 09:51:17 19.9 C 31 %
925 07-08-2020 10:01:17 20.2 C 31 %
Sensor: Nr:Datum:Temp:Feuchte:
Aussen-T/F 926 07-08-2020 10:11:18 20.8 C 31 %
927 07-08-2020 10:21:17 21.4 C 30 %
928 07-08-2020 10:31:18 22 C 28 %
929 07-08-2020 10:41:18 23.1 C 27 %
930 07-08-2020 10:51:17 24.6 C 25 %
931 07-08-2020 11:01:17 25.6 C 24 %
932 07-08-2020 11:11:17 26.8 C 21 %
933 07-08-2020 11:21:17 28.5 C 20 %
934 07-08-2020 11:31:17 29.6 C 20 %
935 07-08-2020 11:41:17 29.8 C 20 %
936 07-08-2020 11:51:18 30.5 C 20 %
937 07-08-2020 12:01:17 33.5 C 20 %
938 07-08-2020 12:11:17 30.8 C 20 %
939 07-08-2020 12:21:17 30.6 C 20 %
940 07-08-2020 12:31:17 30.4 C 20 %
941 07-08-2020 12:41:17 30.6 C 20 %
942 07-08-2020 12:51:17 30 C 20 %
943 07-08-2020 13:01:17 30.2 C 20 %
944 07-08-2020 13:11:17 30.7 C 20 %
945 07-08-2020 13:21:17 31.1 C 20 %
946 07-08-2020 13:31:17 31.2 C 20 %
947 07-08-2020 13:41:17 31.5 C 20 %
948 07-08-2020 13:51:17 31.8 C 20 %
949 07-08-2020 14:01:18 31.8 C 20 %
950 07-08-2020 14:11:18 33.6 C 20 %
Sensor: Nr:Datum:Temp:Feuchte:
Aussen-T/F 951 07-08-2020 14:21:17 34.7 C 20 %
952 07-08-2020 14:31:17 36.7 C 20 %
953 07-08-2020 14:41:17 36.4 C 20 %
954 07-08-2020 14:51:18 37.2 C 20 %
955 07-08-2020 15:01:17 38.2 C 20 %
956 07-08-2020 15:11:17 38.1 C 20 %
957 07-08-2020 15:21:17 38 C 20 %
958 07-08-2020 15:31:17 39.5 C 20 %
959 07-08-2020 15:41:17 38.2 C 20 %
960 07-08-2020 15:51:17 38.9 C 20 %
961 07-08-2020 16:01:17 37.6 C 20 %
962 07-08-2020 16:11:17 38.8 C 20 %
963 07-08-2020 16:21:17 39.2 C 20 %
964 07-08-2020 16:31:18 38.5 C 20 %
965 07-08-2020 16:41:18 38.9 C 20 %
966 07-08-2020 16:51:17 39.5 C 20 %
967 07-08-2020 17:01:17 39.1 C 20 %
968 07-08-2020 17:11:17 38.5 C 20 %
969 07-08-2020 17:21:17 39.5 C 20 %
970 07-08-2020 17:31:18 38.8 C 20 %
971 07-08-2020 17:41:18 37 C 20 %
972 07-08-2020 17:51:17 37.4 C 20 %
973 07-08-2020 18:01:17 38 C 20 %
974 07-08-2020 18:11:17 38.6 C 20 %
975 07-08-2020 18:21:17 35.7 C 20 %
Sensor: Nr:Datum:Temp:Feuchte:
Aussen-T/F 976 07-08-2020 18:31:17 34.8 C 20 %
977 07-08-2020 18:41:17 34.6 C 20 %
978 07-08-2020 18:51:17 34.2 C 20 %
979 07-08-2020 19:01:17 34.2 C 20 %
980 07-08-2020 19:11:17 34.2 C 20 %
981 07-08-2020 19:21:17 33.8 C 20 %
982 07-08-2020 19:31:17 33.8 C 20 %
983 07-08-2020 19:41:17 33.2 C 20 %
984 07-08-2020 19:51:17 32.7 C 20 %
985 07-08-2020 20:01:17 31.2 C 20 %
986 07-08-2020 20:11:17 30.7 C 20 %
987 07-08-2020 20:21:17 30.1 C 20 %
988 07-08-2020 20:31:17 29.4 C 20 %
989 07-08-2020 20:41:17 28.6 C 20 %
990 07-08-2020 20:51:17 27.7 C 20 %
991 07-08-2020 21:01:18 27.2 C 20 %
992 07-08-2020 21:11:18 27 C 20 %
993 07-08-2020 21:21:17 26.9 C 20 %
994 07-08-2020 21:31:17 26.7 C 20 %
995 07-08-2020 21:41:17 26.6 C 20 %
996 07-08-2020 21:51:17 25.9 C 20 %
997 07-08-2020 22:01:17 25 C 20 %
998 07-08-2020 22:11:17 24.5 C 20 %
999 07-08-2020 22:21:17 24.3 C 21 %
1000 07-08-2020 22:31:18 23.7 C 22 %
Sensor: Nr:Datum:Temp:Feuchte:
Aussen-T/F 1001 07-08-2020 22:41:18 23.5 C 22 %
1002 07-08-2020 22:51:17 23.2 C 23 %
1003 07-08-2020 23:01:17 23.1 C 23 %
1004 07-08-2020 23:11:17 22.8 C 23 %
1005 07-08-2020 23:21:17 22.5 C 24 %
1006 07-08-2020 23:31:17 22 C 25 %
1007 07-08-2020 23:41:17 22 C 25 %
1008 07-08-2020 23:51:17 21.7 C 25 %
1009 08-08-2020 00:01:17 21.2 C 26 %
1010 08-08-2020 00:11:17 21.1 C 26 %
1011 08-08-2020 00:21:17 20.9 C 27 %
1012 08-08-2020 00:31:17 21 C 26 %
1013 08-08-2020 00:41:18 20.8 C 27 %
1014 08-08-2020 00:51:17 20.5 C 28 %
1015 08-08-2020 01:01:17 20 C 29 %
1016 08-08-2020 01:11:17 19.7 C 30 %
1017 08-08-2020 01:21:18 19.7 C 30 %
1018 08-08-2020 01:31:17 19.6 C 30 %
1019 08-08-2020 01:41:17 19.7 C 30 %
1020 08-08-2020 01:51:17 19.3 C 30 %
1021 08-08-2020 02:01:17 19.2 C 30 %
1022 08-08-2020 02:11:17 19.2 C 30 %
1023 08-08-2020 02:21:17 19.1 C 30 %
1024 08-08-2020 02:31:17 19.1 C 30 %
1025 08-08-2020 02:41:17 18.9 C 31 %
Sensor: Nr:Datum:Temp:Feuchte:
Aussen-T/F 1026 08-08-2020 02:51:17 18.6 C 31 %
1027 08-08-2020 03:01:18 18.7 C 31 %
1028 08-08-2020 03:11:18 18.6 C 32 %
1029 08-08-2020 03:21:17 18.4 C 32 %
1030 08-08-2020 03:31:17 18.3 C 32 %
1031 08-08-2020 03:41:17 18.2 C 32 %
1032 08-08-2020 03:51:18 17.9 C 33 %
1033 08-08-2020 04:01:17 17.8 C 33 %
1034 08-08-2020 04:11:17 17.7 C 33 %
1035 08-08-2020 04:21:17 17.5 C 34 %
1036 08-08-2020 04:31:18 17.6 C 34 %
1037 08-08-2020 04:41:18 17.5 C 34 %
1038 08-08-2020 04:51:17 17.3 C 34 %
1039 08-08-2020 05:01:18 17.3 C 34 %
1040 08-08-2020 05:11:18 17.2 C 35 %
1041 08-08-2020 05:21:17 17.3 C 35 %
1042 08-08-2020 05:31:17 17.3 C 35 %
1043 08-08-2020 05:41:17 17.2 C 35 %
1044 08-08-2020 05:51:17 16.9 C 35 %
1045 08-08-2020 06:01:17 16.8 C 35 %
1046 08-08-2020 06:11:18 16.7 C 36 %
1047 08-08-2020 06:21:17 16.8 C 36 %
1048 08-08-2020 06:31:18 16.7 C 36 %
1049 08-08-2020 06:41:18 16.7 C 36 %
1050 08-08-2020 06:51:17 16.9 C 36 %
Sensor: Nr:Datum:Temp:Feuchte:
Aussen-T/F 1051 08-08-2020 07:01:18 17.2 C 35 %
1052 08-08-2020 07:11:18 17.2 C 36 %
1053 08-08-2020 07:21:17 17.6 C 35 %
1054 08-08-2020 07:31:17 17.7 C 35 %
1055 08-08-2020 07:41:17 17.8 C 35 %
1056 08-08-2020 07:51:17 18.1 C 35 %
1057 08-08-2020 08:01:17 18.3 C 35 %
1058 08-08-2020 08:11:17 18.5 C 34 %
1059 08-08-2020 08:21:17 18.9 C 34 %
1060 08-08-2020 08:31:18 19 C 34 %
1061 08-08-2020 08:41:18 19.3 C 33 %
1062 08-08-2020 08:51:17 19.8 C 33 %
1063 08-08-2020 09:01:17 20 C 33 %
1064 08-08-2020 09:11:17 20.4 C 32 %
1065 08-08-2020 09:21:17 20.8 C 32 %
1066 08-08-2020 09:31:17 21.3 C 31 %
1067 08-08-2020 09:41:17 22.4 C 29 %
1068 08-08-2020 09:51:17 22.9 C 29 %
1069 08-08-2020 10:01:17 22.8 C 28 %
1070 08-08-2020 10:11:17 23.7 C 27 %
1071 08-08-2020 10:21:17 24.4 C 26 %
1072 08-08-2020 10:31:17 24.8 C 26 %
1073 08-08-2020 10:41:17 25.8 C 25 %
1074 08-08-2020 10:51:17 27.4 C 23 %
1075 08-08-2020 11:01:17 28.1 C 22 %
Sensor: Nr:Datum:Temp:Feuchte:
Aussen-T/F 1076 08-08-2020 11:11:17 28.7 C 21 %
1077 08-08-2020 11:21:17 30.4 C 20 %
1078 08-08-2020 11:31:17 31.1 C 20 %
1079 08-08-2020 11:41:17 32.8 C 20 %
1080 08-08-2020 11:51:17 33.5 C 20 %
1081 08-08-2020 12:01:17 35.4 C 20 %
1082 08-08-2020 12:11:17 33.2 C 20 %
1083 08-08-2020 12:21:17 31.7 C 20 %
1084 08-08-2020 12:31:17 31.5 C 20 %
1085 08-08-2020 12:41:17 32 C 20 %
1086 08-08-2020 12:51:17 32.5 C 20 %
1087 08-08-2020 13:01:17 32.9 C 20 %
1088 08-08-2020 13:11:17 33.2 C 20 %
1089 08-08-2020 13:21:17 33.1 C 20 %
1090 08-08-2020 13:31:17 33.7 C 20 %
1091 08-08-2020 13:41:17 34 C 20 %
1092 08-08-2020 13:51:18 34 C 20 %
1093 08-08-2020 14:01:17 34.6 C 20 %
1094 08-08-2020 14:11:18 36 C 20 %
1095 08-08-2020 14:21:17 36.6 C 20 %
1096 08-08-2020 14:31:17 35.3 C 20 %
1097 08-08-2020 14:41:17 38.9 C 20 %
1098 08-08-2020 14:51:17 38.9 C 20 %
1099 08-08-2020 15:01:17 40 C 20 %
1100 08-08-2020 15:11:17 40.9 C 20 %
Sensor: Nr:Datum:Temp:Feuchte:
Aussen-T/F 1101 08-08-2020 15:21:17 40.4 C 20 %
1102 08-08-2020 15:31:18 40.6 C 20 %
1103 08-08-2020 15:41:18 41.8 C 20 %
1104 08-08-2020 15:51:17 40.3 C 20 %
1105 08-08-2020 16:01:18 42.4 C 20 %
1106 08-08-2020 16:11:18 42 C 20 %
1107 08-08-2020 16:16:20 41.4 C 20 %
1108 08-08-2020 16:26:20 42 C 20 %
1109 08-08-2020 16:41:18 43.8 C 20 %
1110 08-08-2020 16:51:17 44.3 C 20 %
1111 08-08-2020 17:01:17 43.6 C 20 %
1112 08-08-2020 17:11:18 44.2 C 20 %
1113 08-08-2020 17:21:17 42.2 C 20 %
1114 08-08-2020 17:31:18 44.2 C 20 %
1115 08-08-2020 17:41:18 40.3 C 20 %
1116 08-08-2020 17:51:17 41 C 20 %
1117 08-08-2020 18:01:18 42 C 20 %
1118 08-08-2020 18:11:18 39.8 C 20 %
1119 08-08-2020 18:21:18 37.4 C 20 %
1120 08-08-2020 18:31:17 36.8 C 20 %
1121 08-08-2020 18:41:18 36.4 C 20 %
1122 08-08-2020 18:51:18 36.4 C 20 %
1123 08-08-2020 19:01:17 36.2 C 20 %
1124 08-08-2020 19:11:18 36 C 20 %
1125 08-08-2020 19:21:17 35.8 C 20 %
Sensor: Nr:Datum:Temp:Feuchte:
Aussen-T/F 1126 08-08-2020 19:31:18 35.3 C 20 %
1127 08-08-2020 19:41:18 34.6 C 20 %
1128 08-08-2020 19:51:18 33.4 C 20 %
1129 08-08-2020 20:01:18 32.4 C 20 %
1130 08-08-2020 20:11:18 31.4 C 20 %
1131 08-08-2020 20:21:18 30.7 C 20 %
1132 08-08-2020 20:31:18 30 C 20 %
1133 08-08-2020 20:41:18 29.1 C 20 %
1134 08-08-2020 20:51:18 28.6 C 20 %
1135 08-08-2020 21:01:17 28.4 C 20 %
1136 08-08-2020 21:11:17 27.9 C 20 %
1137 08-08-2020 21:21:17 27.7 C 20 %
1138 08-08-2020 21:31:17 27.5 C 20 %
1139 08-08-2020 21:41:17 27.4 C 20 %
1140 08-08-2020 21:51:17 27.3 C 20 %
1141 08-08-2020 22:01:18 27.2 C 20 %
1142 08-08-2020 22:11:18 26.9 C 20 %
1143 08-08-2020 22:21:17 26.7 C 20 %
1144 08-08-2020 22:31:17 26.3 C 20 %
1145 08-08-2020 22:41:17 25.6 C 20 %
1146 08-08-2020 22:51:18 24.8 C 21 %
1147 08-08-2020 23:01:17 24.2 C 22 %
1148 08-08-2020 23:11:17 24.4 C 21 %
1149 08-08-2020 23:21:17 24.4 C 21 %
1150 08-08-2020 23:31:17 24.4 C 21 %
Sensor: Nr:Datum:Temp:Feuchte:
Aussen-T/F 1151 08-08-2020 23:41:17 23.9 C 22 %
1152 08-08-2020 23:51:17 23.4 C 23 %
1153 09-08-2020 00:01:17 23.4 C 24 %
1154 09-08-2020 00:11:17 23.4 C 24 %
1155 09-08-2020 00:21:17 23.1 C 24 %
1156 09-08-2020 00:31:17 22.9 C 25 %
1157 09-08-2020 00:41:17 22.8 C 25 %
1158 09-08-2020 00:51:17 22.6 C 25 %
1159 09-08-2020 01:01:17 22.4 C 25 %
1160 09-08-2020 01:11:17 22.3 C 25 %
1161 09-08-2020 01:21:17 22.2 C 25 %
1162 09-08-2020 01:31:17 21.4 C 27 %
1163 09-08-2020 01:41:17 21.3 C 27 %
1164 09-08-2020 01:51:17 21.4 C 27 %
1165 09-08-2020 02:01:17 20.8 C 29 %
1166 09-08-2020 02:11:17 20.8 C 29 %
1167 09-08-2020 02:21:17 20.8 C 29 %
1168 09-08-2020 02:31:18 20.6 C 29 %
1169 09-08-2020 02:41:18 20.3 C 30 %
1170 09-08-2020 02:51:17 20.2 C 30 %
1171 09-08-2020 03:01:17 20 C 30 %
1172 09-08-2020 03:11:17 19.8 C 30 %
1173 09-08-2020 03:21:18 19.8 C 30 %
1174 09-08-2020 03:31:17 19.7 C 31 %
1175 09-08-2020 03:41:17 19.9 C 31 %
Sensor: Nr:Datum:Temp:Feuchte:
Aussen-T/F 1176 09-08-2020 03:51:17 19.5 C 31 %
1177 09-08-2020 04:01:18 19.4 C 31 %
1178 09-08-2020 04:11:18 19.9 C 31 %
1179 09-08-2020 04:21:17 19.6 C 31 %
1180 09-08-2020 04:31:18 19.1 C 31 %
1181 09-08-2020 04:41:18 19 C 31 %
1182 09-08-2020 04:51:17 19 C 32 %
1183 09-08-2020 05:01:18 18.5 C 32 %
1184 09-08-2020 05:11:18 18.4 C 33 %
1185 09-08-2020 05:21:17 18.4 C 33 %
1186 09-08-2020 05:31:17 18.3 C 33 %
1187 09-08-2020 05:41:17 18.7 C 33 %
1188 09-08-2020 05:51:17 18.5 C 33 %
1189 09-08-2020 06:01:17 18.3 C 33 %
1190 09-08-2020 06:11:17 18.3 C 33 %
1191 09-08-2020 06:21:17 18.6 C 33 %
1192 09-08-2020 06:31:18 18.7 C 33 %
1193 09-08-2020 06:41:18 19 C 33 %
1194 09-08-2020 06:51:17 19.1 C 33 %
1195 09-08-2020 07:01:18 19.1 C 33 %
1196 09-08-2020 07:11:18 18.9 C 34 %
1197 09-08-2020 07:21:17 18.8 C 34 %
1198 09-08-2020 07:31:17 19 C 34 %
1199 09-08-2020 07:41:17 19.2 C 33 %
1200 09-08-2020 07:51:17 19.3 C 33 %
Sensor: Nr:Datum:Temp:Feuchte:
Aussen-T/F 1201 09-08-2020 08:01:17 19.6 C 33 %
1202 09-08-2020 08:11:17 20 C 32 %
1203 09-08-2020 08:21:17 20.3 C 32 %
1204 09-08-2020 08:31:17 20.6 C 31 %
1205 09-08-2020 08:41:17 20.7 C 32 %
1206 09-08-2020 08:51:17 20.9 C 32 %
1207 09-08-2020 09:01:18 21.3 C 30 %
1208 09-08-2020 09:11:18 21.7 C 31 %
1209 09-08-2020 09:21:17 22.2 C 29 %
1210 09-08-2020 09:31:18 22.8 C 29 %
1211 09-08-2020 09:41:18 23.8 C 27 %
1212 09-08-2020 09:51:17 24.3 C 26 %
1213 09-08-2020 10:01:18 24.6 C 25 %
1214 09-08-2020 10:11:18 25.2 C 25 %
1215 09-08-2020 10:21:17 25.6 C 24 %
1216 09-08-2020 10:31:18 26.8 C 23 %
1217 09-08-2020 10:41:18 27.1 C 23 %
1218 09-08-2020 10:51:17 28.2 C 22 %
1219 09-08-2020 11:01:18 29.4 C 20 %
1220 09-08-2020 11:11:18 30.7 C 20 %
1221 09-08-2020 11:21:17 33.2 C 20 %
1222 09-08-2020 11:31:17 34.1 C 20 %
1223 09-08-2020 11:41:18 34.9 C 20 %
1224 09-08-2020 11:51:17 36.6 C 20 %
1225 09-08-2020 12:01:17 38.2 C 20 %
Sensor: Nr:Datum:Temp:Feuchte:
Aussen-T/F 1226 09-08-2020 12:11:17 35.1 C 20 %
1227 09-08-2020 12:21:18 34.4 C 20 %
1228 09-08-2020 12:31:17 34.2 C 20 %
1229 09-08-2020 12:41:17 34.1 C 20 %
1230 09-08-2020 12:51:17 34.1 C 20 %
1231 09-08-2020 13:01:17 34.2 C 20 %
1232 09-08-2020 13:11:17 34.3 C 20 %
1233 09-08-2020 13:21:17 34.4 C 20 %
1234 09-08-2020 13:31:17 34.4 C 20 %
1235 09-08-2020 13:41:17 34.6 C 20 %
1236 09-08-2020 13:51:17 35.1 C 20 %
1237 09-08-2020 14:01:18 36.2 C 20 %
1238 09-08-2020 14:11:18 37.3 C 20 %
1239 09-08-2020 14:21:18 36.3 C 20 %
1240 09-08-2020 14:31:18 36 C 20 %
1241 09-08-2020 14:41:18 35.2 C 20 %
1242 09-08-2020 14:51:17 34.1 C 20 %
1243 09-08-2020 15:01:17 33.8 C 20 %
1244 09-08-2020 15:11:17 28.6 C 23 %
1245 09-08-2020 15:21:17 29.2 C 22 %
1246 09-08-2020 15:31:17 29.7 C 22 %
1247 09-08-2020 15:41:17 30.3 C 20 %
1248 09-08-2020 15:51:17 29.7 C 20 %
1249 09-08-2020 16:01:17 29.3 C 20 %
1250 09-08-2020 16:11:17 29.3 C 20 %
Sensor: Nr:Datum:Temp:Feuchte:
Aussen-T/F 1251 09-08-2020 16:21:17 29.2 C 20 %
1252 09-08-2020 16:31:17 29.2 C 20 %
1253 09-08-2020 16:41:17 29.2 C 20 %
1254 09-08-2020 16:51:17 29 C 20 %
1255 09-08-2020 17:01:17 28.8 C 20 %
1256 09-08-2020 17:11:17 28.4 C 20 %
1257 09-08-2020 17:21:17 28.2 C 20 %
1258 09-08-2020 17:31:17 28.2 C 20 %
1259 09-08-2020 17:41:17 28.2 C 20 %
1260 09-08-2020 17:51:17 27.9 C 20 %
1261 09-08-2020 18:01:17 28.1 C 20 %
1262 09-08-2020 18:11:17 28 C 20 %
1263 09-08-2020 18:21:17 27.8 C 20 %
1264 09-08-2020 18:31:17 27.6 C 20 %
1265 09-08-2020 18:41:17 27.8 C 20 %
1266 09-08-2020 18:51:17 27.8 C 20 %
1267 09-08-2020 19:01:17 27.6 C 20 %
1268 09-08-2020 19:11:18 27.2 C 21 %
1269 09-08-2020 19:21:17 27.2 C 20 %
1270 09-08-2020 19:31:17 26.2 C 23 %
1271 09-08-2020 19:41:17 25.6 C 25 %
1272 09-08-2020 19:51:18 25.4 C 25 %
1273 09-08-2020 20:01:17 25.2 C 25 %
1274 09-08-2020 20:11:17 24.8 C 25 %
1275 09-08-2020 20:21:17 25.1 C 24 %
Sensor: Nr:Datum:Temp:Feuchte:
Aussen-T/F 1276 09-08-2020 20:31:17 24.6 C 25 %
1277 09-08-2020 20:41:17 24.3 C 25 %
1278 09-08-2020 20:51:17 21.5 C 36 %
1279 09-08-2020 21:01:17 21 C 37 %
1280 09-08-2020 21:11:17 20.3 C 39 %
1281 09-08-2020 21:21:17 20.4 C 39 %
1282 09-08-2020 21:31:17 20.5 C 38 %
1283 09-08-2020 21:41:17 20.6 C 39 %
1284 09-08-2020 21:51:17 20.8 C 39 %
1285 09-08-2020 22:01:17 20.9 C 38 %
1286 09-08-2020 22:11:17 21.1 C 37 %
1287 09-08-2020 22:21:17 21.1 C 37 %
1288 09-08-2020 22:31:17 21.3 C 36 %
1289 09-08-2020 22:41:17 21.4 C 36 %
1290 09-08-2020 22:51:18 21.2 C 36 %
1291 09-08-2020 23:01:18 21.3 C 35 %
1292 09-08-2020 23:11:18 21.1 C 36 %
1293 09-08-2020 23:21:17 21 C 36 %
1294 09-08-2020 23:31:18 20.7 C 37 %
1295 09-08-2020 23:41:18 20.8 C 37 %
1296 09-08-2020 23:51:18 20.4 C 38 %
1297 10-08-2020 00:01:17 20 C 37 %
1298 10-08-2020 00:11:17 19.6 C 38 %
1299 10-08-2020 00:21:18 19.3 C 39 %
1300 10-08-2020 00:31:18 19.3 C 39 %
Sensor: Nr:Datum:Temp:Feuchte:
Aussen-T/F 1301 10-08-2020 00:41:18 19.1 C 40 %
1302 10-08-2020 00:51:17 19.2 C 40 %
1303 10-08-2020 01:01:17 19.6 C 39 %
1304 10-08-2020 01:11:17 20.8 C 36 %
1305 10-08-2020 01:21:18 20.4 C 37 %
1306 10-08-2020 01:31:17 20.4 C 36 %
1307 10-08-2020 01:41:17 20.6 C 36 %
1308 10-08-2020 01:51:17 20.8 C 36 %
1309 10-08-2020 02:01:17 21.1 C 34 %
1310 10-08-2020 02:11:17 21 C 35 %
1311 10-08-2020 02:21:17 20.9 C 36 %
1312 10-08-2020 02:31:18 20.8 C 36 %
1313 10-08-2020 02:41:18 20.5 C 36 %
1314 10-08-2020 02:51:17 20.4 C 36 %
1315 10-08-2020 03:01:18 20.3 C 37 %
1316 10-08-2020 03:11:18 20 C 37 %
1317 10-08-2020 03:21:17 19.8 C 38 %
1318 10-08-2020 03:31:18 20.1 C 37 %
1319 10-08-2020 03:41:18 19.8 C 38 %
1320 10-08-2020 03:51:17 19.4 C 38 %
1321 10-08-2020 04:01:17 19.2 C 39 %
1322 10-08-2020 04:11:17 19.1 C 38 %
1323 10-08-2020 04:21:18 19.5 C 38 %
1324 10-08-2020 04:31:18 19.8 C 37 %
1325 10-08-2020 04:41:18 19.9 C 38 %
Sensor: Nr:Datum:Temp:Feuchte:
Aussen-T/F 1326 10-08-2020 04:51:18 19.7 C 37 %
1327 10-08-2020 05:01:17 19.7 C 38 %
1328 10-08-2020 05:11:18 20.2 C 36 %
1329 10-08-2020 05:21:17 20 C 37 %
1330 10-08-2020 05:31:18 19.8 C 38 %
1331 10-08-2020 05:41:18 19.8 C 38 %
1332 10-08-2020 05:51:17 19.6 C 38 %
1333 10-08-2020 06:01:18 19.2 C 39 %
1334 10-08-2020 06:11:18 19 C 40 %
1335 10-08-2020 06:22:17 19.1 C 40 %
1336 10-08-2020 06:31:18 19 C 40 %
1337 10-08-2020 06:41:18 19 C 40 %
1338 10-08-2020 06:51:18 19 C 39 %
1339 10-08-2020 07:01:18 19 C 39 %
1340 10-08-2020 07:11:18 19.3 C 39 %
1341 10-08-2020 07:21:18 19.7 C 39 %
1342 10-08-2020 07:31:18 20.1 C 37 %
1343 10-08-2020 07:41:18 20.4 C 36 %
1344 10-08-2020 07:52:17 20.6 C 36 %
1345 10-08-2020 08:01:18 20.6 C 36 %
1346 10-08-2020 08:11:18 20.7 C 37 %
1347 10-08-2020 08:21:17 20.9 C 36 %
1348 10-08-2020 08:31:18 21.2 C 35 %
1349 10-08-2020 08:41:18 21.8 C 35 %
1350 10-08-2020 08:51:18 22.7 C 32 %
Sensor: Nr:Datum:Temp:Feuchte:
Aussen-T/F 1351 10-08-2020 09:02:17 23.4 C 31 %
1352 10-08-2020 09:12:17 24.2 C 30 %
1353 10-08-2020 09:22:17 24.5 C 29 %
1354 10-08-2020 09:31:18 24.8 C 28 %
1355 10-08-2020 09:41:18 25.1 C 27 %
1356 10-08-2020 09:52:17 25.3 C 27 %
1357 10-08-2020 10:01:18 25.8 C 26 %
1358 10-08-2020 10:11:18 26.1 C 25 %
1359 10-08-2020 10:22:17 26.2 C 25 %
1360 10-08-2020 10:32:17 26.7 C 25 %
1361 10-08-2020 10:42:17 27.2 C 24 %
1362 10-08-2020 10:51:18 27.1 C 24 %
1363 10-08-2020 11:01:18 27.8 C 23 %
1364 10-08-2020 11:11:18 28.5 C 22 %
1365 10-08-2020 11:21:17 28.8 C 21 %
1366 10-08-2020 11:32:17 28.5 C 22 %
1367 10-08-2020 11:42:17 29.4 C 21 %
1368 10-08-2020 11:51:18 29.2 C 21 %
1369 10-08-2020 12:01:17 28.6 C 21 %
1370 10-08-2020 12:11:17 28.8 C 21 %
1371 10-08-2020 12:22:17 28.2 C 21 %
1372 10-08-2020 12:31:18 28.6 C 22 %
1373 10-08-2020 12:41:18 29.1 C 21 %
1374 10-08-2020 12:51:18 29.7 C 21 %
1375 10-08-2020 13:02:17 29.6 C 21 %
Sensor: Nr:Datum:Temp:Feuchte:
Aussen-T/F 1376 10-08-2020 13:12:17 29.8 C 21 %
1377 10-08-2020 13:22:17 30.2 C 20 %
1378 10-08-2020 13:32:17 30.9 C 20 %
1379 10-08-2020 13:42:17 31 C 20 %
1380 10-08-2020 13:51:17 31.4 C 20 %
1381 10-08-2020 14:02:17 31.7 C 20 %
1382 10-08-2020 14:12:17 32.9 C 20 %
1383 10-08-2020 14:22:17 33.4 C 20 %
1384 10-08-2020 14:31:18 36 C 20 %
1385 10-08-2020 14:41:18 35.8 C 20 %
1386 10-08-2020 14:51:18 36.7 C 20 %
1387 10-08-2020 15:02:17 37.3 C 20 %
1388 10-08-2020 15:12:17 36.5 C 20 %
1389 10-08-2020 15:22:17 37.3 C 20 %
1390 10-08-2020 15:32:17 37 C 20 %
1391 10-08-2020 15:42:17 36.3 C 20 %
1392 10-08-2020 15:52:17 36.9 C 20 %
1393 10-08-2020 16:02:17 36.7 C 20 %
1394 10-08-2020 16:12:17 35.1 C 20 %
1395 10-08-2020 16:22:17 37.3 C 20 %
1396 10-08-2020 16:31:18 37.7 C 20 %
1397 10-08-2020 16:41:18 35.8 C 20 %
1398 10-08-2020 16:52:17 37.4 C 20 %
1399 10-08-2020 17:02:17 38.1 C 20 %
1400 10-08-2020 17:12:17 37.3 C 20 %
Sensor: Nr:Datum:Temp:Feuchte:
Aussen-T/F 1401 10-08-2020 17:22:17 37.2 C 20 %
1402 10-08-2020 17:32:17 36.2 C 20 %
1403 10-08-2020 17:42:17 36.1 C 20 %
1404 10-08-2020 17:52:17 36 C 20 %
1405 10-08-2020 18:02:18 36.1 C 20 %
1406 10-08-2020 18:12:18 35.7 C 20 %
1407 10-08-2020 18:22:17 34.4 C 20 %
1408 10-08-2020 18:32:17 34 C 20 %
1409 10-08-2020 18:42:17 33.8 C 20 %
1410 10-08-2020 18:52:17 33.6 C 20 %
1411 10-08-2020 19:02:17 33.2 C 20 %
1412 10-08-2020 19:12:18 32.9 C 20 %
1413 10-08-2020 19:22:17 32.4 C 20 %
1414 10-08-2020 19:32:17 31.8 C 20 %
1415 10-08-2020 19:42:17 31.5 C 20 %
1416 10-08-2020 19:52:17 30.8 C 20 %
1417 10-08-2020 20:02:17 30.2 C 20 %
1418 10-08-2020 20:12:17 30 C 20 %
1419 10-08-2020 20:22:17 29.4 C 20 %
1420 10-08-2020 20:32:17 28.9 C 21 %
1421 10-08-2020 20:42:17 27.7 C 22 %
1422 10-08-2020 20:52:17 27.4 C 22 %
1423 10-08-2020 21:02:18 27.4 C 22 %
1424 10-08-2020 21:12:18 27.1 C 22 %
1425 10-08-2020 21:22:17 26.6 C 23 %
Sensor: Nr:Datum:Temp:Feuchte:
Aussen-T/F 1426 10-08-2020 21:32:17 26.7 C 23 %
1427 10-08-2020 21:42:17 27.1 C 22 %
1428 10-08-2020 21:52:17 26.7 C 23 %
1429 10-08-2020 22:02:17 26.9 C 22 %
1430 10-08-2020 22:12:17 27.6 C 22 %
1431 10-08-2020 22:22:17 27.2 C 21 %
1432 10-08-2020 22:32:17 26.7 C 22 %
1433 10-08-2020 22:42:17 26.1 C 22 %
1434 10-08-2020 22:52:18 25.4 C 24 %
1435 10-08-2020 23:02:18 25.5 C 23 %
1436 10-08-2020 23:12:18 25.1 C 24 %
1437 10-08-2020 23:22:18 24.6 C 25 %
1438 10-08-2020 23:32:17 24.3 C 25 %
1439 10-08-2020 23:42:17 24.5 C 25 %
1440 10-08-2020 23:52:17 24.4 C 26 %
1441 11-08-2020 00:02:17 23.9 C 26 %
1442 11-08-2020 00:12:17 23.8 C 27 %
1443 11-08-2020 00:22:17 23.7 C 27 %
1444 11-08-2020 00:32:17 23.3 C 27 %
1445 11-08-2020 00:42:17 23.3 C 28 %
1446 11-08-2020 00:52:17 23.2 C 28 %
1447 11-08-2020 01:02:18 23.3 C 28 %
1448 11-08-2020 01:12:19 22.9 C 29 %
1449 11-08-2020 01:22:18 23.1 C 28 %
1450 11-08-2020 01:32:18 22.8 C 30 %
Sensor: Nr:Datum:Temp:Feuchte:
Aussen-T/F 1451 11-08-2020 01:42:18 22.8 C 30 %
1452 11-08-2020 01:52:17 22.6 C 30 %
1453 11-08-2020 02:02:18 22.5 C 30 %
1454 11-08-2020 02:12:18 22.1 C 30 %
1455 11-08-2020 02:22:17 22.3 C 30 %
1456 11-08-2020 02:32:18 22.4 C 30 %
1457 11-08-2020 02:42:19 22.2 C 30 %
1458 11-08-2020 02:52:17 22.2 C 30 %
1459 11-08-2020 03:02:17 22.1 C 30 %
1460 11-08-2020 03:12:18 21.9 C 31 %
1461 11-08-2020 03:22:17 21.8 C 31 %
1462 11-08-2020 03:32:17 21.6 C 31 %
1463 11-08-2020 03:42:18 21.7 C 31 %
1464 11-08-2020 03:52:17 21.5 C 31 %
1465 11-08-2020 04:02:18 21.4 C 31 %
1466 11-08-2020 04:12:18 21.6 C 31 %
1467 11-08-2020 04:22:17 21.4 C 31 %
1468 11-08-2020 04:32:18 21.6 C 31 %
1469 11-08-2020 04:42:18 21.3 C 31 %
1470 11-08-2020 04:52:18 21.2 C 31 %
1471 11-08-2020 05:02:17 21.3 C 31 %
1472 11-08-2020 05:12:17 21.2 C 31 %
1473 11-08-2020 05:22:17 21.1 C 31 %
1474 11-08-2020 05:32:17 20.8 C 33 %
1475 11-08-2020 05:42:17 20.5 C 33 %
Sensor: Nr:Datum:Temp:Feuchte:
Aussen-T/F 1476 11-08-2020 05:52:17 20.4 C 33 %
1477 11-08-2020 06:02:18 20.4 C 33 %
1478 11-08-2020 06:12:18 20.2 C 34 %
1479 11-08-2020 06:22:18 20.3 C 34 %
1480 11-08-2020 06:32:18 20.2 C 34 %
1481 11-08-2020 06:42:18 20.5 C 33 %
1482 11-08-2020 06:52:18 20.2 C 34 %
1483 11-08-2020 07:02:18 20.1 C 34 %
1484 11-08-2020 07:12:18 20.2 C 34 %
1485 11-08-2020 07:22:17 20.5 C 34 %
1486 11-08-2020 07:32:17 20.8 C 34 %
1487 11-08-2020 07:42:17 21.2 C 32 %
1488 11-08-2020 07:52:17 21.7 C 32 %
1489 11-08-2020 08:02:17 22.1 C 31 %
1490 11-08-2020 08:12:17 22.7 C 31 %
1491 11-08-2020 08:22:17 22.9 C 30 %
1492 11-08-2020 08:32:17 23.1 C 29 %
1493 11-08-2020 08:42:17 23.3 C 29 %
1494 11-08-2020 08:52:18 23.5 C 29 %
1495 11-08-2020 09:02:18 23.9 C 28 %
1496 11-08-2020 09:12:18 24.3 C 27 %
1497 11-08-2020 09:22:17 24.7 C 27 %
1498 11-08-2020 09:32:18 25 C 26 %
1499 11-08-2020 09:42:18 25.2 C 26 %
1500 11-08-2020 09:52:17 25.3 C 26 %
Sensor: Nr:Datum:Temp:Feuchte:
Aussen-T/F 1501 11-08-2020 10:02:18 25.8 C 26 %
1502 11-08-2020 10:12:18 26.4 C 25 %
1503 11-08-2020 10:22:17 27 C 24 %
1504 11-08-2020 10:32:17 27.6 C 24 %
1505 11-08-2020 10:42:17 27.9 C 23 %
1506 11-08-2020 10:52:17 28.7 C 22 %
1507 11-08-2020 11:02:18 29.2 C 22 %
1508 11-08-2020 11:12:18 29.5 C 21 %
1509 11-08-2020 11:22:17 30.6 C 20 %
1510 11-08-2020 11:32:18 30.1 C 20 %
1511 11-08-2020 11:42:18 31.2 C 20 %
1512 11-08-2020 11:52:17 30.9 C 20 %
1513 11-08-2020 12:02:18 31.2 C 20 %
1514 11-08-2020 12:12:18 31.2 C 20 %
1515 11-08-2020 12:22:17 31.2 C 20 %
1516 11-08-2020 12:32:18 31 C 20 %
1517 11-08-2020 12:42:18 31.2 C 20 %
1518 11-08-2020 12:52:18 31.3 C 20 %
1519 11-08-2020 13:02:17 31.7 C 20 %
1520 11-08-2020 13:12:17 32.1 C 20 %
1521 11-08-2020 13:22:17 32 C 20 %
1522 11-08-2020 13:32:17 32.4 C 20 %
1523 11-08-2020 13:42:17 32.9 C 20 %
1524 11-08-2020 13:52:17 34.2 C 20 %
1525 11-08-2020 14:02:17 34.2 C 20 %
Sensor: Nr:Datum:Temp:Feuchte:
Aussen-T/F 1526 11-08-2020 14:12:17 34.8 C 20 %
1527 11-08-2020 14:22:17 34.5 C 20 %
1528 11-08-2020 14:32:17 34.9 C 20 %
1529 11-08-2020 14:42:17 34.7 C 20 %
1530 11-08-2020 14:52:17 34.8 C 20 %
1531 11-08-2020 15:02:17 36 C 20 %
1532 11-08-2020 15:12:17 36.8 C 20 %
1533 11-08-2020 15:22:17 36.7 C 20 %
1534 11-08-2020 15:32:17 36.9 C 20 %
1535 11-08-2020 15:42:17 37.1 C 20 %
1536 11-08-2020 15:52:17 38 C 20 %
1537 11-08-2020 16:02:17 38.3 C 20 %
1538 11-08-2020 16:12:17 39 C 20 %
1539 11-08-2020 16:22:18 39.1 C 20 %
1540 11-08-2020 16:32:17 40 C 20 %
1541 11-08-2020 16:42:17 37.7 C 20 %
1542 11-08-2020 16:52:17 38.5 C 20 %
1543 11-08-2020 17:02:17 37.8 C 20 %
1544 11-08-2020 17:12:17 37.7 C 20 %
1545 11-08-2020 17:22:18 35.9 C 20 %
1546 11-08-2020 17:32:17 35.7 C 20 %
1547 11-08-2020 17:42:17 34.5 C 20 %
1548 11-08-2020 17:52:17 34.1 C 20 %
1549 11-08-2020 18:02:17 33.5 C 20 %
1550 11-08-2020 18:12:17 33.1 C 20 %
Sensor: Nr:Datum:Temp:Feuchte:
Aussen-T/F 1551 11-08-2020 18:22:17 32.5 C 20 %
1552 11-08-2020 18:32:17 32.1 C 20 %
1553 11-08-2020 18:42:17 31.7 C 20 %
1554 11-08-2020 18:52:17 31.3 C 20 %
1555 11-08-2020 19:02:17 30.9 C 20 %
1556 11-08-2020 19:12:17 30.5 C 20 %
1557 11-08-2020 19:22:17 29.9 C 20 %
1558 11-08-2020 19:32:17 29.3 C 20 %
1559 11-08-2020 19:42:18 27.3 C 22 %
1560 11-08-2020 19:52:18 26.4 C 25 %
1561 11-08-2020 20:02:18 24.7 C 28 %
1562 11-08-2020 20:12:18 23.8 C 31 %
1563 11-08-2020 20:22:18 22.6 C 35 %
1564 11-08-2020 20:32:17 22.6 C 36 %
1565 11-08-2020 20:42:17 22.3 C 40 %
1566 11-08-2020 20:52:17 22.2 C 40 %
1567 11-08-2020 21:02:17 22 C 40 %
1568 11-08-2020 21:12:17 21.9 C 41 %
1569 11-08-2020 21:22:17 22 C 40 %
1570 11-08-2020 21:32:17 21.7 C 40 %
1571 11-08-2020 21:42:17 21.8 C 40 %
1572 11-08-2020 21:52:17 21.7 C 40 %
1573 11-08-2020 22:02:17 21.7 C 40 %
1574 11-08-2020 22:12:17 21.7 C 40 %
1575 11-08-2020 22:22:18 21.5 C 40 %
Sensor: Nr:Datum:Temp:Feuchte:
Aussen-T/F 1576 11-08-2020 22:32:17 21.3 C 40 %
1577 11-08-2020 22:42:17 21.4 C 41 %
1578 11-08-2020 22:52:18 21.1 C 40 %
1579 11-08-2020 23:02:17 21.1 C 40 %
1580 11-08-2020 23:12:17 21.2 C 40 %
1581 11-08-2020 23:22:18 21.2 C 40 %
1582 11-08-2020 23:32:17 21.1 C 40 %
1583 11-08-2020 23:42:18 21.2 C 40 %
1584 11-08-2020 23:52:18 21.1 C 40 %
1585 12-08-2020 00:02:17 21.3 C 40 %
1586 12-08-2020 00:12:17 21.1 C 40 %
1587 12-08-2020 00:22:17 21.1 C 40 %
1588 12-08-2020 00:32:18 21 C 40 %
1589 12-08-2020 00:42:18 20.8 C 40 %
1590 12-08-2020 00:52:17 20.7 C 40 %
1591 12-08-2020 01:02:18 20.6 C 40 %
1592 12-08-2020 01:12:18 20.7 C 40 %
1593 12-08-2020 01:22:17 20.6 C 40 %
1594 12-08-2020 01:32:17 20.5 C 40 %
1595 12-08-2020 01:42:17 20.5 C 40 %
1596 12-08-2020 01:52:17 20.5 C 40 %
1597 12-08-2020 02:02:18 20.6 C 40 %
1598 12-08-2020 02:12:18 20.6 C 40 %
1599 12-08-2020 02:22:17 20.5 C 40 %
1600 12-08-2020 02:32:18 20.4 C 40 %
Sensor: Nr:Datum:Temp:Feuchte:
Aussen-T/F 1601 12-08-2020 02:42:18 20.4 C 40 %
1602 12-08-2020 02:52:17 20.4 C 40 %
1603 12-08-2020 03:02:17 20.4 C 40 %
1604 12-08-2020 03:12:17 20.5 C 40 %
1605 12-08-2020 03:22:17 20.4 C 40 %
1606 12-08-2020 03:32:17 20.2 C 40 %
1607 12-08-2020 03:42:17 20.2 C 40 %
1608 12-08-2020 03:52:18 20 C 40 %
1609 12-08-2020 04:02:17 20 C 40 %
1610 12-08-2020 04:12:17 19.8 C 40 %
1611 12-08-2020 04:22:17 19.7 C 40 %
1612 12-08-2020 04:32:17 19.7 C 40 %
1613 12-08-2020 04:42:17 19.6 C 40 %
1614 12-08-2020 04:52:18 19.7 C 40 %
1615 12-08-2020 05:02:17 19.7 C 40 %
1616 12-08-2020 05:12:17 19.7 C 40 %
1617 12-08-2020 05:22:17 19.6 C 40 %
1618 12-08-2020 05:32:17 19.5 C 40 %
1619 12-08-2020 05:42:17 19.5 C 40 %
1620 12-08-2020 05:52:17 19.6 C 40 %
1621 12-08-2020 06:02:17 19.5 C 40 %
1622 12-08-2020 06:12:17 19.4 C 40 %
1623 12-08-2020 06:22:17 19.3 C 40 %
1624 12-08-2020 06:32:17 19.3 C 40 %
1625 12-08-2020 06:42:17 19.3 C 40 %
Sensor: Nr:Datum:Temp:Feuchte:
Aussen-T/F 1626 12-08-2020 06:52:18 19.4 C 40 %
1627 12-08-2020 07:02:17 19.6 C 40 %
1628 12-08-2020 07:12:17 19.7 C 40 %
1629 12-08-2020 07:22:17 19.7 C 40 %
1630 12-08-2020 07:32:17 19.8 C 40 %
1631 12-08-2020 07:42:17 20 C 40 %
1632 12-08-2020 07:52:17 20.1 C 40 %
1633 12-08-2020 08:02:18 20.4 C 40 %
1634 12-08-2020 08:12:18 20.6 C 40 %
1635 12-08-2020 08:22:17 20.8 C 41 %
1636 12-08-2020 08:32:17 20.8 C 41 %
1637 12-08-2020 08:42:17 20.8 C 41 %
1638 12-08-2020 08:52:17 20.7 C 41 %
1639 12-08-2020 09:02:17 20.6 C 41 %
1640 12-08-2020 09:12:17 20.6 C 41 %
1641 12-08-2020 09:22:17 20.9 C 41 %
1642 12-08-2020 09:32:17 21.2 C 39 %
1643 12-08-2020 09:42:18 21.3 C 39 %
1644 12-08-2020 09:52:17 21.4 C 39 %
1645 12-08-2020 10:02:18 21.6 C 39 %
1646 12-08-2020 10:12:18 21.9 C 38 %
1647 12-08-2020 10:22:17 22.3 C 37 %
1648 12-08-2020 10:32:18 22.9 C 36 %
1649 12-08-2020 10:42:18 23.9 C 31 %
1650 12-08-2020 10:52:17 25.1 C 28 %
Sensor: Nr:Datum:Temp:Feuchte:
Aussen-T/F 1651 12-08-2020 11:02:17 25.9 C 27 %
1652 12-08-2020 11:12:17 26.6 C 26 %
1653 12-08-2020 11:22:17 27 C 25 %
1654 12-08-2020 11:32:17 27.7 C 25 %
1655 12-08-2020 11:42:18 28.9 C 24 %
1656 12-08-2020 11:52:17 29.1 C 23 %
1657 12-08-2020 12:02:17 28.8 C 22 %
1658 12-08-2020 12:12:17 28.5 C 23 %
1659 12-08-2020 12:22:17 28.4 C 23 %
1660 12-08-2020 12:32:17 28.4 C 23 %
1661 12-08-2020 12:42:17 28.6 C 23 %
1662 12-08-2020 12:52:17 28.9 C 23 %
1663 12-08-2020 13:02:18 29.4 C 22 %
1664 12-08-2020 13:12:18 29.8 C 23 %
1665 12-08-2020 13:22:17 29.7 C 22 %
1666 12-08-2020 13:32:18 30.2 C 21 %
1667 12-08-2020 13:42:18 30.7 C 22 %
1668 12-08-2020 13:52:17 31 C 21 %
1669 12-08-2020 14:02:17 31.1 C 21 %
1670 12-08-2020 14:12:17 31.8 C 20 %
1671 12-08-2020 14:22:17 32.5 C 20 %
1672 12-08-2020 14:32:18 35.9 C 20 %
1673 12-08-2020 14:42:18 36.9 C 20 %
1674 12-08-2020 14:52:17 38 C 20 %
1675 12-08-2020 15:02:17 40.3 C 20 %
Sensor: Nr:Datum:Temp:Feuchte:
Aussen-T/F 1676 12-08-2020 15:12:17 39.9 C 20 %
1677 12-08-2020 15:22:17 39.7 C 20 %
1678 12-08-2020 15:32:17 38.4 C 20 %
1679 12-08-2020 15:42:17 39.6 C 20 %
1680 12-08-2020 15:52:18 40.7 C 20 %
1681 12-08-2020 16:02:18 40.3 C 20 %
1682 12-08-2020 16:12:18 38.6 C 20 %
1683 12-08-2020 16:22:18 39.8 C 20 %
1684 12-08-2020 16:32:17 39.9 C 20 %
1685 12-08-2020 16:42:18 37.4 C 20 %
1686 12-08-2020 16:52:17 36.5 C 20 %
1687 12-08-2020 17:02:18 35.3 C 20 %
1688 12-08-2020 17:12:18 31.9 C 20 %
1689 12-08-2020 17:22:17 30.9 C 20 %
1690 12-08-2020 17:32:18 30.2 C 21 %
1691 12-08-2020 17:42:18 29.7 C 21 %
1692 12-08-2020 17:52:18 29.3 C 21 %
1693 12-08-2020 18:02:17 28.8 C 20 %
1694 12-08-2020 18:12:18 28 C 20 %
1695 12-08-2020 18:22:17 26.9 C 21 %
1696 12-08-2020 18:32:17 26.8 C 21 %
1697 12-08-2020 18:42:17 26.6 C 22 %
1698 12-08-2020 18:52:18 26.2 C 23 %
1699 12-08-2020 19:02:17 23.5 C 31 %
1700 12-08-2020 19:12:17 22.4 C 34 %
Sensor: Nr:Datum:Temp:Feuchte:
Aussen-T/F 1701 12-08-2020 19:22:17 21.8 C 39 %
1702 12-08-2020 19:32:17 21.8 C 40 %
1703 12-08-2020 19:42:17 21.6 C 40 %
1704 12-08-2020 19:52:17 21.5 C 40 %
1705 12-08-2020 20:02:17 21.5 C 40 %
1706 12-08-2020 20:12:17 21.5 C 38 %
1707 12-08-2020 20:22:17 21.5 C 39 %
1708 12-08-2020 20:32:17 21.3 C 40 %
1709 12-08-2020 20:42:17 21.2 C 38 %
1710 12-08-2020 20:52:17 21.1 C 39 %
1711 12-08-2020 21:02:17 21.2 C 39 %
1712 12-08-2020 21:12:18 21.2 C 39 %
1713 12-08-2020 21:22:18 21.2 C 39 %
1714 12-08-2020 21:32:17 21.2 C 39 %
1715 12-08-2020 21:42:17 21.1 C 39 %
1716 12-08-2020 21:52:17 20.8 C 40 %
1717 12-08-2020 22:02:18 20.9 C 40 %
1718 12-08-2020 22:12:18 20.9 C 40 %
1719 12-08-2020 22:22:17 21 C 38 %
1720 12-08-2020 22:32:18 21 C 38 %
1721 12-08-2020 22:42:18 20.9 C 40 %
1722 12-08-2020 22:52:17 20.7 C 39 %
1723 12-08-2020 23:02:17 20.4 C 39 %
1724 12-08-2020 23:12:17 20.2 C 40 %
1725 12-08-2020 23:22:17 20.1 C 40 %
Sensor: Nr:Datum:Temp:Feuchte:
Aussen-T/F 1726 12-08-2020 23:32:17 20.2 C 40 %
1727 12-08-2020 23:42:17 20.2 C 40 %
1728 12-08-2020 23:52:17 20.2 C 40 %
1729 13-08-2020 00:02:18 20.4 C 40 %
1730 13-08-2020 00:12:18 20.5 C 39 %
1731 13-08-2020 00:22:18 20.6 C 39 %
1732 13-08-2020 00:32:17 20.3 C 40 %
1733 13-08-2020 00:42:17 20.3 C 40 %
1734 13-08-2020 00:52:18 20.5 C 39 %
1735 13-08-2020 01:02:18 20.2 C 40 %
1736 13-08-2020 01:12:18 20 C 40 %
1737 13-08-2020 01:22:18 20 C 40 %
1738 13-08-2020 01:32:17 19.9 C 41 %
1739 13-08-2020 01:42:17 19.8 C 41 %
1740 13-08-2020 01:52:17 19.9 C 40 %
1741 13-08-2020 02:02:18 19.9 C 40 %
1742 13-08-2020 02:12:18 19.8 C 40 %
1743 13-08-2020 02:22:18 19.5 C 41 %
1744 13-08-2020 02:32:17 19.2 C 42 %
1745 13-08-2020 02:42:17 19.3 C 42 %
1746 13-08-2020 02:52:17 19.3 C 41 %
1747 13-08-2020 03:02:18 19.3 C 41 %
1748 13-08-2020 03:12:18 19.2 C 41 %
1749 13-08-2020 03:22:17 19.1 C 41 %
1750 13-08-2020 03:32:18 19.1 C 41 %
Sensor: Nr:Datum:Temp:Feuchte:
Aussen-T/F 1751 13-08-2020 03:42:18 19 C 41 %
1752 13-08-2020 03:52:17 19.2 C 41 %
1753 13-08-2020 04:02:17 19.1 C 41 %
1754 13-08-2020 04:12:17 18.9 C 42 %
1755 13-08-2020 04:22:17 18.9 C 42 %
1756 13-08-2020 04:32:17 19.2 C 41 %
1757 13-08-2020 04:42:17 19.4 C 42 %
1758 13-08-2020 04:52:18 19.6 C 42 %
1759 13-08-2020 05:02:18 19.7 C 41 %
1760 13-08-2020 05:12:18 19.6 C 41 %
1761 13-08-2020 05:22:17 19.7 C 41 %
1762 13-08-2020 05:32:17 19.8 C 41 %
1763 13-08-2020 05:42:17 19.9 C 41 %
1764 13-08-2020 05:52:17 19.9 C 41 %
1765 13-08-2020 06:02:17 19.8 C 41 %
1766 13-08-2020 06:12:17 19.7 C 41 %
1767 13-08-2020 06:22:17 19.7 C 41 %
1768 13-08-2020 06:32:17 19.6 C 41 %
1769 13-08-2020 06:42:17 19.6 C 41 %
1770 13-08-2020 06:52:18 19.5 C 40 %
1771 13-08-2020 07:02:18 19.5 C 40 %
1772 13-08-2020 07:12:18 19.4 C 40 %
1773 13-08-2020 07:22:17 19.5 C 40 %
1774 13-08-2020 07:32:18 19.5 C 40 %
1775 13-08-2020 07:42:18 19.5 C 40 %
Sensor: Nr:Datum:Temp:Feuchte:
Aussen-T/F 1776 13-08-2020 07:52:18 19.6 C 40 %
1777 13-08-2020 08:02:17 19.7 C 40 %
1778 13-08-2020 08:12:17 19.5 C 40 %
1779 13-08-2020 08:22:17 19.5 C 40 %
1780 13-08-2020 08:32:17 19.6 C 40 %
1781 13-08-2020 08:42:17 19.7 C 40 %
1782 13-08-2020 08:52:17 19.7 C 40 %
1783 13-08-2020 09:02:18 20 C 40 %
1784 13-08-2020 09:12:18 20.3 C 40 %
1785 13-08-2020 09:22:17 20.7 C 40 %
1786 13-08-2020 09:32:18 20.9 C 40 %
1787 13-08-2020 09:42:18 21.3 C 39 %
1788 13-08-2020 09:52:18 21.7 C 39 %
1789 13-08-2020 10:02:18 22.2 C 38 %
1790 13-08-2020 10:12:18 22.6 C 35 %
1791 13-08-2020 10:22:17 22.7 C 35 %
1792 13-08-2020 10:32:17 22.7 C 36 %
1793 13-08-2020 10:42:18 22.9 C 36 %
1794 13-08-2020 10:52:17 24 C 34 %
1795 13-08-2020 11:02:17 24.8 C 33 %
1796 13-08-2020 11:12:17 25.7 C 31 %
1797 13-08-2020 11:22:18 26.4 C 30 %
1798 13-08-2020 11:32:17 27.3 C 29 %
1799 13-08-2020 11:42:17 28.7 C 27 %
1800 13-08-2020 11:52:18 28.4 C 27 %
Sensor: Nr:Datum:Temp:Feuchte:
Aussen-T/F 1801 13-08-2020 12:02:18 28.9 C 26 %
1802 13-08-2020 12:12:18 28.9 C 26 %
1803 13-08-2020 12:22:17 29.1 C 26 %
1804 13-08-2020 12:32:18 28.6 C 26 %
1805 13-08-2020 12:42:18 28.5 C 25 %
1806 13-08-2020 12:52:17 28.7 C 25 %
1807 13-08-2020 13:02:17 28.9 C 25 %
1808 13-08-2020 13:12:17 29.4 C 24 %
1809 13-08-2020 13:22:17 30.3 C 23 %
1810 13-08-2020 13:32:18 30.1 C 23 %
1811 13-08-2020 13:42:18 30.3 C 23 %
1812 13-08-2020 13:52:17 30.3 C 23 %
1813 13-08-2020 14:02:17 31.2 C 21 %
1814 13-08-2020 14:12:17 32.1 C 20 %
1815 13-08-2020 14:22:18 32.5 C 20 %
1816 13-08-2020 14:32:17 32.6 C 20 %
1817 13-08-2020 14:42:17 32.2 C 20 %
1818 13-08-2020 14:52:17 32.8 C 20 %
1819 13-08-2020 15:02:18 33.7 C 20 %
1820 13-08-2020 15:12:18 32.7 C 20 %
1821 13-08-2020 15:22:17 31.3 C 20 %
1822 13-08-2020 15:32:17 30.7 C 20 %
1823 13-08-2020 15:42:17 29.9 C 20 %
1824 13-08-2020 15:52:17 30.1 C 20 %
1825 13-08-2020 16:02:18 29.7 C 20 %
Sensor: Nr:Datum:Temp:Feuchte:
Aussen-T/F 1826 13-08-2020 16:12:18 29.4 C 20 %
1827 13-08-2020 16:22:17 29.2 C 20 %
1828 13-08-2020 16:32:17 29.2 C 20 %
1829 13-08-2020 16:42:18 29.8 C 20 %
1830 13-08-2020 16:52:17 29.3 C 20 %
1831 13-08-2020 17:02:17 28.9 C 20 %
1832 13-08-2020 17:12:17 28.9 C 20 %
1833 13-08-2020 17:22:18 29.2 C 21 %
1834 13-08-2020 17:32:17 30.5 C 20 %
1835 13-08-2020 17:42:17 30.2 C 20 %
1836 13-08-2020 17:52:17 31.8 C 20 %
1837 13-08-2020 18:02:17 32.3 C 20 %
1838 13-08-2020 18:12:17 30.5 C 20 %
1839 13-08-2020 18:22:17 28.8 C 21 %
1840 13-08-2020 18:32:18 28.4 C 22 %
1841 13-08-2020 18:42:18 27.7 C 24 %
1842 13-08-2020 18:52:17 27.4 C 25 %
1843 13-08-2020 19:02:18 27.7 C 25 %
1844 13-08-2020 19:12:18 27.9 C 24 %
1845 13-08-2020 19:22:17 27.3 C 25 %
1846 13-08-2020 19:32:17 27 C 25 %
1847 13-08-2020 19:42:17 26.4 C 26 %
1848 13-08-2020 19:52:17 26 C 27 %
1849 13-08-2020 20:02:17 25.7 C 28 %
1850 13-08-2020 20:12:17 25.4 C 28 %
Sensor: Nr:Datum:Temp:Feuchte:
Aussen-T/F 1851 13-08-2020 20:22:18 25.1 C 29 %
1852 13-08-2020 20:32:18 24.5 C 30 %
1853 13-08-2020 20:42:18 24.1 C 30 %
1854 13-08-2020 20:52:18 23.5 C 32 %
1855 13-08-2020 21:02:18 23.4 C 31 %
1856 13-08-2020 21:12:18 23.1 C 31 %
1857 13-08-2020 21:22:18 23.4 C 31 %
1858 13-08-2020 21:32:17 23.3 C 31 %
1859 13-08-2020 21:42:17 23.5 C 31 %
1860 13-08-2020 21:52:17 23.4 C 31 %
1861 13-08-2020 22:02:18 23.4 C 31 %
1862 13-08-2020 22:12:18 23.2 C 31 %
1863 13-08-2020 22:22:17 23.3 C 31 %
1864 13-08-2020 22:32:17 23.5 C 31 %
1865 13-08-2020 22:42:17 23.9 C 30 %
1866 13-08-2020 22:52:18 23.9 C 30 %
1867 13-08-2020 23:02:18 23.3 C 30 %
1868 13-08-2020 23:12:18 22.9 C 32 %
1869 13-08-2020 23:22:17 22.9 C 32 %
1870 13-08-2020 23:32:17 22.9 C 32 %
1871 13-08-2020 23:42:18 22.9 C 31 %
1872 13-08-2020 23:52:17 22.7 C 32 %
1873 14-08-2020 00:02:17 22.5 C 32 %
1874 14-08-2020 00:12:18 22.6 C 32 %
1875 14-08-2020 00:22:17 22.4 C 32 %
Sensor: Nr:Datum:Temp:Feuchte:
Aussen-T/F 1876 14-08-2020 00:32:17 22.2 C 33 %
1877 14-08-2020 00:42:17 22.4 C 32 %
1878 14-08-2020 00:52:17 22.1 C 33 %
1879 14-08-2020 01:02:17 22.1 C 33 %
1880 14-08-2020 01:12:18 22 C 33 %
1881 14-08-2020 01:22:17 22 C 33 %
1882 14-08-2020 01:32:18 21.7 C 35 %
1883 14-08-2020 01:42:18 21.6 C 35 %
1884 14-08-2020 01:52:17 21.5 C 35 %
1885 14-08-2020 02:02:17 21.4 C 35 %
1886 14-08-2020 02:12:18 21.3 C 35 %
1887 14-08-2020 02:22:18 21.2 C 35 %
1888 14-08-2020 02:32:18 20.9 C 37 %
1889 14-08-2020 02:42:18 20.7 C 36 %
1890 14-08-2020 02:52:17 20.2 C 37 %
1891 14-08-2020 03:02:18 19.9 C 38 %
1892 14-08-2020 03:12:18 20 C 38 %
1893 14-08-2020 03:22:17 19.6 C 39 %
1894 14-08-2020 03:32:17 19.5 C 39 %
1895 14-08-2020 03:42:17 19.5 C 39 %
1896 14-08-2020 03:52:17 19.6 C 38 %
1897 14-08-2020 04:02:17 19.4 C 38 %
1898 14-08-2020 04:12:17 19.3 C 38 %
1899 14-08-2020 04:22:18 19.1 C 38 %
1900 14-08-2020 04:32:17 18.9 C 40 %
Sensor: Nr:Datum:Temp:Feuchte:
Aussen-T/F 1901 14-08-2020 04:42:17 18.7 C 40 %
1902 14-08-2020 04:52:18 18.7 C 40 %
1903 14-08-2020 05:02:18 18.6 C 41 %
1904 14-08-2020 05:12:18 18.3 C 41 %
1905 14-08-2020 05:22:18 18.5 C 41 %
1906 14-08-2020 05:32:18 18.5 C 41 %
1907 14-08-2020 05:42:18 18.6 C 41 %
1908 14-08-2020 05:52:17 18.8 C 40 %
1909 14-08-2020 06:02:18 18.9 C 40 %
1910 14-08-2020 06:12:18 18.7 C 40 %
1911 14-08-2020 06:22:17 18.7 C 40 %
1912 14-08-2020 06:32:17 18.7 C 40 %
1913 14-08-2020 06:42:17 18.5 C 40 %
1914 14-08-2020 06:52:17 18.9 C 39 %
1915 14-08-2020 07:02:17 18.9 C 39 %
1916 14-08-2020 07:12:17 19 C 38 %
1917 14-08-2020 07:22:17 19.4 C 38 %
1918 14-08-2020 07:32:18 19.4 C 38 %
1919 14-08-2020 07:42:18 19.5 C 38 %
1920 14-08-2020 07:52:17 19.4 C 38 %
1921 14-08-2020 08:02:17 19.5 C 39 %
1922 14-08-2020 08:12:17 20.1 C 37 %
1923 14-08-2020 08:22:17 20.9 C 36 %
1924 14-08-2020 08:32:17 21.5 C 34 %
1925 14-08-2020 08:42:17 21.4 C 34 %
Sensor: Nr:Datum:Temp:Feuchte:
Aussen-T/F 1926 14-08-2020 08:52:17 21.4 C 34 %
1927 14-08-2020 09:02:17 20.8 C 36 %
1928 14-08-2020 09:12:17 20.8 C 36 %
1929 14-08-2020 09:22:17 21 C 36 %
1930 14-08-2020 09:32:18 21.1 C 35 %
1931 14-08-2020 09:42:18 22.4 C 31 %
1932 14-08-2020 09:52:17 22.9 C 30 %
1933 14-08-2020 10:02:17 23.5 C 29 %
1934 14-08-2020 10:12:18 24.2 C 28 %
1935 14-08-2020 10:22:17 24.1 C 27 %
1936 14-08-2020 10:32:18 24.3 C 28 %
1937 14-08-2020 10:42:18 22.9 C 30 %
1938 14-08-2020 10:52:17 23.1 C 29 %
1939 14-08-2020 11:02:17 23 C 30 %
1940 14-08-2020 11:12:17 22.9 C 30 %
1941 14-08-2020 11:22:17 22.8 C 30 %
1942 14-08-2020 11:32:17 22.8 C 30 %
1943 14-08-2020 11:42:18 23 C 29 %
1944 14-08-2020 11:52:17 22.7 C 30 %
1945 14-08-2020 12:02:17 22.7 C 30 %
1946 14-08-2020 12:12:18 22.9 C 30 %
1947 14-08-2020 12:22:17 22.9 C 30 %
1948 14-08-2020 12:32:17 22.9 C 30 %
1949 14-08-2020 12:42:17 22.9 C 30 %
1950 14-08-2020 12:52:17 23.2 C 29 %
Sensor: Nr:Datum:Temp:Feuchte:
Aussen-T/F 1951 14-08-2020 13:02:17 23.4 C 29 %
1952 14-08-2020 13:12:18 23.7 C 29 %
1953 14-08-2020 13:22:18 24 C 28 %
1954 14-08-2020 13:32:17 24.2 C 28 %
1955 14-08-2020 13:42:17 25.1 C 27 %
1956 14-08-2020 13:52:17 25.6 C 26 %
1957 14-08-2020 14:02:18 27 C 25 %
1958 14-08-2020 14:12:18 27.6 C 25 %
1959 14-08-2020 14:22:18 27.1 C 24 %
1960 14-08-2020 14:32:17 30.2 C 21 %
1961 14-08-2020 14:42:17 29.9 C 21 %
1962 14-08-2020 14:52:17 31.7 C 20 %
1963 14-08-2020 15:02:17 33.3 C 20 %
1964 14-08-2020 15:12:17 31.2 C 20 %
1965 14-08-2020 15:22:18 30.2 C 20 %
1966 14-08-2020 15:32:17 34.3 C 20 %
1967 14-08-2020 15:42:17 35.4 C 20 %
1968 14-08-2020 15:52:18 34.2 C 20 %
1969 14-08-2020 16:02:18 33 C 20 %
1970 14-08-2020 16:12:18 33.9 C 20 %
1971 14-08-2020 16:22:17 30.7 C 20 %
1972 14-08-2020 16:32:17 32.7 C 20 %
1973 14-08-2020 16:42:17 31 C 20 %
1974 14-08-2020 16:52:17 31.6 C 20 %
1975 14-08-2020 17:02:17 33.9 C 20 %
Sensor: Nr:Datum:Temp:Feuchte:
Aussen-T/F 1976 14-08-2020 17:12:17 34.3 C 20 %
1977 14-08-2020 17:22:17 35.1 C 20 %
1978 14-08-2020 17:32:17 34.9 C 20 %
1979 14-08-2020 17:42:17 34.7 C 20 %
1980 14-08-2020 17:52:17 34.4 C 20 %
1981 14-08-2020 18:02:18 34.2 C 20 %
1982 14-08-2020 18:12:18 31.7 C 20 %
1983 14-08-2020 18:22:17 31.2 C 20 %
1984 14-08-2020 18:32:17 30.7 C 20 %
1985 14-08-2020 18:42:17 30.7 C 20 %
1986 14-08-2020 18:52:18 30.3 C 20 %
1987 14-08-2020 19:02:17 30.4 C 20 %
1988 14-08-2020 19:12:17 29.6 C 20 %
1989 14-08-2020 19:22:17 28.6 C 20 %
1990 14-08-2020 19:32:17 28.2 C 21 %
1991 14-08-2020 19:42:17 28.3 C 20 %
1992 14-08-2020 19:52:17 27.7 C 21 %
1993 14-08-2020 20:02:17 27.1 C 21 %
1994 14-08-2020 20:12:17 26.8 C 22 %
1995 14-08-2020 20:22:17 26.3 C 23 %
1996 14-08-2020 20:32:17 26.1 C 23 %
1997 14-08-2020 20:42:17 25.9 C 24 %
1998 14-08-2020 20:52:18 25.4 C 25 %
1999 14-08-2020 21:02:18 24.9 C 26 %
2000 14-08-2020 21:12:18 24.5 C 26 %
Sensor: Nr:Datum:Temp:Feuchte:
Aussen-T/F 2001 14-08-2020 21:22:17 24.1 C 27 %
2002 14-08-2020 21:32:17 24 C 27 %
2003 14-08-2020 21:42:17 24 C 27 %
2004 14-08-2020 21:52:17 23.9 C 27 %
2005 14-08-2020 22:02:17 23.8 C 28 %
2006 14-08-2020 22:12:17 23.3 C 30 %
2007 14-08-2020 22:22:17 23 C 30 %
2008 14-08-2020 22:32:18 22.9 C 31 %
2009 14-08-2020 22:42:18 22.8 C 31 %
2010 14-08-2020 22:52:18 22.7 C 31 %
2011 14-08-2020 23:02:17 22.6 C 31 %
2012 14-08-2020 23:12:17 22.5 C 31 %
2013 14-08-2020 23:22:17 22.4 C 31 %
2014 14-08-2020 23:32:17 22.1 C 31 %
2015 14-08-2020 23:42:17 22.2 C 32 %
2016 14-08-2020 23:52:17 22.5 C 32 %
2017 15-08-2020 00:02:17 22.2 C 31 %
2018 15-08-2020 00:12:17 22 C 32 %
2019 15-08-2020 00:22:17 21.8 C 33 %
2020 15-08-2020 00:32:18 21.9 C 33 %
2021 15-08-2020 00:42:18 21.7 C 34 %
2022 15-08-2020 00:52:17 21.9 C 34 %
2023 15-08-2020 01:02:18 21.9 C 34 %
2024 15-08-2020 01:12:18 21.8 C 34 %
2025 15-08-2020 01:22:17 21.5 C 34 %
Sensor: Nr:Datum:Temp:Feuchte:
Aussen-T/F 2026 15-08-2020 01:32:18 21.2 C 35 %
2027 15-08-2020 01:42:18 21.2 C 34 %
2028 15-08-2020 01:52:18 21 C 35 %
2029 15-08-2020 02:02:17 20.8 C 36 %
2030 15-08-2020 02:12:18 20.4 C 36 %
2031 15-08-2020 02:22:17 20.2 C 36 %
2032 15-08-2020 02:32:18 20.2 C 36 %
2033 15-08-2020 02:42:18 19.8 C 38 %
2034 15-08-2020 02:52:17 19.5 C 39 %
2035 15-08-2020 03:02:18 19.4 C 39 %
2036 15-08-2020 03:12:18 19.4 C 40 %
2037 15-08-2020 03:22:17 19.3 C 39 %
2038 15-08-2020 03:32:17 19.2 C 40 %
2039 15-08-2020 03:42:17 19 C 40 %
2040 15-08-2020 03:52:18 18.7 C 41 %
2041 15-08-2020 04:02:17 18.6 C 41 %
2042 15-08-2020 04:12:17 18.6 C 42 %
2043 15-08-2020 04:22:17 18.5 C 41 %
2044 15-08-2020 04:32:18 18.5 C 42 %
2045 15-08-2020 04:42:18 18.3 C 41 %
2046 15-08-2020 04:52:17 18.1 C 41 %
2047 15-08-2020 05:02:18 18.3 C 42 %
2048 15-08-2020 05:12:18 18.2 C 42 %
2049 15-08-2020 05:22:17 18.3 C 42 %
2050 15-08-2020 05:32:17 18.5 C 42 %
Sensor: Nr:Datum:Temp:Feuchte:
Aussen-T/F 2051 15-08-2020 05:42:17 18.5 C 42 %
2052 15-08-2020 05:52:18 18.5 C 41 %
2053 15-08-2020 06:02:17 18.5 C 42 %
2054 15-08-2020 06:12:17 18.3 C 41 %
2055 15-08-2020 06:22:17 18.3 C 41 %
2056 15-08-2020 06:32:17 18.1 C 42 %
2057 15-08-2020 06:42:17 18.1 C 42 %
2058 15-08-2020 06:52:18 18.1 C 42 %
2059 15-08-2020 07:02:17 18.3 C 42 %
2060 15-08-2020 07:12:17 18.7 C 42 %
2061 15-08-2020 07:22:18 19.1 C 41 %
2062 15-08-2020 07:32:18 19.3 C 41 %
2063 15-08-2020 07:42:18 19.7 C 40 %
2064 15-08-2020 07:52:17 19.9 C 39 %
2065 15-08-2020 08:02:17 20.3 C 37 %
2066 15-08-2020 08:12:17 20.6 C 36 %
2067 15-08-2020 08:22:17 20.9 C 36 %
2068 15-08-2020 08:32:17 20.7 C 36 %
2069 15-08-2020 08:42:17 21.2 C 35 %
2070 15-08-2020 08:52:17 21.5 C 35 %
2071 15-08-2020 09:02:17 21.9 C 35 %
2072 15-08-2020 09:12:17 21.7 C 34 %
2073 15-08-2020 09:22:17 22.3 C 33 %
2074 15-08-2020 09:32:17 22.8 C 32 %
2075 15-08-2020 09:42:17 22.6 C 32 %
Sensor: Nr:Datum:Temp:Feuchte:
Aussen-T/F 2076 15-08-2020 09:52:17 22.9 C 32 %
2077 15-08-2020 10:02:18 23.4 C 31 %
2078 15-08-2020 10:12:18 24.2 C 30 %
2079 15-08-2020 10:22:17 24.5 C 29 %
2080 15-08-2020 10:32:18 25.1 C 28 %
2081 15-08-2020 10:42:18 24.9 C 29 %
2082 15-08-2020 10:52:17 25.6 C 27 %
2083 15-08-2020 11:02:18 26.2 C 27 %
2084 15-08-2020 11:12:18 26 C 26 %
2085 15-08-2020 11:22:17 26.4 C 26 %
2086 15-08-2020 11:32:17 27 C 25 %
2087 15-08-2020 11:42:17 27.4 C 25 %
2088 15-08-2020 11:52:17 30 C 22 %
2089 15-08-2020 12:02:18 27.7 C 25 %
2090 15-08-2020 12:12:18 26.7 C 25 %
2091 15-08-2020 12:22:17 26.7 C 25 %
2092 15-08-2020 12:32:17 27.6 C 25 %
2093 15-08-2020 12:42:18 27.7 C 24 %
2094 15-08-2020 12:52:17 27.2 C 25 %
2095 15-08-2020 13:02:18 27.5 C 25 %
2096 15-08-2020 13:12:18 27.3 C 24 %
2097 15-08-2020 13:22:18 27.4 C 24 %
2098 15-08-2020 13:32:17 27.7 C 24 %
2099 15-08-2020 13:42:17 27.4 C 24 %
2100 15-08-2020 13:52:17 27.7 C 24 %
Sensor: Nr:Datum:Temp:Feuchte:
Aussen-T/F 2101 15-08-2020 14:02:18 28.3 C 23 %
2102 15-08-2020 14:12:18 29 C 22 %
2103 15-08-2020 14:22:18 29.1 C 22 %
2104 15-08-2020 14:32:17 27.4 C 23 %
2105 15-08-2020 14:42:17 25.9 C 25 %
2106 15-08-2020 14:52:17 25.6 C 25 %
2107 15-08-2020 15:02:18 25.5 C 25 %
2108 15-08-2020 15:12:18 25.3 C 24 %
2109 15-08-2020 15:22:17 25.3 C 25 %
2110 15-08-2020 15:32:18 25.2 C 25 %
2111 15-08-2020 15:42:18 24.7 C 27 %
2112 15-08-2020 15:52:17 24.4 C 27 %
2113 15-08-2020 16:02:17 23.4 C 30 %
2114 15-08-2020 16:12:17 22.9 C 33 %
2115 15-08-2020 16:22:18 22.9 C 33 %
2116 15-08-2020 16:32:17 22.9 C 33 %
2117 15-08-2020 16:42:17 23 C 31 %
2118 15-08-2020 16:52:17 23.8 C 31 %
2119 15-08-2020 17:02:17 24.8 C 30 %
2120 15-08-2020 17:12:17 23.9 C 31 %
2121 15-08-2020 17:22:17 24.5 C 30 %
2122 15-08-2020 17:32:17 25.7 C 28 %
2123 15-08-2020 17:42:17 26.1 C 27 %
2124 15-08-2020 17:52:17 25.6 C 28 %
2125 15-08-2020 18:02:17 25 C 28 %
Sensor: Nr:Datum:Temp:Feuchte:
Aussen-T/F 2126 15-08-2020 18:12:17 24.7 C 29 %
2127 15-08-2020 18:22:18 24.3 C 30 %
2128 15-08-2020 18:32:17 24.1 C 30 %
2129 15-08-2020 18:42:17 23.7 C 31 %
2130 15-08-2020 18:52:17 23.6 C 32 %
2131 15-08-2020 19:02:17 23.5 C 32 %
2132 15-08-2020 19:12:17 23.4 C 32 %
2133 15-08-2020 19:22:17 23.5 C 32 %
2134 15-08-2020 19:32:18 23.7 C 32 %
2135 15-08-2020 19:42:18 23.7 C 32 %
2136 15-08-2020 19:52:18 23.1 C 32 %
2137 15-08-2020 20:02:17 23.5 C 33 %
2138 15-08-2020 20:12:17 23.5 C 33 %
2139 15-08-2020 20:22:17 23.2 C 33 %
2140 15-08-2020 20:32:17 22.8 C 34 %
2141 15-08-2020 20:42:17 22.5 C 33 %
2142 15-08-2020 20:52:17 22.3 C 33 %
2143 15-08-2020 21:02:17 22.2 C 34 %
2144 15-08-2020 21:12:17 21.8 C 35 %
2145 15-08-2020 21:22:17 21.7 C 36 %
2146 15-08-2020 21:32:17 21.4 C 36 %
2147 15-08-2020 21:42:17 21.3 C 37 %
2148 15-08-2020 21:52:17 21.2 C 37 %
2149 15-08-2020 22:02:17 21.2 C 37 %
2150 15-08-2020 22:12:17 21.1 C 37 %
Sensor: Nr:Datum:Temp:Feuchte:
Aussen-T/F 2151 15-08-2020 22:22:17 20.9 C 38 %
2152 15-08-2020 22:32:17 20.8 C 39 %
2153 15-08-2020 22:42:17 20.8 C 39 %
2154 15-08-2020 22:52:18 20.6 C 39 %
2155 15-08-2020 23:02:17 20.4 C 40 %
2156 15-08-2020 23:12:17 20.4 C 40 %
2157 15-08-2020 23:22:17 20.1 C 40 %
2158 15-08-2020 23:32:17 19.8 C 40 %
2159 15-08-2020 23:42:17 19.7 C 41 %
2160 15-08-2020 23:52:18 19.4 C 41 %
2161 16-08-2020 00:02:18 19.3 C 41 %
2162 16-08-2020 00:12:18 19.4 C 41 %
2163 16-08-2020 00:22:17 19.4 C 42 %
2164 16-08-2020 00:32:17 19.1 C 41 %
2165 16-08-2020 00:42:17 19.2 C 42 %
2166 16-08-2020 00:52:17 19 C 41 %
2167 16-08-2020 01:02:18 19 C 41 %
2168 16-08-2020 01:12:18 19.1 C 41 %
2169 16-08-2020 01:22:17 19 C 41 %
2170 16-08-2020 01:32:18 19.1 C 41 %
2171 16-08-2020 01:42:18 19.1 C 41 %
2172 16-08-2020 01:52:17 19 C 41 %
2173 16-08-2020 02:02:17 19.2 C 40 %
2174 16-08-2020 02:12:17 19 C 41 %
2175 16-08-2020 02:22:17 18.9 C 42 %
Sensor: Nr:Datum:Temp:Feuchte:
Aussen-T/F 2176 16-08-2020 02:32:18 18.7 C 42 %
2177 16-08-2020 02:42:18 18.6 C 42 %
2178 16-08-2020 02:52:17 18.5 C 42 %
2179 16-08-2020 03:02:18 18.5 C 42 %
2180 16-08-2020 03:12:18 18.2 C 42 %
2181 16-08-2020 03:22:17 18 C 42 %
2182 16-08-2020 03:32:17 17.9 C 42 %
2183 16-08-2020 03:42:17 17.9 C 42 %
2184 16-08-2020 03:52:17 17.9 C 42 %
2185 16-08-2020 04:02:17 17.9 C 42 %
2186 16-08-2020 04:12:17 18 C 41 %
2187 16-08-2020 04:22:17 17.7 C 42 %
2188 16-08-2020 04:32:17 18 C 41 %
2189 16-08-2020 04:42:17 18.1 C 41 %
2190 16-08-2020 04:52:17 18.1 C 41 %
2191 16-08-2020 05:02:18 17.8 C 41 %
2192 16-08-2020 05:12:18 17.7 C 41 %
2193 16-08-2020 05:22:18 17.7 C 41 %
2194 16-08-2020 05:32:18 17.4 C 41 %
2195 16-08-2020 05:42:18 17.2 C 41 %
2196 16-08-2020 05:52:17 17.3 C 41 %
2197 16-08-2020 06:02:17 17.3 C 41 %
2198 16-08-2020 06:12:17 17.2 C 41 %
2199 16-08-2020 06:22:17 17.2 C 41 %
2200 16-08-2020 06:32:17 17.1 C 41 %
Sensor: Nr:Datum:Temp:Feuchte:
Aussen-T/F 2201 16-08-2020 06:42:17 17.1 C 41 %
2202 16-08-2020 06:52:17 17.1 C 41 %
2203 16-08-2020 07:02:17 17.2 C 41 %
2204 16-08-2020 07:12:17 17.3 C 41 %
2205 16-08-2020 07:22:18 17.5 C 41 %
2206 16-08-2020 07:32:17 17.7 C 41 %
2207 16-08-2020 07:42:18 17.7 C 41 %
2208 16-08-2020 07:52:18 17.9 C 41 %
2209 16-08-2020 08:02:17 18.2 C 41 %
2210 16-08-2020 08:12:17 18.3 C 41 %
2211 16-08-2020 08:22:17 18.6 C 41 %
2212 16-08-2020 08:32:18 18.8 C 41 %
2213 16-08-2020 08:42:18 18.9 C 41 %
2214 16-08-2020 08:52:17 19.1 C 41 %
2215 16-08-2020 09:02:17 19.3 C 40 %
2216 16-08-2020 09:12:17 19.7 C 40 %
2217 16-08-2020 09:22:17 20.1 C 39 %
2218 16-08-2020 09:32:18 20.6 C 37 %
2219 16-08-2020 09:42:18 21.6 C 35 %
2220 16-08-2020 09:52:18 22 C 33 %
2221 16-08-2020 10:02:18 22.6 C 32 %
2222 16-08-2020 10:12:18 23 C 31 %
2223 16-08-2020 10:22:17 23.7 C 30 %
2224 16-08-2020 10:32:18 24.4 C 29 %
2225 16-08-2020 10:42:18 24.9 C 29 %
Sensor: Nr:Datum:Temp:Feuchte:
Aussen-T/F 2226 16-08-2020 10:52:17 25.7 C 27 %
2227 16-08-2020 11:02:17 26.1 C 26 %
2228 16-08-2020 11:12:17 26.9 C 26 %
2229 16-08-2020 11:22:18 27.3 C 25 %
2230 16-08-2020 11:32:17 28.1 C 24 %
2231 16-08-2020 11:42:17 29.2 C 22 %
2232 16-08-2020 11:52:17 29.4 C 22 %
2233 16-08-2020 12:02:19 28.9 C 22 %
2234 16-08-2020 12:12:17 28.6 C 22 %
2235 16-08-2020 12:22:17 28.5 C 22 %
2236 16-08-2020 12:32:17 28.9 C 23 %
2237 16-08-2020 12:42:17 29.4 C 22 %
2238 16-08-2020 12:52:17 29.3 C 22 %
2239 16-08-2020 13:02:17 29.5 C 22 %
2240 16-08-2020 13:12:17 29.4 C 22 %
2241 16-08-2020 13:22:17 29.5 C 22 %
2242 16-08-2020 13:32:17 30 C 21 %
2243 16-08-2020 13:42:17 30 C 21 %
2244 16-08-2020 13:52:17 30.1 C 21 %
2245 16-08-2020 14:02:18 29.7 C 21 %
2246 16-08-2020 14:12:18 31 C 20 %
2247 16-08-2020 14:22:17 32.2 C 20 %
2248 16-08-2020 14:32:17 33.2 C 20 %
2249 16-08-2020 14:42:17 34.5 C 20 %
2250 16-08-2020 14:52:17 35 C 20 %
Sensor: Nr:Datum:Temp:Feuchte:
Aussen-T/F 2251 16-08-2020 15:13:17 32.1 C 20 %
2252 16-08-2020 15:23:36 34.9 C 20 %
2253 16-08-2020 15:33:17 37.2 C 20 %
2254 16-08-2020 15:43:17 34.7 C 20 %
2255 16-08-2020 15:53:17 33.7 C 20 %
2256 16-08-2020 16:03:17 38.2 C 20 %
2257 16-08-2020 16:13:18 36.8 C 20 %
2258 16-08-2020 16:23:17 36.8 C 20 %
2259 16-08-2020 16:33:17 33.9 C 20 %
2260 16-08-2020 16:43:18 31.4 C 20 %
2261 16-08-2020 16:53:17 30.6 C 20 %
2262 16-08-2020 17:03:17 29.8 C 20 %
2263 16-08-2020 17:13:17 28.8 C 20 %
2264 16-08-2020 17:23:17 28.7 C 21 %
2265 16-08-2020 17:33:18 28.8 C 20 %
2266 16-08-2020 17:43:18 28.5 C 20 %
2267 16-08-2020 17:53:18 29.4 C 20 %
2268 16-08-2020 18:03:18 31.2 C 20 %
2269 16-08-2020 18:13:18 30.4 C 20 %
2270 16-08-2020 18:23:18 27.9 C 20 %
2271 16-08-2020 18:33:17 27.5 C 21 %
2272 16-08-2020 18:43:17 26.8 C 22 %
2273 16-08-2020 18:53:17 26.4 C 22 %
2274 16-08-2020 19:03:18 26.1 C 22 %
2275 16-08-2020 19:13:18 24.8 C 26 %
Sensor: Nr:Datum:Temp:Feuchte:
Aussen-T/F 2276 16-08-2020 19:23:18 22.8 C 34 %
2277 16-08-2020 19:33:17 22.3 C 34 %
2278 16-08-2020 19:43:17 21.9 C 35 %
2279 16-08-2020 19:53:17 22.3 C 32 %
2280 16-08-2020 20:03:17 22.8 C 31 %
2281 16-08-2020 20:13:17 21.2 C 34 %
2282 16-08-2020 20:23:17 20.4 C 38 %
2283 16-08-2020 20:33:17 20 C 39 %
2284 16-08-2020 20:43:17 19.5 C 41 %
2285 16-08-2020 20:53:18 19.1 C 41 %
2286 16-08-2020 21:03:18 19 C 41 %
2287 16-08-2020 21:13:18 19.3 C 41 %
2288 16-08-2020 21:23:17 19.3 C 41 %
2289 16-08-2020 21:33:17 19.4 C 41 %
2290 16-08-2020 21:43:17 19.4 C 41 %
2291 16-08-2020 21:53:17 19.2 C 41 %
2292 16-08-2020 22:03:17 19.3 C 41 %
2293 16-08-2020 22:13:18 19.2 C 41 %
2294 16-08-2020 22:23:17 19.2 C 41 %
2295 16-08-2020 22:33:17 18.9 C 41 %
2296 16-08-2020 22:43:17 18.6 C 42 %
2297 16-08-2020 22:53:18 18.3 C 41 %
2298 16-08-2020 23:03:17 18 C 41 %
2299 16-08-2020 23:13:17 18 C 41 %
2300 16-08-2020 23:23:17 17.9 C 41 %
Sensor: Nr:Datum:Temp:Feuchte:
Aussen-T/F 2301 16-08-2020 23:33:17 18 C 40 %
2302 16-08-2020 23:43:17 18.1 C 40 %
2303 16-08-2020 23:53:17 18.1 C 40 %
2304 17-08-2020 00:03:17 18.4 C 40 %
2305 17-08-2020 00:13:17 18.3 C 40 %
2306 17-08-2020 00:23:17 18.4 C 40 %
2307 17-08-2020 00:33:17 18.5 C 40 %
2308 17-08-2020 00:43:18 18.5 C 40 %
2309 17-08-2020 00:53:18 18.5 C 40 %
2310 17-08-2020 01:03:18 18.3 C 40 %
2311 17-08-2020 01:13:18 18.2 C 40 %
2312 17-08-2020 01:23:17 18.1 C 40 %
2313 17-08-2020 01:33:18 18.1 C 40 %
2314 17-08-2020 01:43:18 18.3 C 40 %
2315 17-08-2020 01:53:17 18.2 C 40 %
2316 17-08-2020 02:03:18 18.1 C 40 %
2317 17-08-2020 02:13:18 18 C 40 %
2318 17-08-2020 02:23:17 17.9 C 40 %
2319 17-08-2020 02:33:17 17.8 C 40 %
2320 17-08-2020 02:43:17 17.7 C 40 %
2321 17-08-2020 02:53:17 17.7 C 40 %
2322 17-08-2020 03:03:17 18 C 40 %
2323 17-08-2020 03:13:17 18.3 C 40 %
2324 17-08-2020 03:23:17 18.4 C 40 %
2325 17-08-2020 03:33:17 18.6 C 40 %
Sensor: Nr:Datum:Temp:Feuchte:
Aussen-T/F 2326 17-08-2020 03:43:17 18.4 C 41 %
2327 17-08-2020 03:53:17 18.3 C 41 %
2328 17-08-2020 04:03:17 18.2 C 41 %
2329 17-08-2020 04:13:17 17.9 C 41 %
2330 17-08-2020 04:23:17 17.5 C 41 %
2331 17-08-2020 04:33:18 17.2 C 41 %
2332 17-08-2020 04:43:18 17.2 C 41 %
2333 17-08-2020 04:53:18 17.2 C 41 %
2334 17-08-2020 05:03:17 17.2 C 41 %
2335 17-08-2020 05:13:17 17.3 C 41 %
2336 17-08-2020 05:23:17 17.4 C 41 %
2337 17-08-2020 05:33:17 17.6 C 40 %
2338 17-08-2020 05:43:17 17.5 C 40 %
2339 17-08-2020 05:53:17 17.5 C 40 %
2340 17-08-2020 06:03:17 17.4 C 40 %
2341 17-08-2020 06:13:17 17.4 C 40 %
2342 17-08-2020 06:23:17 17.3 C 40 %
2343 17-08-2020 06:33:17 17.1 C 40 %
2344 17-08-2020 06:43:17 17 C 40 %
2345 17-08-2020 06:53:18 17.1 C 40 %
2346 17-08-2020 07:03:18 17.1 C 40 %
2347 17-08-2020 07:13:18 17.2 C 40 %
2348 17-08-2020 07:23:17 17.4 C 40 %
2349 17-08-2020 07:33:18 17.5 C 40 %
2350 17-08-2020 07:43:18 17.5 C 40 %
Sensor: Nr:Datum:Temp:Feuchte:
Aussen-T/F 2351 17-08-2020 07:53:17 17.6 C 40 %
2352 17-08-2020 08:03:17 17.7 C 40 %
2353 17-08-2020 08:13:17 17.9 C 40 %
2354 17-08-2020 08:23:18 18.1 C 40 %
2355 17-08-2020 08:33:18 18.3 C 40 %
2356 17-08-2020 08:43:18 18.3 C 40 %
2357 17-08-2020 08:53:17 18.8 C 41 %
2358 17-08-2020 09:03:17 19.3 C 41 %
2359 17-08-2020 09:13:17 19.2 C 41 %
2360 17-08-2020 09:23:17 19.2 C 39 %
2361 17-08-2020 09:33:17 19.3 C 39 %
2362 17-08-2020 09:43:17 19.9 C 40 %
2363 17-08-2020 09:53:17 20.3 C 37 %
2364 17-08-2020 10:03:18 20.6 C 36 %
2365 17-08-2020 10:13:18 20.8 C 35 %
2366 17-08-2020 10:23:17 20.6 C 35 %
2367 17-08-2020 10:33:17 21 C 34 %
2368 17-08-2020 10:43:17 21.4 C 34 %
2369 17-08-2020 10:53:17 21.5 C 33 %
2370 17-08-2020 11:03:17 21.7 C 33 %
2371 17-08-2020 11:13:17 22.4 C 32 %
2372 17-08-2020 11:23:17 22.6 C 32 %
2373 17-08-2020 11:33:17 23.2 C 31 %
2374 17-08-2020 11:43:17 23.7 C 30 %
2375 17-08-2020 11:53:18 24.2 C 29 %
Sensor: Nr:Datum:Temp:Feuchte:
Aussen-T/F 2376 17-08-2020 12:03:17 24.5 C 29 %
2377 17-08-2020 12:13:17 24.2 C 29 %
2378 17-08-2020 12:23:17 23.5 C 30 %
2379 17-08-2020 12:33:18 23.7 C 30 %
2380 17-08-2020 12:43:18 24.2 C 29 %
2381 17-08-2020 12:53:17 24.4 C 29 %
2382 17-08-2020 13:03:17 25.1 C 28 %
2383 17-08-2020 13:13:17 25.6 C 27 %
2384 17-08-2020 13:23:17 26 C 26 %
2385 17-08-2020 13:33:17 25.9 C 26 %
2386 17-08-2020 13:43:17 26.2 C 25 %
2387 17-08-2020 13:53:17 25.8 C 26 %
2388 17-08-2020 14:03:17 25.9 C 25 %
2389 17-08-2020 14:13:17 25.8 C 26 %
2390 17-08-2020 14:23:17 26.2 C 25 %
2391 17-08-2020 14:33:17 28 C 22 %
2392 17-08-2020 14:43:17 30.8 C 20 %
2393 17-08-2020 14:53:17 28.7 C 20 %
2394 17-08-2020 15:03:17 31.3 C 20 %
2395 17-08-2020 15:13:17 31 C 20 %
2396 17-08-2020 15:23:17 31.2 C 20 %
2397 17-08-2020 15:33:17 31.8 C 20 %
2398 17-08-2020 15:43:17 28 C 20 %
2399 17-08-2020 15:53:18 28.5 C 20 %
2400 17-08-2020 16:03:17 30.5 C 20 %
Sensor: Nr:Datum:Temp:Feuchte:
Aussen-T/F 2401 17-08-2020 16:13:17 29.3 C 20 %
2402 17-08-2020 16:23:17 31.5 C 20 %
2403 17-08-2020 16:33:17 31.5 C 20 %
2404 17-08-2020 16:43:17 32.3 C 20 %
2405 17-08-2020 16:53:18 32.4 C 20 %
2406 17-08-2020 17:03:18 33.2 C 20 %
2407 17-08-2020 17:13:18 31.4 C 20 %
2408 17-08-2020 17:23:18 31.2 C 20 %
2409 17-08-2020 17:33:17 31.2 C 20 %
2410 17-08-2020 17:43:17 28.4 C 20 %
2411 17-08-2020 17:53:17 27.4 C 20 %
2412 17-08-2020 18:03:17 26.7 C 20 %
2413 17-08-2020 18:13:17 27.2 C 20 %
2414 17-08-2020 18:23:18 27.3 C 20 %
2415 17-08-2020 18:33:18 26.6 C 20 %
2416 17-08-2020 18:43:18 27 C 20 %
2417 17-08-2020 18:53:17 27.4 C 20 %
2418 17-08-2020 19:03:18 26.7 C 20 %
2419 17-08-2020 19:13:18 26.7 C 20 %
2420 17-08-2020 19:23:17 26.2 C 20 %
2421 17-08-2020 19:33:17 25.9 C 20 %
2422 17-08-2020 19:43:17 25 C 21 %
2423 17-08-2020 19:53:17 24.3 C 23 %
2424 17-08-2020 20:03:17 24.1 C 22 %
2425 17-08-2020 20:13:18 22.3 C 26 %
Sensor: Nr:Datum:Temp:Feuchte:
Aussen-T/F 2426 17-08-2020 20:23:17 21.4 C 28 %
2427 17-08-2020 20:33:17 21 C 29 %
2428 17-08-2020 20:43:17 20.8 C 30 %
2429 17-08-2020 20:53:17 20.6 C 31 %
2430 17-08-2020 21:03:17 20.3 C 31 %
2431 17-08-2020 21:13:17 20.4 C 31 %
2432 17-08-2020 21:23:17 20.3 C 32 %
2433 17-08-2020 21:33:18 20.3 C 32 %
2434 17-08-2020 21:43:18 20.2 C 32 %
2435 17-08-2020 21:53:18 20.3 C 32 %
2436 17-08-2020 22:03:17 20.3 C 31 %
2437 17-08-2020 22:13:17 20.1 C 31 %
2438 17-08-2020 22:23:18 20.2 C 32 %
2439 17-08-2020 22:33:18 20.1 C 31 %
2440 17-08-2020 22:43:18 20 C 31 %
2441 17-08-2020 22:53:18 19.8 C 32 %
2442 17-08-2020 23:03:18 19.3 C 33 %
2443 17-08-2020 23:13:18 19.4 C 33 %
2444 17-08-2020 23:23:17 19.5 C 33 %
2445 17-08-2020 23:33:18 19.8 C 32 %
2446 17-08-2020 23:43:18 19.9 C 32 %
2447 17-08-2020 23:53:18 19.8 C 32 %
2448 18-08-2020 00:03:18 19.3 C 34 %
2449 18-08-2020 00:13:18 19.2 C 33 %
2450 18-08-2020 00:23:17 19 C 34 %
Sensor: Nr:Datum:Temp:Feuchte:
Aussen-T/F 2451 18-08-2020 00:33:18 18.7 C 35 %
2452 18-08-2020 00:43:18 18.5 C 35 %
2453 18-08-2020 00:53:18 18.9 C 34 %
2454 18-08-2020 01:03:18 18.7 C 35 %
2455 18-08-2020 01:13:18 18.6 C 35 %
2456 18-08-2020 01:23:18 18.5 C 35 %
2457 18-08-2020 01:33:17 18.5 C 35 %
2458 18-08-2020 01:43:17 18.5 C 35 %
2459 18-08-2020 01:53:18 18.5 C 35 %
2460 18-08-2020 02:03:17 18.6 C 35 %
2461 18-08-2020 02:13:18 18.5 C 35 %
2462 18-08-2020 02:23:17 18.5 C 35 %
2463 18-08-2020 02:33:17 18.8 C 34 %
2464 18-08-2020 02:43:17 18.7 C 35 %
2465 18-08-2020 02:53:18 18.3 C 35 %
2466 18-08-2020 03:03:18 18 C 35 %
2467 18-08-2020 03:13:18 17.5 C 36 %
2468 18-08-2020 03:23:18 17.1 C 36 %
2469 18-08-2020 03:33:19 16.8 C 37 %
2470 18-08-2020 03:43:19 16.9 C 37 %
2471 18-08-2020 03:53:18 16.8 C 37 %
2472 18-08-2020 04:03:18 16.6 C 37 %
2473 18-08-2020 04:13:18 16.9 C 37 %
2474 18-08-2020 04:23:18 16.7 C 37 %
2475 18-08-2020 04:33:18 16.5 C 38 %
Sensor: Nr:Datum:Temp:Feuchte:
Aussen-T/F 2476 18-08-2020 04:43:18 16.3 C 39 %
2477 18-08-2020 04:53:18 16.4 C 38 %
2478 18-08-2020 05:03:18 16.4 C 38 %
2479 18-08-2020 05:13:18 16.7 C 37 %
2480 18-08-2020 05:23:18 16.8 C 37 %
2481 18-08-2020 05:33:17 17 C 36 %
2482 18-08-2020 05:43:17 16.9 C 37 %
2483 18-08-2020 05:53:18 16.8 C 37 %
2484 18-08-2020 06:03:18 16.5 C 37 %
2485 18-08-2020 06:13:18 16.5 C 37 %
2486 18-08-2020 06:23:18 16.7 C 36 %
2487 18-08-2020 06:33:17 16.7 C 36 %
2488 18-08-2020 06:43:17 16.6 C 37 %
2489 18-08-2020 06:53:18 17.5 C 35 %
2490 18-08-2020 07:03:18 17.7 C 35 %
2491 18-08-2020 07:13:18 17.8 C 35 %
2492 18-08-2020 07:23:17 17.9 C 35 %
2493 18-08-2020 07:33:18 17.7 C 35 %
2494 18-08-2020 07:43:18 17.7 C 35 %
2495 18-08-2020 07:53:17 17.8 C 35 %
2496 18-08-2020 08:03:18 17.7 C 35 %
2497 18-08-2020 08:13:18 17.8 C 35 %
2498 18-08-2020 08:23:18 17.9 C 35 %
2499 18-08-2020 08:33:18 18.1 C 35 %
2500 18-08-2020 08:43:18 18.3 C 35 %
Sensor: Nr:Datum:Temp:Feuchte:
Aussen-T/F 2501 18-08-2020 08:53:18 18.3 C 35 %
2502 18-08-2020 09:03:17 18.6 C 35 %
2503 18-08-2020 09:13:17 18.6 C 35 %
2504 18-08-2020 09:23:18 19 C 33 %
2505 18-08-2020 09:33:18 19.4 C 33 %
2506 18-08-2020 09:43:18 19.4 C 33 %
2507 18-08-2020 09:53:18 19.6 C 33 %
2508 18-08-2020 10:03:18 20 C 32 %
2509 18-08-2020 10:13:19 20.4 C 32 %
2510 18-08-2020 10:23:18 20.5 C 32 %
2511 18-08-2020 10:33:18 20.8 C 31 %
2512 18-08-2020 10:43:18 20.9 C 31 %
2513 18-08-2020 10:53:17 21.3 C 30 %
2514 18-08-2020 11:03:17 22.1 C 29 %
2515 18-08-2020 11:13:17 23 C 27 %
2516 18-08-2020 11:23:18 23.5 C 27 %
2517 18-08-2020 11:33:18 24.5 C 25 %
2518 18-08-2020 11:43:18 27.3 C 21 %
2519 18-08-2020 11:53:18 24.1 C 23 %
2520 18-08-2020 12:03:18 24.7 C 23 %
2521 18-08-2020 12:13:18 24.2 C 23 %
2522 18-08-2020 12:23:18 23.4 C 24 %
2523 18-08-2020 12:33:18 23.8 C 24 %
2524 18-08-2020 12:43:18 24.4 C 24 %
2525 18-08-2020 12:53:17 25.4 C 22 %
Sensor: Nr:Datum:Temp:Feuchte:
Aussen-T/F 2526 18-08-2020 13:03:17 25.1 C 23 %
2527 18-08-2020 13:13:18 24.9 C 23 %
2528 18-08-2020 13:23:18 24.6 C 23 %
2529 18-08-2020 13:33:17 24.4 C 23 %
2530 18-08-2020 13:43:17 24.9 C 23 %
2531 18-08-2020 13:53:18 25.1 C 22 %
2532 18-08-2020 14:03:18 25.1 C 22 %
2533 18-08-2020 14:13:18 26.2 C 22 %
2534 18-08-2020 14:23:18 26.5 C 21 %
2535 18-08-2020 14:33:18 30.1 C 20 %
2536 18-08-2020 14:43:18 30.1 C 20 %
2537 18-08-2020 14:53:18 27.5 C 20 %
2538 18-08-2020 15:03:18 26.8 C 20 %
2539 18-08-2020 15:13:18 26.8 C 20 %
2540 18-08-2020 15:23:18 27.7 C 20 %
2541 18-08-2020 15:33:17 29.6 C 20 %
2542 18-08-2020 15:43:17 27.1 C 20 %
2543 18-08-2020 15:53:17 28.3 C 20 %
2544 18-08-2020 16:03:17 25.5 C 20 %
2545 18-08-2020 16:13:17 24.1 C 20 %
2546 18-08-2020 16:23:17 24 C 20 %
2547 18-08-2020 16:33:17 23.6 C 21 %
2548 18-08-2020 16:43:17 18.2 C 38 %
2549 18-08-2020 16:53:17 17.5 C 42 %
2550 18-08-2020 17:03:17 17.3 C 41 %
Sensor: Nr:Datum:Temp:Feuchte:
Aussen-T/F 2551 18-08-2020 17:13:17 18.1 C 40 %
2552 18-08-2020 17:23:17 18.7 C 39 %
2553 18-08-2020 17:33:17 19.8 C 37 %
2554 18-08-2020 17:43:17 20.3 C 36 %
2555 18-08-2020 17:53:17 20.5 C 35 %
2556 18-08-2020 18:03:18 20.2 C 35 %
2557 18-08-2020 18:13:18 19.2 C 36 %
2558 18-08-2020 18:23:17 19.7 C 37 %
2559 18-08-2020 18:33:17 19.2 C 37 %
2560 18-08-2020 18:43:17 19.5 C 38 %
2561 18-08-2020 18:53:17 19.1 C 38 %
2562 18-08-2020 19:03:17 18.9 C 39 %
2563 18-08-2020 19:13:17 18.4 C 40 %
2564 18-08-2020 19:23:17 18.1 C 40 %
2565 18-08-2020 19:33:17 18.1 C 40 %
2566 18-08-2020 19:43:17 18.1 C 41 %
2567 18-08-2020 19:53:17 18.1 C 41 %
2568 18-08-2020 20:03:17 18 C 40 %
2569 18-08-2020 20:13:17 18.1 C 40 %
2570 18-08-2020 20:23:17 17.9 C 41 %
2571 18-08-2020 20:33:17 17.8 C 40 %
2572 18-08-2020 20:43:17 17.7 C 40 %
2573 18-08-2020 20:53:17 17.2 C 40 %
2574 18-08-2020 21:03:17 17.1 C 41 %
2575 18-08-2020 21:13:17 16.8 C 42 %
Sensor: Nr:Datum:Temp:Feuchte:
Aussen-T/F 2576 18-08-2020 21:23:18 16.7 C 41 %
2577 18-08-2020 21:33:18 16.5 C 41 %
2578 18-08-2020 21:43:18 16.5 C 42 %
2579 18-08-2020 21:53:17 16.2 C 42 %
2580 18-08-2020 22:03:17 16 C 43 %
2581 18-08-2020 22:13:17 16 C 42 %
2582 18-08-2020 22:23:17 16 C 42 %
2583 18-08-2020 22:33:17 15.9 C 43 %
2584 18-08-2020 22:43:18 15.7 C 42 %
2585 18-08-2020 22:53:17 15.5 C 42 %
2586 18-08-2020 23:03:17 15.2 C 42 %
2587 18-08-2020 23:13:17 15 C 42 %
2588 18-08-2020 23:23:17 14.9 C 43 %
2589 18-08-2020 23:33:17 14.8 C 43 %
2590 18-08-2020 23:43:17 14.7 C 43 %
2591 18-08-2020 23:53:17 14.5 C 43 %
2592 19-08-2020 00:03:18 14.5 C 43 %
2593 19-08-2020 00:13:18 14.5 C 43 %
2594 19-08-2020 00:23:18 14.6 C 42 %
2595 19-08-2020 00:33:18 14.6 C 42 %
2596 19-08-2020 00:43:18 14.4 C 42 %
2597 19-08-2020 00:53:17 14.5 C 42 %
2598 19-08-2020 01:03:17 14.4 C 42 %
2599 19-08-2020 01:13:17 14.2 C 42 %
2600 19-08-2020 01:23:17 14.1 C 42 %
Sensor: Nr:Datum:Temp:Feuchte:
Aussen-T/F 2601 19-08-2020 01:33:17 14 C 42 %
2602 19-08-2020 01:43:17 14 C 42 %
2603 19-08-2020 01:53:17 13.9 C 42 %
2604 19-08-2020 02:03:17 13.8 C 42 %
2605 19-08-2020 02:13:17 13.8 C 42 %
2606 19-08-2020 02:23:17 14.1 C 41 %
2607 19-08-2020 02:33:18 13.7 C 42 %
2608 19-08-2020 02:43:18 13.8 C 42 %
2609 19-08-2020 02:53:17 13.6 C 42 %
2610 19-08-2020 03:03:17 13.8 C 42 %
2611 19-08-2020 03:13:17 13.5 C 42 %
2612 19-08-2020 03:23:17 13.5 C 42 %
2613 19-08-2020 03:33:17 13.6 C 41 %
2614 19-08-2020 03:43:17 13.3 C 41 %
2615 19-08-2020 03:53:17 13.2 C 41 %
2616 19-08-2020 04:03:17 13.2 C 41 %
2617 19-08-2020 04:13:17 13.1 C 41 %
2618 19-08-2020 04:23:17 13.2 C 41 %
2619 19-08-2020 04:33:18 12.9 C 42 %
2620 19-08-2020 04:43:18 12.9 C 42 %
2621 19-08-2020 04:53:17 12.8 C 42 %
2622 19-08-2020 05:03:18 12.8 C 42 %
2623 19-08-2020 05:13:18 12.9 C 42 %
2624 19-08-2020 05:23:17 13 C 41 %
2625 19-08-2020 05:33:17 12.8 C 42 %
Sensor: Nr:Datum:Temp:Feuchte:
Aussen-T/F 2626 19-08-2020 05:43:17 13.1 C 41 %
2627 19-08-2020 05:53:17 12.9 C 42 %
2628 19-08-2020 06:03:17 12.8 C 42 %
2629 19-08-2020 06:13:17 12.8 C 42 %
2630 19-08-2020 06:23:18 13.1 C 41 %
2631 19-08-2020 06:33:18 13 C 41 %
2632 19-08-2020 06:43:18 13.3 C 41 %
2633 19-08-2020 06:53:18 13.5 C 41 %
2634 19-08-2020 07:03:17 13.7 C 41 %
2635 19-08-2020 07:13:17 13.7 C 41 %
2636 19-08-2020 07:23:17 13.9 C 41 %
2637 19-08-2020 07:33:17 13.9 C 41 %
2638 19-08-2020 07:43:17 14.2 C 40 %
2639 19-08-2020 07:53:18 14.3 C 41 %
2640 19-08-2020 08:03:18 14.2 C 41 %
2641 19-08-2020 08:13:18 14.7 C 41 %
2642 19-08-2020 08:23:17 14.7 C 41 %
2643 19-08-2020 08:33:18 15 C 41 %
2644 19-08-2020 08:43:18 15 C 41 %
2645 19-08-2020 08:53:18 15.2 C 41 %
2646 19-08-2020 09:03:17 15 C 40 %
2647 19-08-2020 09:13:18 15 C 40 %
2648 19-08-2020 09:23:17 15.2 C 40 %
2649 19-08-2020 09:33:18 15.9 C 40 %
2650 19-08-2020 09:43:18 15.9 C 40 %
Sensor: Nr:Datum:Temp:Feuchte:
Aussen-T/F 2651 19-08-2020 09:53:17 16 C 40 %
2652 19-08-2020 10:03:17 16 C 40 %
2653 19-08-2020 10:13:17 16.2 C 41 %
2654 19-08-2020 10:23:17 16.6 C 41 %
2655 19-08-2020 10:33:18 17 C 39 %
2656 19-08-2020 10:43:18 17.5 C 38 %
2657 19-08-2020 10:53:17 18.2 C 37 %
2658 19-08-2020 11:03:17 19.3 C 35 %
2659 19-08-2020 11:13:18 19.9 C 35 %
2660 19-08-2020 11:23:17 20.8 C 35 %
2661 19-08-2020 11:33:17 22.5 C 32 %
2662 19-08-2020 11:43:17 25.1 C 29 %
2663 19-08-2020 11:53:17 25.8 C 27 %
2664 19-08-2020 12:03:17 26.7 C 26 %
2665 19-08-2020 12:13:17 24.4 C 27 %
2666 19-08-2020 12:23:18 21.6 C 32 %
2667 19-08-2020 12:33:18 21.4 C 33 %
2668 19-08-2020 12:43:18 21.8 C 33 %
2669 19-08-2020 12:53:17 22.3 C 31 %
2670 19-08-2020 13:03:17 23.4 C 29 %
2671 19-08-2020 13:13:17 25.3 C 26 %
2672 19-08-2020 13:23:17 25.8 C 25 %
2673 19-08-2020 13:33:17 26.2 C 24 %
2674 19-08-2020 13:43:17 26.1 C 23 %
2675 19-08-2020 13:53:17 26.4 C 22 %
Sensor: Nr:Datum:Temp:Feuchte:
Aussen-T/F 2676 19-08-2020 14:03:17 27 C 21 %
2677 19-08-2020 14:13:17 27.2 C 21 %
2678 19-08-2020 14:23:17 27.9 C 20 %
2679 19-08-2020 14:33:18 27 C 21 %
2680 19-08-2020 14:43:18 29.9 C 20 %
2681 19-08-2020 14:53:17 29.2 C 20 %
2682 19-08-2020 15:03:17 27 C 20 %
2683 19-08-2020 15:13:17 27.1 C 20 %
2684 19-08-2020 15:23:17 26.7 C 21 %
2685 19-08-2020 15:33:18 29.6 C 20 %
2686 19-08-2020 15:43:18 30.3 C 20 %
2687 19-08-2020 15:53:18 32.6 C 20 %
2688 19-08-2020 16:03:17 29.1 C 20 %
2689 19-08-2020 16:13:17 27.4 C 21 %
2690 19-08-2020 16:23:18 27 C 22 %
2691 19-08-2020 16:33:18 27.6 C 21 %
2692 19-08-2020 16:43:18 29.9 C 20 %
2693 19-08-2020 16:53:17 31.6 C 20 %
2694 19-08-2020 17:03:18 31.7 C 20 %
2695 19-08-2020 17:13:18 32.8 C 20 %
2696 19-08-2020 17:23:17 31.7 C 20 %
2697 19-08-2020 17:33:17 30.8 C 20 %
2698 19-08-2020 17:43:17 30.7 C 20 %
2699 19-08-2020 17:53:18 32.7 C 20 %
2700 19-08-2020 18:03:17 32 C 20 %
Sensor: Nr:Datum:Temp:Feuchte:
Aussen-T/F 2701 19-08-2020 18:13:17 29.7 C 20 %
2702 19-08-2020 18:23:17 29 C 20 %
2703 19-08-2020 18:33:17 28 C 20 %
2704 19-08-2020 18:43:17 26.5 C 22 %
2705 19-08-2020 18:53:17 25.3 C 23 %
2706 19-08-2020 19:03:18 24.4 C 25 %
2707 19-08-2020 19:13:18 24.1 C 25 %
2708 19-08-2020 19:23:18 23.9 C 26 %
2709 19-08-2020 19:33:18 23.2 C 26 %
2710 19-08-2020 19:43:18 23 C 26 %
2711 19-08-2020 19:53:17 22.9 C 27 %
2712 19-08-2020 20:03:17 22.5 C 28 %
2713 19-08-2020 20:13:17 22.3 C 28 %
2714 19-08-2020 20:23:17 22 C 29 %
2715 19-08-2020 20:33:17 21.7 C 30 %
2716 19-08-2020 20:43:18 21.5 C 30 %
2717 19-08-2020 20:53:17 21.4 C 29 %
2718 19-08-2020 21:03:17 21.3 C 30 %
2719 19-08-2020 21:13:17 21 C 30 %
2720 19-08-2020 21:23:17 20.3 C 32 %
2721 19-08-2020 21:33:17 20.5 C 31 %
2722 19-08-2020 21:43:17 20.4 C 31 %
2723 19-08-2020 21:53:17 20.4 C 32 %
2724 19-08-2020 22:03:17 20.5 C 32 %
2725 19-08-2020 22:13:18 20.5 C 32 %
Sensor: Nr:Datum:Temp:Feuchte:
Aussen-T/F 2726 19-08-2020 22:23:17 20.8 C 32 %
2727 19-08-2020 22:33:17 20.8 C 32 %
2728 19-08-2020 22:43:17 20.9 C 32 %
2729 19-08-2020 22:53:18 20.5 C 32 %
2730 19-08-2020 23:03:18 20.4 C 33 %
2731 19-08-2020 23:13:18 20.3 C 33 %
2732 19-08-2020 23:23:18 20.6 C 33 %
2733 19-08-2020 23:33:17 20.6 C 33 %
2734 19-08-2020 23:43:17 20.6 C 32 %
2735 19-08-2020 23:53:17 19.7 C 35 %
2736 20-08-2020 00:03:18 20.1 C 34 %
2737 20-08-2020 00:13:18 20.1 C 34 %
2738 20-08-2020 00:23:17 20.3 C 34 %
2739 20-08-2020 00:33:17 20.4 C 34 %
2740 20-08-2020 00:43:17 20.3 C 34 %
2741 20-08-2020 00:53:18 20.3 C 34 %
2742 20-08-2020 01:03:18 20.4 C 33 %
2743 20-08-2020 01:13:18 20.7 C 32 %
2744 20-08-2020 01:23:17 20.5 C 33 %
2745 20-08-2020 01:33:18 20.7 C 33 %
2746 20-08-2020 01:43:18 20.4 C 34 %
2747 20-08-2020 01:53:17 20.2 C 34 %
2748 20-08-2020 02:03:18 19.9 C 35 %
2749 20-08-2020 02:13:18 19.2 C 37 %
2750 20-08-2020 02:23:17 19 C 38 %
Sensor: Nr:Datum:Temp:Feuchte:
Aussen-T/F 2751 20-08-2020 02:33:18 19 C 39 %
2752 20-08-2020 02:43:18 19 C 38 %
2753 20-08-2020 02:53:17 19.1 C 38 %
2754 20-08-2020 03:03:17 19.1 C 37 %
2755 20-08-2020 03:13:18 19.1 C 37 %
2756 20-08-2020 03:23:17 19 C 38 %
2757 20-08-2020 03:33:17 19 C 37 %
2758 20-08-2020 03:43:17 18.9 C 38 %
2759 20-08-2020 03:53:17 19.1 C 37 %
2760 20-08-2020 04:03:17 19.1 C 38 %
2761 20-08-2020 04:13:17 19.1 C 37 %
2762 20-08-2020 04:23:17 19.1 C 37 %
2763 20-08-2020 04:33:17 19 C 38 %
2764 20-08-2020 04:43:17 18.6 C 40 %
2765 20-08-2020 04:53:18 18.6 C 41 %
2766 20-08-2020 05:03:17 18.5 C 41 %
2767 20-08-2020 05:13:17 18.4 C 41 %
2768 20-08-2020 05:23:17 18.4 C 41 %
2769 20-08-2020 05:33:17 18.4 C 41 %
2770 20-08-2020 05:43:17 18.5 C 41 %
2771 20-08-2020 05:53:18 18.4 C 41 %
2772 20-08-2020 06:03:18 18.5 C 41 %
2773 20-08-2020 06:13:18 18.4 C 41 %
2774 20-08-2020 06:23:17 18.5 C 40 %
2775 20-08-2020 06:33:17 18.3 C 40 %
Sensor: Nr:Datum:Temp:Feuchte:
Aussen-T/F 2776 20-08-2020 06:43:17 18.3 C 40 %
2777 20-08-2020 06:53:17 18.3 C 40 %
2778 20-08-2020 07:03:17 18.2 C 40 %
2779 20-08-2020 07:13:17 18.5 C 40 %
2780 20-08-2020 07:23:17 18.4 C 40 %
2781 20-08-2020 07:33:17 18.4 C 40 %
2782 20-08-2020 07:43:17 18.7 C 40 %
2783 20-08-2020 07:53:18 19 C 40 %
2784 20-08-2020 08:03:17 19 C 39 %
2785 20-08-2020 08:13:17 18.9 C 40 %
2786 20-08-2020 08:23:17 19.1 C 40 %
2787 20-08-2020 08:33:17 19.3 C 40 %
2788 20-08-2020 08:43:18 19.3 C 40 %
2789 20-08-2020 08:53:17 19.6 C 40 %
2790 20-08-2020 09:03:18 20.4 C 40 %
2791 20-08-2020 09:13:18 20.8 C 37 %
2792 20-08-2020 09:23:17 21.4 C 35 %
2793 20-08-2020 09:33:17 21.8 C 35 %
2794 20-08-2020 09:43:17 21.2 C 36 %
2795 20-08-2020 09:53:17 21.6 C 36 %
2796 20-08-2020 10:03:18 21.6 C 36 %
2797 20-08-2020 10:13:18 21.2 C 37 %
2798 20-08-2020 10:23:18 22.2 C 33 %
2799 20-08-2020 10:33:18 23.6 C 31 %
2800 20-08-2020 10:43:18 23.2 C 31 %
Sensor: Nr:Datum:Temp:Feuchte:
Aussen-T/F 2801 20-08-2020 10:53:17 22.8 C 34 %
2802 20-08-2020 11:03:17 22.9 C 34 %
2803 20-08-2020 11:13:17 24.1 C 31 %
2804 20-08-2020 11:23:17 24.5 C 31 %
2805 20-08-2020 11:33:18 26.2 C 30 %
2806 20-08-2020 11:43:18 27.9 C 26 %
2807 20-08-2020 11:53:17 28.2 C 25 %
2808 20-08-2020 12:03:17 30.4 C 24 %
2809 20-08-2020 12:13:17 27.8 C 25 %
2810 20-08-2020 12:23:17 26.7 C 25 %
2811 20-08-2020 12:33:17 25.9 C 27 %
2812 20-08-2020 12:43:17 26.1 C 26 %
2813 20-08-2020 12:53:17 26.2 C 26 %
2814 20-08-2020 13:03:18 26.9 C 26 %
2815 20-08-2020 13:13:18 27.6 C 25 %
2816 20-08-2020 13:23:17 28 C 24 %
2817 20-08-2020 13:33:17 28 C 24 %
2818 20-08-2020 13:43:17 28.4 C 24 %
2819 20-08-2020 13:53:17 28.9 C 24 %
2820 20-08-2020 14:03:17 29.7 C 23 %
2821 20-08-2020 14:13:17 30.2 C 22 %
2822 20-08-2020 14:23:17 30.9 C 21 %
2823 20-08-2020 14:33:17 34.8 C 20 %
2824 20-08-2020 14:43:17 36.6 C 20 %
2825 20-08-2020 14:53:17 36.5 C 20 %
Sensor: Nr:Datum:Temp:Feuchte:
Aussen-T/F 2826 20-08-2020 15:03:17 36.7 C 20 %
2827 20-08-2020 15:13:17 35.4 C 20 %
2828 20-08-2020 15:23:17 37.2 C 20 %
2829 20-08-2020 15:33:18 37.5 C 20 %
2830 20-08-2020 15:43:18 37.2 C 20 %
2831 20-08-2020 15:53:17 36.9 C 20 %
2832 20-08-2020 16:03:17 36.5 C 20 %
2833 20-08-2020 16:13:17 36.2 C 20 %
2834 20-08-2020 16:23:18 36.2 C 20 %
2835 20-08-2020 16:33:18 33.9 C 20 %
2836 20-08-2020 16:43:18 37 C 20 %
2837 20-08-2020 16:53:18 35.8 C 20 %
2838 20-08-2020 17:03:18 37.4 C 20 %
2839 20-08-2020 17:13:18 35.4 C 20 %
2840 20-08-2020 17:23:17 33.4 C 20 %
2841 20-08-2020 17:33:17 34.2 C 20 %
2842 20-08-2020 17:43:17 34.7 C 20 %
2843 20-08-2020 17:53:17 35.7 C 20 %
2844 20-08-2020 18:03:18 34.7 C 20 %
2845 20-08-2020 18:13:18 33.6 C 20 %
2846 20-08-2020 18:23:17 32.8 C 20 %
2847 20-08-2020 18:33:18 33.4 C 20 %
2848 20-08-2020 18:43:18 33.2 C 20 %
2849 20-08-2020 18:53:17 33 C 20 %
2850 20-08-2020 19:03:18 32.2 C 20 %
Sensor: Nr:Datum:Temp:Feuchte:
Aussen-T/F 2851 20-08-2020 19:13:18 31.8 C 20 %
2852 20-08-2020 19:23:17 30.8 C 20 %
2853 20-08-2020 19:33:17 29.1 C 22 %
2854 20-08-2020 19:43:17 27.8 C 24 %
2855 20-08-2020 19:53:17 27.4 C 23 %
2856 20-08-2020 20:03:18 26.6 C 25 %
2857 20-08-2020 20:13:18 26.3 C 25 %
2858 20-08-2020 20:23:17 25.7 C 26 %
2859 20-08-2020 20:33:17 25.4 C 26 %
2860 20-08-2020 20:43:17 25.2 C 26 %
2861 20-08-2020 20:53:18 25.1 C 26 %
2862 20-08-2020 21:03:18 24.8 C 27 %
2863 20-08-2020 21:13:18 24.7 C 27 %
2864 20-08-2020 21:23:17 24.4 C 27 %
2865 20-08-2020 21:33:17 24.3 C 28 %
2866 20-08-2020 21:43:17 24.2 C 27 %
2867 20-08-2020 21:53:17 24 C 27 %
2868 20-08-2020 22:03:17 24.1 C 27 %
2869 20-08-2020 22:13:17 23.7 C 29 %
2870 20-08-2020 22:23:17 23.6 C 29 %
2871 20-08-2020 22:33:17 23.7 C 28 %
2872 20-08-2020 22:43:17 23.3 C 29 %
2873 20-08-2020 22:53:17 23.3 C 29 %
2874 20-08-2020 23:03:17 23.4 C 28 %
2875 20-08-2020 23:13:17 23.3 C 29 %
Sensor: Nr:Datum:Temp:Feuchte:
Aussen-T/F 2876 20-08-2020 23:23:17 23.3 C 29 %
2877 20-08-2020 23:33:18 23.7 C 28 %
2878 20-08-2020 23:43:18 23.4 C 29 %
2879 20-08-2020 23:53:17 23.3 C 29 %
2880 21-08-2020 00:03:17 23.8 C 28 %
2881 21-08-2020 00:13:17 23.7 C 28 %
2882 21-08-2020 00:23:17 23.3 C 29 %
2883 21-08-2020 00:33:17 24.4 C 27 %
2884 21-08-2020 00:43:18 23.5 C 28 %
2885 21-08-2020 00:53:18 23.3 C 29 %
2886 21-08-2020 01:03:18 23.1 C 29 %
2887 21-08-2020 01:13:18 23.4 C 29 %
2888 21-08-2020 01:23:17 24.3 C 27 %
2889 21-08-2020 01:33:17 23.5 C 29 %
2890 21-08-2020 01:43:17 23 C 29 %
2891 21-08-2020 01:53:18 23.4 C 29 %
2892 21-08-2020 02:03:18 23.6 C 29 %
2893 21-08-2020 02:13:18 23.8 C 28 %
2894 21-08-2020 02:23:17 23.7 C 28 %
2895 21-08-2020 02:33:17 24.4 C 26 %
2896 21-08-2020 02:43:17 25.2 C 26 %
2897 21-08-2020 02:53:18 24.7 C 26 %
2898 21-08-2020 03:03:17 24.9 C 26 %
2899 21-08-2020 03:13:17 25.1 C 26 %
2900 21-08-2020 03:23:17 25.3 C 25 %
Sensor: Nr:Datum:Temp:Feuchte:
Aussen-T/F 2901 21-08-2020 03:33:17 25.1 C 25 %
2902 21-08-2020 03:43:17 24.6 C 26 %
2903 21-08-2020 03:53:17 24.8 C 26 %
2904 21-08-2020 04:03:17 24.6 C 26 %
2905 21-08-2020 04:13:18 24.4 C 26 %
2906 21-08-2020 04:23:18 24.8 C 26 %
2907 21-08-2020 04:33:18 23.9 C 28 %
2908 21-08-2020 04:43:18 23.8 C 27 %
2909 21-08-2020 04:53:17 23.5 C 29 %
2910 21-08-2020 05:03:17 23.1 C 29 %
2911 21-08-2020 05:13:17 23 C 29 %
2912 21-08-2020 05:23:17 22.9 C 30 %
2913 21-08-2020 05:33:17 22.6 C 30 %
2914 21-08-2020 05:43:17 22.6 C 30 %
2915 21-08-2020 05:53:17 22.4 C 31 %
2916 21-08-2020 06:03:18 22.5 C 30 %
2917 21-08-2020 06:13:18 22.4 C 31 %
2918 21-08-2020 06:23:17 22.3 C 31 %
2919 21-08-2020 06:33:17 22.4 C 31 %
2920 21-08-2020 06:43:17 22.5 C 30 %
2921 21-08-2020 06:53:17 22.7 C 30 %
2922 21-08-2020 07:03:17 22.6 C 30 %
2923 21-08-2020 07:13:17 22.9 C 30 %
2924 21-08-2020 07:23:17 22.7 C 30 %
2925 21-08-2020 07:33:17 22.9 C 30 %
Sensor: Nr:Datum:Temp:Feuchte:
Aussen-T/F 2926 21-08-2020 07:43:17 22.9 C 30 %
2927 21-08-2020 07:53:17 23.4 C 29 %
2928 21-08-2020 08:03:17 23.8 C 29 %
2929 21-08-2020 08:13:17 24 C 28 %
2930 21-08-2020 08:23:17 24.2 C 28 %
2931 21-08-2020 08:33:17 24.7 C 28 %
2932 21-08-2020 08:43:17 24.7 C 28 %
2933 21-08-2020 08:53:17 24.8 C 28 %
2934 21-08-2020 09:03:17 25.3 C 27 %
2935 21-08-2020 09:13:17 26.4 C 26 %
2936 21-08-2020 09:23:17 25.9 C 27 %
2937 21-08-2020 09:33:18 25.6 C 27 %
2938 21-08-2020 09:43:18 25.2 C 27 %
2939 21-08-2020 09:53:17 25.2 C 27 %
2940 21-08-2020 10:03:18 26 C 26 %
2941 21-08-2020 10:13:18 26.8 C 24 %
2942 21-08-2020 10:23:17 26.5 C 25 %
2943 21-08-2020 10:33:18 26.6 C 25 %
2944 21-08-2020 10:43:18 27 C 24 %
2945 21-08-2020 10:53:18 27.3 C 24 %
2946 21-08-2020 11:03:17 27.6 C 23 %
2947 21-08-2020 11:13:17 27.9 C 23 %
2948 21-08-2020 11:23:17 28 C 22 %
2949 21-08-2020 11:33:17 27.3 C 23 %
2950 21-08-2020 11:43:17 26.9 C 23 %
Sensor: Nr:Datum:Temp:Feuchte:
Aussen-T/F 2951 21-08-2020 11:53:17 26.6 C 24 %
2952 21-08-2020 12:03:18 26.9 C 23 %
2953 21-08-2020 12:13:18 27.4 C 23 %
2954 21-08-2020 12:23:18 27.6 C 24 %
2955 21-08-2020 12:33:17 27.8 C 23 %
2956 21-08-2020 12:43:17 27.8 C 23 %
2957 21-08-2020 12:53:17 28.6 C 22 %
2958 21-08-2020 13:03:18 29.4 C 21 %
2959 21-08-2020 13:13:18 29.5 C 21 %
2960 21-08-2020 13:23:17 29.3 C 21 %
2961 21-08-2020 13:33:17 29.2 C 21 %
2962 21-08-2020 13:43:17 29.5 C 21 %
2963 21-08-2020 13:53:17 28.9 C 22 %
2964 21-08-2020 14:03:17 28.1 C 22 %
2965 21-08-2020 14:13:17 28 C 22 %
2966 21-08-2020 14:23:17 28.1 C 24 %
2967 21-08-2020 14:33:17 28.3 C 23 %
2968 21-08-2020 14:43:17 29 C 22 %
2969 21-08-2020 14:53:17 30.1 C 21 %
2970 21-08-2020 15:03:17 30.8 C 21 %
2971 21-08-2020 15:13:17 32.1 C 20 %
2972 21-08-2020 15:23:17 32.4 C 20 %
2973 21-08-2020 15:33:17 30.8 C 20 %
2974 21-08-2020 15:43:17 30.6 C 20 %
2975 21-08-2020 15:53:17 30.1 C 20 %
Sensor: Nr:Datum:Temp:Feuchte:
Aussen-T/F 2976 21-08-2020 16:03:17 29.8 C 21 %
2977 21-08-2020 16:13:18 29.7 C 21 %
2978 21-08-2020 16:23:18 29 C 21 %
2979 21-08-2020 16:33:17 28.4 C 23 %
2980 21-08-2020 16:43:18 28.7 C 22 %
2981 21-08-2020 16:53:17 27.6 C 25 %
2982 21-08-2020 17:03:17 27.5 C 25 %
2983 21-08-2020 17:13:17 27.3 C 25 %
2984 21-08-2020 17:23:17 27.3 C 26 %
2985 21-08-2020 17:33:17 27.3 C 26 %
2986 21-08-2020 17:43:17 27.9 C 25 %
2987 21-08-2020 17:53:17 27.9 C 26 %
2988 21-08-2020 18:03:18 28.2 C 25 %
2989 21-08-2020 18:13:18 28.3 C 23 %
2990 21-08-2020 18:23:17 28.2 C 22 %
2991 21-08-2020 18:33:18 29 C 21 %
2992 21-08-2020 18:43:18 29.2 C 21 %
2993 21-08-2020 18:53:17 29.2 C 21 %
2994 21-08-2020 19:03:17 29 C 21 %
2995 21-08-2020 19:13:18 28.3 C 22 %
2996 21-08-2020 19:24:17 27.7 C 23 %
2997 21-08-2020 19:33:17 27 C 23 %
2998 21-08-2020 19:43:18 26.3 C 25 %
2999 21-08-2020 19:54:17 26.4 C 25 %
3000 21-08-2020 20:03:18 26.5 C 25 %
Sensor: Nr:Datum:Temp:Feuchte:
Aussen-T/F 3001 21-08-2020 20:13:18 26 C 25 %
3002 21-08-2020 20:23:17 25.4 C 26 %
3003 21-08-2020 20:33:17 24.9 C 27 %
3004 21-08-2020 20:43:17 24.6 C 27 %
3005 21-08-2020 20:53:18 24.6 C 27 %
3006 21-08-2020 21:03:18 24.7 C 27 %
3007 21-08-2020 21:13:18 24.7 C 26 %
3008 21-08-2020 21:23:18 24.4 C 26 %
3009 21-08-2020 21:33:17 24.3 C 27 %
3010 21-08-2020 21:43:17 24.5 C 26 %
3011 21-08-2020 21:53:17 23.8 C 28 %
3012 21-08-2020 22:03:17 23.7 C 28 %
3013 21-08-2020 22:13:17 23.5 C 28 %
3014 21-08-2020 22:23:17 23.2 C 29 %
3015 21-08-2020 22:34:17 23.2 C 29 %
3016 21-08-2020 22:44:17 22.9 C 31 %
3017 21-08-2020 22:53:18 22.4 C 31 %
3018 21-08-2020 23:03:18 22.3 C 31 %
3019 21-08-2020 23:13:18 22.3 C 31 %
3020 21-08-2020 23:24:17 22.2 C 32 %
3021 21-08-2020 23:33:18 22 C 32 %
3022 21-08-2020 23:43:18 21.9 C 32 %
3023 21-08-2020 23:53:18 21.9 C 33 %
3024 22-08-2020 00:04:17 21.9 C 33 %
3025 22-08-2020 00:14:17 21.9 C 33 %
Sensor: Nr:Datum:Temp:Feuchte:
Aussen-T/F 3026 22-08-2020 00:24:17 22.2 C 32 %
3027 22-08-2020 00:33:18 22 C 32 %
3028 22-08-2020 00:43:18 21.9 C 33 %
3029 22-08-2020 00:53:17 21.8 C 33 %
3030 22-08-2020 01:03:18 21.7 C 33 %
3031 22-08-2020 01:13:18 21.9 C 33 %
3032 22-08-2020 01:23:17 21.9 C 33 %
3033 22-08-2020 01:33:18 22.1 C 31 %
3034 22-08-2020 01:43:18 21.9 C 32 %
3035 22-08-2020 01:53:17 21.8 C 33 %
3036 22-08-2020 02:03:18 21.7 C 33 %
3037 22-08-2020 02:13:18 21.6 C 33 %
3038 22-08-2020 02:23:18 21.4 C 33 %
3039 22-08-2020 02:34:17 21.4 C 33 %
3040 22-08-2020 02:43:18 21.7 C 33 %
3041 22-08-2020 02:54:17 21.7 C 33 %
3042 22-08-2020 03:04:18 21.7 C 33 %
3043 22-08-2020 03:14:18 21.5 C 33 %
3044 22-08-2020 03:24:17 21.3 C 33 %
3045 22-08-2020 03:34:17 21.1 C 33 %
3046 22-08-2020 03:44:17 21.1 C 33 %
3047 22-08-2020 03:54:17 20.9 C 34 %
3048 22-08-2020 04:04:17 20.7 C 34 %
3049 22-08-2020 04:14:17 20.8 C 34 %
3050 22-08-2020 04:24:17 20.6 C 34 %
Sensor: Nr:Datum:Temp:Feuchte:
Aussen-T/F 3051 22-08-2020 04:34:17 20.6 C 34 %
3052 22-08-2020 04:44:17 20.7 C 34 %
3053 22-08-2020 04:54:17 20.7 C 34 %
3054 22-08-2020 05:04:17 20.5 C 34 %
3055 22-08-2020 05:14:17 20.6 C 35 %
3056 22-08-2020 05:24:17 20.5 C 35 %
3057 22-08-2020 05:34:17 20.6 C 35 %
3058 22-08-2020 05:44:17 21.4 C 33 %
3059 22-08-2020 05:54:17 21.5 C 32 %
3060 22-08-2020 06:04:17 21.3 C 33 %
3061 22-08-2020 06:14:17 21.3 C 33 %
3062 22-08-2020 06:24:17 21.2 C 33 %
3063 22-08-2020 06:34:17 21.6 C 32 %
3064 22-08-2020 06:44:17 21.6 C 32 %
3065 22-08-2020 06:54:18 21.7 C 32 %
3066 22-08-2020 07:04:17 21.9 C 32 %
3067 22-08-2020 07:14:17 21.8 C 32 %
3068 22-08-2020 07:24:17 21.8 C 32 %
3069 22-08-2020 07:34:17 21.8 C 32 %
3070 22-08-2020 07:44:17 21.7 C 32 %
3071 22-08-2020 07:54:17 21.8 C 32 %
3072 22-08-2020 08:04:17 21.9 C 32 %
3073 22-08-2020 08:14:17 21.8 C 32 %
3074 22-08-2020 08:24:17 21.8 C 32 %
3075 22-08-2020 08:34:17 21.9 C 31 %
Sensor: Nr:Datum:Temp:Feuchte:
Aussen-T/F 3076 22-08-2020 08:44:18 21.9 C 31 %
3077 22-08-2020 08:54:16 22 C 30 %
3078 22-08-2020 09:04:17 22.1 C 29 %
3079 22-08-2020 09:14:17 22.3 C 29 %
3080 22-08-2020 09:24:16 22.3 C 28 %
3081 22-08-2020 09:34:16 22.3 C 27 %
3082 22-08-2020 09:44:16 22.4 C 27 %
3083 22-08-2020 09:54:17 22.1 C 27 %
3084 22-08-2020 10:04:17 22.3 C 27 %
3085 22-08-2020 10:14:17 22.5 C 27 %
3086 22-08-2020 10:24:16 22.4 C 26 %
3087 22-08-2020 10:34:16 22.3 C 26 %
3088 22-08-2020 10:44:16 22.2 C 26 %
3089 22-08-2020 10:54:16 22.6 C 26 %
3090 22-08-2020 11:04:17 23 C 25 %
3091 22-08-2020 11:14:17 23.1 C 25 %
3092 22-08-2020 11:24:17 24.2 C 23 %
3093 22-08-2020 11:34:16 24 C 23 %
3094 22-08-2020 11:44:16 23.7 C 24 %
3095 22-08-2020 11:54:17 24.3 C 22 %
3096 22-08-2020 12:04:16 24.4 C 22 %
3097 22-08-2020 12:14:16 23.6 C 23 %
3098 22-08-2020 12:24:16 24 C 22 %
3099 22-08-2020 12:34:17 23.9 C 23 %
3100 22-08-2020 12:44:17 23.9 C 23 %
Sensor: Nr:Datum:Temp:Feuchte:
Aussen-T/F 3101 22-08-2020 12:54:16 24.5 C 22 %
3102 22-08-2020 13:04:16 24.5 C 22 %
3103 22-08-2020 13:14:16 24.5 C 22 %
3104 22-08-2020 13:24:16 24.6 C 22 %
3105 22-08-2020 13:34:17 25.1 C 21 %
3106 22-08-2020 13:44:17 25.2 C 21 %
3107 22-08-2020 13:54:16 26 C 20 %
3108 22-08-2020 14:04:16 26.6 C 20 %
3109 22-08-2020 14:14:16 25.9 C 20 %
3110 22-08-2020 14:24:17 26.8 C 20 %
3111 22-08-2020 14:34:17 28.5 C 20 %
3112 22-08-2020 14:44:17 27.9 C 20 %
3113 22-08-2020 14:54:16 29.5 C 20 %
3114 22-08-2020 15:04:16 27.1 C 20 %
3115 22-08-2020 15:14:16 29.6 C 20 %
3116 22-08-2020 15:24:17 26.8 C 20 %
3117 22-08-2020 15:34:17 27.1 C 20 %
3118 22-08-2020 15:44:17 29.1 C 20 %
3119 22-08-2020 15:54:17 28.3 C 20 %
3120 22-08-2020 16:04:16 28.8 C 20 %
3121 22-08-2020 16:14:16 30.2 C 20 %
3122 22-08-2020 16:24:17 29.6 C 20 %
3123 22-08-2020 16:34:17 30.2 C 20 %
3124 22-08-2020 16:44:17 30 C 20 %
3125 22-08-2020 16:54:16 30.7 C 20 %
Sensor: Nr:Datum:Temp:Feuchte:
Aussen-T/F 3126 22-08-2020 17:04:16 29.2 C 20 %
3127 22-08-2020 17:14:16 29.1 C 20 %
3128 22-08-2020 17:24:16 26.9 C 20 %
3129 22-08-2020 17:34:16 26.7 C 20 %
3130 22-08-2020 17:44:16 26.1 C 20 %
3131 22-08-2020 17:54:16 26.8 C 20 %
3132 22-08-2020 18:04:17 26.1 C 20 %
3133 22-08-2020 18:14:17 25.5 C 20 %
3134 22-08-2020 18:24:16 25.5 C 20 %
3135 22-08-2020 18:34:17 25.2 C 20 %
3136 22-08-2020 18:44:17 25.5 C 20 %
3137 22-08-2020 18:54:16 25.6 C 20 %
3138 22-08-2020 19:04:16 24.9 C 20 %
3139 22-08-2020 19:14:16 24.6 C 20 %
3140 22-08-2020 19:24:16 24.4 C 20 %
3141 22-08-2020 19:34:16 24.1 C 20 %
3142 22-08-2020 19:44:16 24.2 C 20 %
3143 22-08-2020 19:54:16 24 C 20 %
3144 22-08-2020 20:04:16 23.5 C 20 %
3145 22-08-2020 20:14:16 22.4 C 22 %
3146 22-08-2020 20:24:16 22.4 C 22 %
3147 22-08-2020 20:34:16 22.1 C 22 %
3148 22-08-2020 20:44:16 21.7 C 24 %
3149 22-08-2020 20:54:16 21.2 C 25 %
3150 22-08-2020 21:04:17 20.9 C 25 %
Sensor: Nr:Datum:Temp:Feuchte:
Aussen-T/F 3151 22-08-2020 21:14:17 20.5 C 26 %
3152 22-08-2020 21:24:16 20.4 C 26 %
3153 22-08-2020 21:34:16 20.5 C 26 %
3154 22-08-2020 21:44:16 20.4 C 26 %
3155 22-08-2020 21:54:16 20.2 C 27 %
3156 22-08-2020 22:04:16 20.3 C 27 %
3157 22-08-2020 22:14:16 20.1 C 28 %
3158 22-08-2020 22:24:16 20.1 C 27 %
3159 22-08-2020 22:34:16 19.8 C 27 %
3160 22-08-2020 22:44:16 19.4 C 28 %
3161 22-08-2020 22:54:16 19 C 28 %
3162 22-08-2020 23:04:16 18.7 C 29 %
3163 22-08-2020 23:14:16 18.8 C 29 %
3164 22-08-2020 23:24:16 19 C 28 %
3165 22-08-2020 23:34:15 19.1 C 29 %
3166 22-08-2020 23:44:15 18.7 C 30 %
3167 22-08-2020 23:54:16 18.9 C 30 %
3168 23-08-2020 00:04:16 19.1 C 29 %
3169 23-08-2020 00:14:17 19.6 C 28 %
3170 23-08-2020 00:24:16 19.7 C 28 %
3171 23-08-2020 00:34:16 19.7 C 28 %
3172 23-08-2020 00:44:16 19.6 C 28 %
3173 23-08-2020 00:54:16 19.4 C 29 %
3174 23-08-2020 01:04:16 19.1 C 30 %
3175 23-08-2020 01:14:17 18.9 C 31 %
Sensor: Nr:Datum:Temp:Feuchte:
Aussen-T/F 3176 23-08-2020 01:24:16 19 C 30 %
3177 23-08-2020 01:34:16 18.6 C 31 %
3178 23-08-2020 01:44:16 18.7 C 31 %
3179 23-08-2020 01:54:16 18.7 C 31 %
3180 23-08-2020 02:04:15 18.6 C 31 %
3181 23-08-2020 02:14:15 18.3 C 31 %
3182 23-08-2020 02:24:15 18.4 C 32 %
3183 23-08-2020 02:34:16 18.5 C 32 %
3184 23-08-2020 02:44:17 18.4 C 32 %
3185 23-08-2020 02:54:17 18.1 C 33 %
3186 23-08-2020 03:04:18 17.8 C 33 %
3187 23-08-2020 03:14:18 17.4 C 33 %
3188 23-08-2020 03:24:17 17.4 C 33 %
3189 23-08-2020 03:34:18 17.3 C 34 %
3190 23-08-2020 03:44:18 17.3 C 34 %
3191 23-08-2020 03:54:17 17.4 C 34 %
3192 23-08-2020 04:04:18 17.4 C 34 %
3193 23-08-2020 04:14:18 17.5 C 33 %
3194 23-08-2020 04:24:17 17.3 C 34 %
3195 23-08-2020 04:34:17 17.4 C 33 %
3196 23-08-2020 04:44:17 17.2 C 34 %
3197 23-08-2020 04:54:17 17.3 C 34 %
3198 23-08-2020 05:04:18 17.4 C 33 %
3199 23-08-2020 05:14:18 17.8 C 32 %
3200 23-08-2020 05:24:17 17.8 C 32 %
Sensor: Nr:Datum:Temp:Feuchte:
Aussen-T/F 3201 23-08-2020 05:34:18 17.6 C 33 %
3202 23-08-2020 05:44:18 17.4 C 33 %
3203 23-08-2020 05:54:17 17.4 C 33 %
3204 23-08-2020 06:04:17 17.3 C 33 %
3205 23-08-2020 06:14:17 17.2 C 33 %
3206 23-08-2020 06:24:18 17 C 33 %
3207 23-08-2020 06:34:18 16.9 C 34 %
3208 23-08-2020 06:44:18 16.7 C 34 %
3209 23-08-2020 06:54:18 16.4 C 34 %
3210 23-08-2020 07:04:17 16.4 C 34 %
3211 23-08-2020 07:14:17 16.4 C 34 %
3212 23-08-2020 07:24:17 17 C 33 %
3213 23-08-2020 07:34:17 17.4 C 34 %
3214 23-08-2020 07:44:17 17.8 C 34 %
3215 23-08-2020 07:54:17 18 C 33 %
3216 23-08-2020 08:04:18 18.2 C 32 %
3217 23-08-2020 08:14:18 18.7 C 32 %
3218 23-08-2020 08:24:17 19 C 31 %
3219 23-08-2020 08:34:17 19.3 C 31 %
3220 23-08-2020 08:44:17 19.4 C 31 %
3221 23-08-2020 08:54:17 19.6 C 31 %
3222 23-08-2020 09:04:17 19.4 C 31 %
3223 23-08-2020 09:14:17 19.3 C 31 %
3224 23-08-2020 09:24:17 19.3 C 31 %
3225 23-08-2020 09:34:18 20.2 C 30 %
Sensor: Nr:Datum:Temp:Feuchte:
Aussen-T/F 3226 23-08-2020 09:44:18 20.3 C 29 %
3227 23-08-2020 09:54:17 20.5 C 29 %
3228 23-08-2020 10:04:17 20.7 C 29 %
3229 23-08-2020 10:14:17 20.7 C 29 %
3230 23-08-2020 10:24:17 21.2 C 27 %
3231 23-08-2020 10:34:17 21.1 C 26 %
3232 23-08-2020 10:44:17 20.6 C 27 %
3233 23-08-2020 10:54:17 20.4 C 26 %
3234 23-08-2020 11:04:17 21.9 C 25 %
3235 23-08-2020 11:14:17 21.7 C 25 %
3236 23-08-2020 11:24:17 21.3 C 25 %
3237 23-08-2020 11:34:18 21.1 C 25 %
3238 23-08-2020 11:44:18 21.6 C 25 %
3239 23-08-2020 11:54:17 21.3 C 25 %
3240 23-08-2020 12:04:17 21.6 C 25 %
3241 23-08-2020 12:14:17 21.6 C 25 %
3242 23-08-2020 12:24:17 21.3 C 25 %
3243 23-08-2020 12:34:17 21.6 C 25 %
3244 23-08-2020 12:44:17 22.3 C 24 %
3245 23-08-2020 12:54:17 22.1 C 23 %
3246 23-08-2020 13:04:18 21.1 C 23 %
3247 23-08-2020 13:14:18 21.6 C 24 %
3248 23-08-2020 13:24:17 22.7 C 22 %
3249 23-08-2020 13:34:17 21.8 C 22 %
3250 23-08-2020 13:44:17 22.3 C 21 %
Sensor: Nr:Datum:Temp:Feuchte:
Aussen-T/F 3251 23-08-2020 13:54:18 23.2 C 20 %
3252 23-08-2020 14:04:18 24 C 20 %
3253 23-08-2020 14:14:18 22.4 C 20 %
3254 23-08-2020 14:24:17 23.6 C 20 %
3255 23-08-2020 14:34:18 22.9 C 20 %
3256 23-08-2020 14:44:18 23 C 20 %
3257 23-08-2020 14:54:18 22.9 C 20 %
3258 23-08-2020 15:04:17 23.3 C 20 %
3259 23-08-2020 15:14:17 22.9 C 20 %
3260 23-08-2020 15:24:18 23 C 20 %
3261 23-08-2020 15:34:17 23.4 C 20 %
3262 23-08-2020 15:44:17 22.9 C 20 %
3263 23-08-2020 15:54:17 22.8 C 20 %
3264 23-08-2020 16:04:18 24.4 C 20 %
3265 23-08-2020 16:14:18 25.9 C 20 %
3266 23-08-2020 16:24:18 23 C 20 %
3267 23-08-2020 16:34:18 22.5 C 20 %
3268 23-08-2020 16:44:18 22.3 C 20 %
3269 23-08-2020 16:54:17 22.1 C 20 %
3270 23-08-2020 17:04:17 22.1 C 20 %
3271 23-08-2020 17:14:18 22.8 C 20 %
3272 23-08-2020 17:24:17 23.1 C 20 %
3273 23-08-2020 17:34:17 22.9 C 20 %
3274 23-08-2020 17:44:18 22.7 C 20 %
3275 23-08-2020 17:54:17 22 C 21 %
Sensor: Nr:Datum:Temp:Feuchte:
Aussen-T/F 3276 23-08-2020 18:04:17 21.5 C 22 %
3277 23-08-2020 18:14:17 21.3 C 22 %
3278 23-08-2020 18:24:17 21 C 23 %
3279 23-08-2020 18:34:18 20.4 C 25 %
3280 23-08-2020 18:44:18 19.8 C 26 %
3281 23-08-2020 18:54:17 19.8 C 26 %
3282 23-08-2020 19:04:18 19.4 C 27 %
3283 23-08-2020 19:14:18 19 C 28 %
3284 23-08-2020 19:24:17 18.9 C 29 %
3285 23-08-2020 19:34:17 19 C 29 %
3286 23-08-2020 19:44:17 18.7 C 30 %
3287 23-08-2020 19:54:17 18.7 C 30 %
3288 23-08-2020 20:04:18 18.5 C 30 %
3289 23-08-2020 20:14:18 18.4 C 30 %
3290 23-08-2020 20:24:17 18.3 C 30 %
3291 23-08-2020 20:34:17 18.4 C 30 %
3292 23-08-2020 20:44:18 18.2 C 30 %
3293 23-08-2020 20:54:17 18.2 C 30 %
3294 23-08-2020 21:04:18 18.3 C 30 %
3295 23-08-2020 21:14:18 18 C 30 %
3296 23-08-2020 21:24:17 18 C 30 %
3297 23-08-2020 21:34:17 17.8 C 31 %
3298 23-08-2020 21:44:17 17.9 C 31 %
3299 23-08-2020 21:54:17 17.8 C 31 %
3300 23-08-2020 22:04:18 17.8 C 31 %
Sensor: Nr:Datum:Temp:Feuchte:
Aussen-T/F 3301 23-08-2020 22:14:18 17.7 C 31 %
3302 23-08-2020 22:24:17 17.5 C 31 %
3303 23-08-2020 22:34:18 17.4 C 31 %
3304 23-08-2020 22:44:18 17.3 C 31 %
3305 23-08-2020 22:54:17 17.2 C 31 %
3306 23-08-2020 23:04:18 17.2 C 31 %
3307 23-08-2020 23:14:18 17 C 31 %
3308 23-08-2020 23:24:17 16.9 C 32 %
3309 23-08-2020 23:34:18 16.6 C 33 %
3310 23-08-2020 23:44:18 16.9 C 32 %
3311 23-08-2020 23:54:17 17.1 C 32 %
3312 24-08-2020 00:04:17 17.2 C 32 %
3313 24-08-2020 00:14:17 17.1 C 32 %
3314 24-08-2020 00:24:17 17.1 C 32 %
3315 24-08-2020 00:34:17 17 C 32 %
3316 24-08-2020 00:44:17 16.6 C 32 %
3317 24-08-2020 00:54:17 16.2 C 33 %
3318 24-08-2020 01:04:17 16.3 C 33 %
3319 24-08-2020 01:14:17 16.5 C 33 %
3320 24-08-2020 01:24:17 16.6 C 33 %
3321 24-08-2020 01:34:17 16.5 C 33 %
3322 24-08-2020 01:44:17 16.4 C 33 %
3323 24-08-2020 01:54:17 16.6 C 33 %
3324 24-08-2020 02:04:17 16.6 C 33 %
3325 24-08-2020 02:14:17 16.7 C 33 %
Sensor: Nr:Datum:Temp:Feuchte:
Aussen-T/F 3326 24-08-2020 02:24:17 16.7 C 33 %
3327 24-08-2020 02:34:17 16.7 C 33 %
3328 24-08-2020 02:44:17 16.8 C 33 %
3329 24-08-2020 02:54:17 16.7 C 33 %
3330 24-08-2020 03:04:17 16.4 C 33 %
3331 24-08-2020 03:14:17 16.3 C 34 %
3332 24-08-2020 03:24:17 16.3 C 34 %
3333 24-08-2020 03:34:17 16.4 C 34 %
3334 24-08-2020 03:44:17 16.4 C 34 %
3335 24-08-2020 03:54:17 16.1 C 34 %
3336 24-08-2020 04:04:17 16.4 C 34 %
3337 24-08-2020 04:14:17 16.5 C 33 %
3338 24-08-2020 04:24:17 16.4 C 33 %
3339 24-08-2020 04:34:17 16.5 C 33 %
3340 24-08-2020 04:44:17 16.4 C 33 %
3341 24-08-2020 04:54:17 16.4 C 34 %
3342 24-08-2020 05:04:17 16.3 C 34 %
3343 24-08-2020 05:14:17 15.8 C 35 %
3344 24-08-2020 05:24:17 16.1 C 34 %
3345 24-08-2020 05:34:17 15.7 C 35 %
3346 24-08-2020 05:44:17 15.9 C 35 %
3347 24-08-2020 05:54:17 15.8 C 35 %
3348 24-08-2020 06:04:18 15.8 C 35 %
3349 24-08-2020 06:14:18 15.8 C 35 %
3350 24-08-2020 06:24:17 15.8 C 35 %
Sensor: Nr:Datum:Temp:Feuchte:
Aussen-T/F 3351 24-08-2020 06:34:17 15.6 C 35 %
3352 24-08-2020 06:44:17 15.2 C 35 %
3353 24-08-2020 06:54:17 14.7 C 36 %
3354 24-08-2020 07:04:18 14.5 C 36 %
3355 24-08-2020 07:14:18 14.7 C 36 %
3356 24-08-2020 07:24:17 14.5 C 36 %
3357 24-08-2020 07:34:18 14.4 C 36 %
3358 24-08-2020 07:44:18 14.2 C 37 %
3359 24-08-2020 07:54:17 14.3 C 36 %
3360 24-08-2020 08:04:18 14.5 C 36 %
3361 24-08-2020 08:14:18 14.5 C 36 %
3362 24-08-2020 08:24:18 15.2 C 35 %
3363 24-08-2020 08:34:18 15.3 C 34 %
3364 24-08-2020 08:44:18 15.4 C 34 %
3365 24-08-2020 08:54:18 15.9 C 33 %
3366 24-08-2020 09:04:17 16.5 C 32 %
3367 24-08-2020 09:14:17 16.4 C 32 %
3368 24-08-2020 09:24:17 16.6 C 32 %
3369 24-08-2020 09:34:17 16.8 C 32 %
3370 24-08-2020 09:44:17 17 C 31 %
3371 24-08-2020 09:54:17 17.3 C 31 %
3372 24-08-2020 10:04:18 17.7 C 31 %
3373 24-08-2020 10:14:18 18.3 C 30 %
3374 24-08-2020 10:24:17 18.5 C 30 %
3375 24-08-2020 10:34:17 18.5 C 30 %
Sensor: Nr:Datum:Temp:Feuchte:
Aussen-T/F 3376 24-08-2020 10:44:17 19 C 28 %
3377 24-08-2020 10:54:17 18.9 C 29 %
3378 24-08-2020 11:04:18 19.6 C 28 %
3379 24-08-2020 11:14:18 19.6 C 27 %
3380 24-08-2020 11:24:17 19.5 C 28 %
3381 24-08-2020 11:34:17 19.7 C 28 %
3382 24-08-2020 11:44:17 19.9 C 27 %
3383 24-08-2020 11:54:17 19.5 C 27 %
3384 24-08-2020 12:04:18 20.4 C 27 %
3385 24-08-2020 12:14:18 20.6 C 27 %
3386 24-08-2020 12:24:18 19.8 C 27 %
3387 24-08-2020 12:34:17 19.4 C 27 %
3388 24-08-2020 12:44:17 20.8 C 27 %
3389 24-08-2020 12:54:17 21 C 26 %
3390 24-08-2020 13:04:18 21.6 C 25 %
3391 24-08-2020 13:14:18 20.5 C 26 %
3392 24-08-2020 13:24:17 20.4 C 26 %
3393 24-08-2020 13:34:17 19.9 C 27 %
3394 24-08-2020 13:44:17 18.4 C 29 %
3395 24-08-2020 13:54:17 20.2 C 27 %
3396 24-08-2020 14:04:17 22.2 C 25 %
3397 24-08-2020 14:14:17 21.2 C 25 %
3398 24-08-2020 14:24:18 20.7 C 26 %
3399 24-08-2020 14:34:18 21.2 C 25 %
3400 24-08-2020 14:44:18 21.9 C 25 %
Sensor: Nr:Datum:Temp:Feuchte:
Aussen-T/F 3401 24-08-2020 14:54:17 22 C 24 %
3402 24-08-2020 15:04:17 20.9 C 25 %
3403 24-08-2020 15:14:17 23 C 21 %
3404 24-08-2020 15:24:17 22.5 C 22 %
3405 24-08-2020 15:34:17 25.7 C 20 %
3406 24-08-2020 15:44:18 23.9 C 20 %
3407 24-08-2020 15:54:18 23.2 C 20 %
3408 24-08-2020 16:04:17 24.5 C 20 %
3409 24-08-2020 16:14:17 22 C 21 %
3410 24-08-2020 16:24:18 23.7 C 20 %
3411 24-08-2020 16:34:17 23.3 C 20 %
3412 24-08-2020 16:44:17 23.7 C 20 %
3413 24-08-2020 16:54:17 22.6 C 20 %
3414 24-08-2020 17:04:17 22.8 C 20 %
3415 24-08-2020 17:14:17 23.4 C 20 %
3416 24-08-2020 17:24:17 24.9 C 20 %
3417 24-08-2020 17:34:17 25.9 C 20 %
3418 24-08-2020 17:44:17 24.7 C 20 %
3419 24-08-2020 17:54:17 24.7 C 20 %
3420 24-08-2020 18:04:17 23.1 C 20 %
3421 24-08-2020 18:14:17 23.1 C 20 %
3422 24-08-2020 18:24:18 22.3 C 20 %
3423 24-08-2020 18:34:18 22 C 20 %
3424 24-08-2020 18:44:18 21.6 C 21 %
3425 24-08-2020 18:54:17 22.2 C 20 %
Sensor: Nr:Datum:Temp:Feuchte:
Aussen-T/F 3426 24-08-2020 19:04:17 21.4 C 22 %
3427 24-08-2020 19:14:17 20.7 C 23 %
3428 24-08-2020 19:24:17 20.6 C 24 %
3429 24-08-2020 19:34:17 20.8 C 23 %
3430 24-08-2020 19:44:17 20.8 C 23 %
3431 24-08-2020 19:54:18 20.8 C 23 %
3432 24-08-2020 20:04:17 20.7 C 23 %
3433 24-08-2020 20:14:18 20.6 C 25 %
3434 24-08-2020 20:24:17 20.4 C 24 %
3435 24-08-2020 20:34:17 19.7 C 26 %
3436 24-08-2020 20:44:17 19.1 C 27 %
3437 24-08-2020 20:54:18 18.8 C 28 %
3438 24-08-2020 21:04:17 18.5 C 29 %
3439 24-08-2020 21:14:17 18.3 C 29 %
3440 24-08-2020 21:24:17 18 C 30 %
3441 24-08-2020 21:34:17 18.1 C 30 %
3442 24-08-2020 21:44:17 17.9 C 31 %
3443 24-08-2020 21:54:17 17.3 C 31 %
3444 24-08-2020 22:04:17 17.1 C 31 %
3445 24-08-2020 22:14:17 17.2 C 31 %
3446 24-08-2020 22:24:17 17.1 C 31 %
3447 24-08-2020 22:34:17 16.8 C 32 %
3448 24-08-2020 22:44:17 17 C 31 %
3449 24-08-2020 22:54:18 17.1 C 31 %
3450 24-08-2020 23:04:17 17.2 C 31 %
Sensor: Nr:Datum:Temp:Feuchte:
Aussen-T/F 3451 24-08-2020 23:14:17 17.5 C 31 %
3452 24-08-2020 23:24:17 17.6 C 31 %
3453 24-08-2020 23:34:17 17.4 C 31 %
3454 24-08-2020 23:44:18 17.2 C 32 %
3455 24-08-2020 23:54:17 17.1 C 31 %
3456 25-08-2020 00:04:18 17.1 C 31 %
3457 25-08-2020 00:14:18 17 C 32 %
3458 25-08-2020 00:24:17 17 C 32 %
3459 25-08-2020 00:34:18 17.3 C 31 %
3460 25-08-2020 00:44:18 17.4 C 31 %
3461 25-08-2020 00:54:18 17.6 C 31 %
3462 25-08-2020 01:04:17 17.7 C 31 %
3463 25-08-2020 01:14:17 17.4 C 31 %
3464 25-08-2020 01:24:17 17.2 C 32 %
3465 25-08-2020 01:34:18 17.1 C 32 %
3466 25-08-2020 01:44:18 17 C 32 %
3467 25-08-2020 01:54:17 16.9 C 32 %
3468 25-08-2020 02:04:18 16.9 C 32 %
3469 25-08-2020 02:14:18 16.9 C 32 %
3470 25-08-2020 02:24:17 16.1 C 35 %
3471 25-08-2020 02:34:18 16.2 C 35 %
3472 25-08-2020 02:44:18 16.2 C 36 %
3473 25-08-2020 02:54:17 16.1 C 36 %
3474 25-08-2020 03:04:17 16.1 C 35 %
3475 25-08-2020 03:14:17 16 C 35 %
Sensor: Nr:Datum:Temp:Feuchte:
Aussen-T/F 3476 25-08-2020 03:24:17 15.9 C 36 %
3477 25-08-2020 03:34:18 15.8 C 36 %
3478 25-08-2020 03:44:18 15.4 C 36 %
3479 25-08-2020 03:54:18 15.2 C 36 %
3480 25-08-2020 04:04:17 14.8 C 36 %
3481 25-08-2020 04:14:17 14.5 C 37 %
3482 25-08-2020 04:24:17 14.4 C 37 %
3483 25-08-2020 04:34:17 14.2 C 37 %
3484 25-08-2020 04:44:17 13.8 C 38 %
3485 25-08-2020 04:54:17 13.7 C 39 %
3486 25-08-2020 05:04:18 13.2 C 40 %
3487 25-08-2020 05:14:18 13.4 C 40 %
3488 25-08-2020 05:24:17 13.3 C 40 %
3489 25-08-2020 05:34:18 12.9 C 41 %
3490 25-08-2020 05:44:18 12.5 C 42 %
3491 25-08-2020 05:54:17 12.6 C 43 %
3492 25-08-2020 06:04:17 12.6 C 42 %
3493 25-08-2020 06:14:17 12.3 C 42 %
3494 25-08-2020 06:24:17 12.4 C 42 %
3495 25-08-2020 06:34:18 12.2 C 42 %
3496 25-08-2020 06:44:18 12.3 C 43 %
3497 25-08-2020 06:54:17 12.5 C 43 %
3498 25-08-2020 07:04:18 12.8 C 43 %
3499 25-08-2020 07:14:18 13.1 C 41 %
3500 25-08-2020 07:24:17 13.2 C 41 %
Sensor: Nr:Datum:Temp:Feuchte:
Aussen-T/F 3501 25-08-2020 07:34:18 13.7 C 41 %
3502 25-08-2020 07:44:18 14.1 C 39 %
3503 25-08-2020 07:54:17 14.4 C 39 %
3504 25-08-2020 08:04:17 14.9 C 37 %
3505 25-08-2020 08:14:17 15.3 C 36 %
3506 25-08-2020 08:24:17 15.6 C 36 %
3507 25-08-2020 08:34:17 15.6 C 35 %
3508 25-08-2020 08:44:17 16 C 35 %
3509 25-08-2020 08:54:17 16.3 C 35 %
3510 25-08-2020 09:04:17 16.5 C 35 %
3511 25-08-2020 09:14:17 16.5 C 35 %
3512 25-08-2020 09:24:17 16.8 C 34 %
3513 25-08-2020 09:34:18 17 C 33 %
3514 25-08-2020 09:44:18 17.4 C 33 %
3515 25-08-2020 09:54:18 17.7 C 33 %
3516 25-08-2020 10:04:18 18 C 32 %
3517 25-08-2020 10:14:18 18 C 32 %
3518 25-08-2020 10:24:17 18 C 32 %
3519 25-08-2020 10:34:18 18.4 C 32 %
3520 25-08-2020 10:44:18 19.1 C 31 %
3521 25-08-2020 10:54:17 19.6 C 31 %
3522 25-08-2020 11:04:18 20.5 C 30 %
3523 25-08-2020 11:14:18 20.7 C 30 %
3524 25-08-2020 11:24:17 21.6 C 28 %
3525 25-08-2020 11:34:18 23.1 C 25 %
Sensor: Nr:Datum:Temp:Feuchte:
Aussen-T/F 3526 25-08-2020 11:44:18 23 C 23 %
3527 25-08-2020 11:54:18 23.4 C 23 %
3528 25-08-2020 12:04:17 23 C 23 %
3529 25-08-2020 12:14:17 22.9 C 24 %
3530 25-08-2020 12:24:17 22.9 C 23 %
3531 25-08-2020 12:34:18 23.5 C 23 %
3532 25-08-2020 12:44:18 23.9 C 22 %
3533 25-08-2020 12:54:17 24.5 C 22 %
3534 25-08-2020 13:04:18 24 C 22 %
3535 25-08-2020 13:14:18 23.8 C 22 %
3536 25-08-2020 13:24:17 24.6 C 21 %
3537 25-08-2020 13:34:17 24.9 C 21 %
3538 25-08-2020 13:44:17 24.4 C 21 %
3539 25-08-2020 13:54:17 23.8 C 22 %
3540 25-08-2020 14:04:17 23.6 C 22 %
3541 25-08-2020 14:14:18 23.1 C 22 %
3542 25-08-2020 14:24:17 22.7 C 22 %
3543 25-08-2020 14:34:18 22.9 C 22 %
3544 25-08-2020 14:44:18 23.2 C 22 %
3545 25-08-2020 14:54:17 23.1 C 22 %
3546 25-08-2020 15:04:17 23.3 C 22 %
3547 25-08-2020 15:14:17 23.2 C 22 %
3548 25-08-2020 15:24:18 23.1 C 23 %
3549 25-08-2020 15:34:17 22.8 C 24 %
3550 25-08-2020 15:44:17 22.3 C 25 %
Sensor: Nr:Datum:Temp:Feuchte:
Aussen-T/F 3551 25-08-2020 15:54:17 21 C 29 %
3552 25-08-2020 16:04:17 19.9 C 33 %
3553 25-08-2020 16:14:18 19.6 C 35 %
3554 25-08-2020 16:24:17 20.1 C 34 %
3555 25-08-2020 16:34:17 21.6 C 30 %
3556 25-08-2020 16:44:17 21.7 C 31 %
3557 25-08-2020 16:54:17 21.6 C 31 %
3558 25-08-2020 17:04:18 21.6 C 31 %
3559 25-08-2020 17:14:18 21.9 C 31 %
3560 25-08-2020 17:24:17 22.2 C 28 %
3561 25-08-2020 17:34:17 22.5 C 29 %
3562 25-08-2020 17:44:17 23.8 C 25 %
3563 25-08-2020 17:54:17 28.4 C 20 %
3564 25-08-2020 18:04:17 26.5 C 20 %
3565 25-08-2020 18:14:17 25.3 C 20 %
3566 25-08-2020 18:24:18 24.7 C 21 %
3567 25-08-2020 18:34:17 25.3 C 20 %
3568 25-08-2020 18:44:18 25.1 C 20 %
3569 25-08-2020 18:54:17 25.2 C 20 %
3570 25-08-2020 19:04:18 25.1 C 20 %
3571 25-08-2020 19:14:18 24.6 C 21 %
3572 25-08-2020 19:24:17 23.8 C 22 %
3573 25-08-2020 19:34:17 22.9 C 24 %
3574 25-08-2020 19:44:17 22.5 C 25 %
3575 25-08-2020 19:54:17 22.5 C 24 %
Sensor: Nr:Datum:Temp:Feuchte:
Aussen-T/F 3576 25-08-2020 20:04:17 22.5 C 24 %
3577 25-08-2020 20:14:18 22.3 C 24 %
3578 25-08-2020 20:24:17 22.8 C 22 %
3579 25-08-2020 20:34:18 22.5 C 22 %
3580 25-08-2020 20:44:18 22.6 C 23 %
3581 25-08-2020 20:54:18 22.2 C 23 %
3582 25-08-2020 21:04:18 21.8 C 24 %
3583 25-08-2020 21:14:18 21.6 C 24 %
3584 25-08-2020 21:24:17 20.3 C 25 %
3585 25-08-2020 21:34:18 20.3 C 25 %
3586 25-08-2020 21:44:18 20.2 C 25 %
3587 25-08-2020 21:54:17 20 C 25 %
3588 25-08-2020 22:04:17 20.8 C 25 %
3589 25-08-2020 22:14:17 20.4 C 25 %
3590 25-08-2020 22:24:17 20.8 C 24 %
3591 25-08-2020 22:34:17 20.8 C 24 %
3592 25-08-2020 22:44:18 21.2 C 23 %
3593 25-08-2020 22:54:17 20.6 C 24 %
3594 25-08-2020 23:04:17 20.9 C 25 %
3595 25-08-2020 23:14:17 21 C 23 %
3596 25-08-2020 23:24:17 20.7 C 25 %
3597 25-08-2020 23:34:17 20.3 C 25 %
3598 25-08-2020 23:44:17 20.4 C 25 %
3599 25-08-2020 23:54:17 20.2 C 25 %
3600 26-08-2020 00:04:17 21.2 C 24 %
Sensor: Nr:Datum:Temp:Feuchte:
Aussen-T/F 3601 26-08-2020 00:14:17 21.4 C 24 %
3602 26-08-2020 00:24:17 21.7 C 24 %
3603 26-08-2020 00:34:18 21.5 C 24 %
3604 26-08-2020 00:44:18 21.2 C 25 %
3605 26-08-2020 00:54:18 20.8 C 26 %
3606 26-08-2020 01:04:18 21.4 C 25 %
3607 26-08-2020 01:14:18 21.9 C 25 %
3608 26-08-2020 01:24:17 21.4 C 25 %
3609 26-08-2020 01:34:17 21.9 C 25 %
3610 26-08-2020 01:44:17 22.7 C 25 %
3611 26-08-2020 01:54:17 22.7 C 25 %
3612 26-08-2020 02:04:17 22.9 C 25 %
3613 26-08-2020 02:14:17 22.7 C 25 %
3614 26-08-2020 02:24:17 22.9 C 25 %
3615 26-08-2020 02:34:17 22.4 C 25 %
3616 26-08-2020 02:44:18 22 C 25 %
3617 26-08-2020 02:54:17 22.6 C 25 %
3618 26-08-2020 03:04:18 22.3 C 25 %
3619 26-08-2020 03:14:18 22.3 C 25 %
3620 26-08-2020 03:24:17 21.9 C 26 %
3621 26-08-2020 03:34:17 21.9 C 25 %
3622 26-08-2020 03:44:17 21.4 C 25 %
3623 26-08-2020 03:54:17 21.1 C 25 %
3624 26-08-2020 04:04:18 21 C 25 %
3625 26-08-2020 04:14:18 20.8 C 26 %
Sensor: Nr:Datum:Temp:Feuchte:
Aussen-T/F 3626 26-08-2020 04:24:17 20.6 C 26 %
3627 26-08-2020 04:34:17 20.2 C 26 %
3628 26-08-2020 04:44:17 20.5 C 25 %
3629 26-08-2020 04:54:17 20.5 C 25 %
3630 26-08-2020 05:04:17 20.4 C 25 %
3631 26-08-2020 05:14:17 20.3 C 25 %
3632 26-08-2020 05:24:17 20.2 C 25 %
3633 26-08-2020 05:34:17 20 C 25 %
3634 26-08-2020 05:44:17 20 C 24 %
3635 26-08-2020 05:54:17 20 C 24 %
3636 26-08-2020 06:04:17 19.9 C 25 %
3637 26-08-2020 06:14:17 19.8 C 25 %
3638 26-08-2020 06:24:17 19.7 C 25 %
3639 26-08-2020 06:34:18 19.6 C 25 %
3640 26-08-2020 06:44:18 19.4 C 25 %
3641 26-08-2020 06:54:17 19.4 C 25 %
3642 26-08-2020 07:04:17 19.4 C 25 %
3643 26-08-2020 07:14:17 19.4 C 25 %
3644 26-08-2020 07:24:17 19.4 C 24 %
3645 26-08-2020 07:34:17 19.4 C 25 %
3646 26-08-2020 07:44:17 19.4 C 25 %
3647 26-08-2020 07:54:17 19.4 C 25 %
3648 26-08-2020 08:04:17 19.5 C 25 %
3649 26-08-2020 08:14:17 19.4 C 25 %
3650 26-08-2020 08:24:17 19.5 C 25 %
Sensor: Nr:Datum:Temp:Feuchte:
Aussen-T/F 3651 26-08-2020 08:34:18 19.5 C 25 %
3652 26-08-2020 08:44:18 19.6 C 25 %
3653 26-08-2020 08:54:17 19.6 C 25 %
3654 26-08-2020 09:04:17 19.5 C 25 %
3655 26-08-2020 09:14:17 19.5 C 25 %
3656 26-08-2020 09:24:17 19.7 C 25 %
3657 26-08-2020 09:34:17 19.8 C 25 %
3658 26-08-2020 09:44:17 19.6 C 25 %
3659 26-08-2020 09:54:18 19.7 C 25 %
3660 26-08-2020 10:04:18 19.7 C 25 %
3661 26-08-2020 10:14:18 19.8 C 25 %
3662 26-08-2020 10:24:17 20 C 25 %
3663 26-08-2020 10:34:18 19.8 C 25 %
3664 26-08-2020 10:44:18 19.7 C 25 %
3665 26-08-2020 10:54:17 19.8 C 25 %
3666 26-08-2020 11:04:18 19.7 C 25 %
3667 26-08-2020 11:14:18 19.7 C 25 %
3668 26-08-2020 11:24:17 20 C 24 %
3669 26-08-2020 11:34:18 20.2 C 24 %
3670 26-08-2020 11:44:18 20.7 C 24 %
3671 26-08-2020 11:54:17 20.7 C 24 %
3672 26-08-2020 12:04:18 20.4 C 24 %
3673 26-08-2020 12:14:18 20.4 C 25 %
3674 26-08-2020 12:24:17 20.2 C 25 %
3675 26-08-2020 12:34:17 20.2 C 25 %
Sensor: Nr:Datum:Temp:Feuchte:
Aussen-T/F 3676 26-08-2020 12:44:17 20.5 C 25 %
3677 26-08-2020 12:54:17 20.7 C 25 %
3678 26-08-2020 13:04:18 21.2 C 24 %
3679 26-08-2020 13:14:18 21.7 C 23 %
3680 26-08-2020 13:24:18 21.4 C 24 %
3681 26-08-2020 13:34:17 22 C 22 %
3682 26-08-2020 13:44:17 22.5 C 22 %
3683 26-08-2020 13:54:17 22.5 C 22 %
3684 26-08-2020 14:04:18 22 C 22 %
3685 26-08-2020 14:14:18 22.4 C 22 %
3686 26-08-2020 14:24:17 22 C 21 %
3687 26-08-2020 14:34:18 24.2 C 20 %
3688 26-08-2020 14:44:18 22.4 C 21 %
3689 26-08-2020 14:54:17 22.3 C 21 %
3690 26-08-2020 15:04:17 22.7 C 21 %
3691 26-08-2020 15:14:17 22.9 C 21 %
3692 26-08-2020 15:24:17 24.5 C 20 %
3693 26-08-2020 15:34:17 24.9 C 20 %
3694 26-08-2020 15:44:17 24.3 C 20 %
3695 26-08-2020 15:54:17 24.3 C 20 %
3696 26-08-2020 16:04:18 23.3 C 20 %
3697 26-08-2020 16:14:18 23.7 C 20 %
3698 26-08-2020 16:24:17 23.3 C 20 %
3699 26-08-2020 16:34:17 24.6 C 20 %
3700 26-08-2020 16:44:17 23.8 C 20 %
Sensor: Nr:Datum:Temp:Feuchte:
Aussen-T/F 3701 26-08-2020 16:54:18 23.3 C 20 %
3702 26-08-2020 17:04:18 23.2 C 20 %
3703 26-08-2020 17:14:18 23.2 C 20 %
3704 26-08-2020 17:24:17 23.2 C 20 %
3705 26-08-2020 17:34:17 23.1 C 20 %
3706 26-08-2020 17:44:17 23 C 20 %
3707 26-08-2020 17:54:17 22.9 C 20 %
3708 26-08-2020 18:04:17 22.9 C 20 %
3709 26-08-2020 18:14:17 22.9 C 20 %
3710 26-08-2020 18:24:17 22.7 C 20 %
3711 26-08-2020 18:34:17 22.6 C 21 %
3712 26-08-2020 18:44:17 22.3 C 21 %
3713 26-08-2020 18:54:17 22.3 C 21 %
3714 26-08-2020 19:04:18 22.1 C 21 %
3715 26-08-2020 19:14:18 21.9 C 22 %
3716 26-08-2020 19:24:17 21.8 C 22 %
3717 26-08-2020 19:34:18 21.7 C 22 %
3718 26-08-2020 19:44:18 21.4 C 22 %
3719 26-08-2020 19:54:17 21.2 C 23 %
3720 26-08-2020 20:04:17 21 C 23 %
3721 26-08-2020 20:14:17 20.9 C 24 %
3722 26-08-2020 20:24:18 20.7 C 25 %
3723 26-08-2020 20:34:17 20.4 C 25 %
3724 26-08-2020 20:44:17 20.3 C 25 %
3725 26-08-2020 20:54:17 20.2 C 25 %
Sensor: Nr:Datum:Temp:Feuchte:
Aussen-T/F 3726 26-08-2020 21:04:17 20 C 25 %
3727 26-08-2020 21:14:17 20 C 25 %
3728 26-08-2020 21:24:17 20 C 25 %
3729 26-08-2020 21:34:18 19.9 C 25 %
3730 26-08-2020 21:44:18 19.7 C 26 %
3731 26-08-2020 21:54:17 19.7 C 25 %
3732 26-08-2020 22:04:18 19.6 C 25 %
3733 26-08-2020 22:14:18 19.6 C 26 %
3734 26-08-2020 22:24:18 19.3 C 26 %
3735 26-08-2020 22:34:17 19.3 C 26 %
3736 26-08-2020 22:44:17 19.1 C 26 %
3737 26-08-2020 22:54:17 19 C 26 %
3738 26-08-2020 23:04:17 19 C 26 %
3739 26-08-2020 23:14:17 18.9 C 27 %
3740 26-08-2020 23:24:17 18.6 C 27 %
3741 26-08-2020 23:34:18 18.7 C 27 %
3742 26-08-2020 23:44:18 18.6 C 27 %
3743 26-08-2020 23:54:18 18.4 C 27 %
3744 27-08-2020 00:04:17 18.4 C 27 %
3745 27-08-2020 00:14:17 18.3 C 27 %
3746 27-08-2020 00:24:17 18 C 28 %
3747 27-08-2020 00:34:17 17.8 C 29 %
3748 27-08-2020 00:44:17 17.8 C 29 %
3749 27-08-2020 00:54:17 17.8 C 29 %
3750 27-08-2020 01:04:18 17.8 C 29 %
Sensor: Nr:Datum:Temp:Feuchte:
Aussen-T/F 3751 27-08-2020 01:14:18 17.6 C 29 %
3752 27-08-2020 01:24:18 16.9 C 30 %
3753 27-08-2020 01:34:18 16.4 C 31 %
3754 27-08-2020 01:44:18 15.9 C 32 %
3755 27-08-2020 01:54:17 16 C 32 %
3756 27-08-2020 02:04:17 15.6 C 33 %
3757 27-08-2020 02:14:17 16.4 C 32 %
3758 27-08-2020 02:24:17 16.4 C 32 %
3759 27-08-2020 02:34:17 16.7 C 32 %
3760 27-08-2020 02:44:17 16.4 C 32 %
3761 27-08-2020 02:54:18 16.2 C 32 %
3762 27-08-2020 03:04:18 15.7 C 33 %
3763 27-08-2020 03:14:18 14.8 C 35 %
3764 27-08-2020 03:24:17 14.7 C 35 %
3765 27-08-2020 03:34:17 14.4 C 35 %
3766 27-08-2020 03:44:18 14 C 36 %
3767 27-08-2020 03:54:17 14.1 C 36 %
3768 27-08-2020 04:04:17 13.7 C 38 %
3769 27-08-2020 04:14:17 13.4 C 38 %
3770 27-08-2020 04:24:17 13.2 C 39 %
3771 27-08-2020 04:34:18 13.3 C 38 %
3772 27-08-2020 04:44:18 13.4 C 38 %
3773 27-08-2020 04:54:17 13.3 C 39 %
3774 27-08-2020 05:04:17 13 C 39 %
3775 27-08-2020 05:14:17 12.6 C 40 %
Sensor: Nr:Datum:Temp:Feuchte:
Aussen-T/F 3776 27-08-2020 05:24:18 12.4 C 41 %
3777 27-08-2020 05:34:18 12.9 C 41 %
3778 27-08-2020 05:44:18 12.8 C 41 %
3779 27-08-2020 05:54:17 12.5 C 41 %
3780 27-08-2020 06:04:17 12.5 C 41 %
3781 27-08-2020 06:14:17 12.5 C 41 %
3782 27-08-2020 06:24:17 12.7 C 41 %
3783 27-08-2020 06:34:18 12.5 C 41 %
3784 27-08-2020 06:44:18 12.5 C 41 %
3785 27-08-2020 06:54:17 12.4 C 41 %
3786 27-08-2020 07:04:18 12.2 C 42 %
3787 27-08-2020 07:14:18 12.2 C 42 %
3788 27-08-2020 07:24:17 12.8 C 41 %
3789 27-08-2020 07:34:17 12.6 C 40 %
3790 27-08-2020 07:44:18 12.7 C 40 %
3791 27-08-2020 07:54:17 13 C 39 %
3792 27-08-2020 08:04:17 13 C 39 %
3793 27-08-2020 08:14:17 13.1 C 39 %
3794 27-08-2020 08:24:17 13.8 C 38 %
3795 27-08-2020 08:34:18 14.1 C 36 %
3796 27-08-2020 08:44:18 14.5 C 36 %
3797 27-08-2020 08:54:17 15.4 C 35 %
3798 27-08-2020 09:04:18 15.9 C 34 %
3799 27-08-2020 09:14:18 16.3 C 33 %
3800 27-08-2020 09:24:18 16.4 C 33 %
Sensor: Nr:Datum:Temp:Feuchte:
Aussen-T/F 3801 27-08-2020 09:34:17 17 C 32 %
3802 27-08-2020 09:44:17 17.5 C 31 %
3803 27-08-2020 09:54:17 17.3 C 32 %
3804 27-08-2020 10:04:17 16.8 C 32 %
3805 27-08-2020 10:14:17 16.9 C 32 %
3806 27-08-2020 10:24:17 17.5 C 32 %
3807 27-08-2020 10:34:17 18 C 31 %
3808 27-08-2020 10:44:17 19.2 C 30 %
3809 27-08-2020 10:54:17 19.7 C 30 %
3810 27-08-2020 11:04:17 20.8 C 28 %
3811 27-08-2020 11:14:17 20 C 28 %
3812 27-08-2020 11:24:18 20.3 C 28 %
3813 27-08-2020 11:34:17 19.7 C 28 %
3814 27-08-2020 11:44:18 20.4 C 28 %
3815 27-08-2020 11:54:17 20.6 C 27 %
3816 27-08-2020 12:04:17 20.4 C 27 %
3817 27-08-2020 12:14:17 20.6 C 27 %
3818 27-08-2020 12:24:17 20.9 C 27 %
3819 27-08-2020 12:34:18 20.6 C 26 %
3820 27-08-2020 12:44:18 21.3 C 26 %
3821 27-08-2020 12:54:17 21.6 C 25 %
3822 27-08-2020 13:04:17 21.7 C 25 %
3823 27-08-2020 13:14:17 21.2 C 25 %
3824 27-08-2020 13:24:17 20.4 C 26 %
3825 27-08-2020 13:34:18 21.1 C 25 %
Sensor: Nr:Datum:Temp:Feuchte:
Aussen-T/F 3826 27-08-2020 13:44:18 21.2 C 25 %
3827 27-08-2020 13:54:17 21.7 C 25 %
3828 27-08-2020 14:04:17 22.3 C 23 %
3829 27-08-2020 14:14:17 22.1 C 23 %
3830 27-08-2020 14:24:18 23.6 C 22 %
3831 27-08-2020 14:34:17 25.6 C 20 %
3832 27-08-2020 14:44:18 25.3 C 20 %
3833 27-08-2020 14:54:17 27.5 C 20 %
3834 27-08-2020 15:04:18 26.2 C 20 %
3835 27-08-2020 15:14:18 28.3 C 20 %
3836 27-08-2020 15:24:17 27.6 C 20 %
3837 27-08-2020 15:34:17 29.9 C 20 %
3838 27-08-2020 15:44:17 29.5 C 20 %
3839 27-08-2020 15:54:17 29.4 C 20 %
3840 27-08-2020 16:04:17 31 C 20 %
3841 27-08-2020 16:14:17 29.2 C 20 %
3842 27-08-2020 16:24:17 29.2 C 20 %
3843 27-08-2020 16:34:17 29.8 C 20 %
3844 27-08-2020 16:44:17 30.5 C 20 %
3845 27-08-2020 16:54:18 27.9 C 20 %
3846 27-08-2020 17:04:18 29.4 C 20 %
3847 27-08-2020 17:14:18 29.5 C 20 %
3848 27-08-2020 17:24:17 29.6 C 20 %
3849 27-08-2020 17:34:18 28.7 C 20 %
3850 27-08-2020 17:44:18 28.8 C 20 %
Sensor: Nr:Datum:Temp:Feuchte:
Aussen-T/F 3851 27-08-2020 17:54:17 28.1 C 20 %
3852 27-08-2020 18:04:18 26 C 20 %
3853 27-08-2020 18:14:18 25.3 C 20 %
3854 27-08-2020 18:24:17 24.8 C 20 %
3855 27-08-2020 18:34:17 25 C 20 %
3856 27-08-2020 18:44:17 24.7 C 20 %
3857 27-08-2020 18:54:17 24.6 C 20 %
3858 27-08-2020 19:04:17 24.4 C 20 %
3859 27-08-2020 19:14:17 24 C 20 %
3860 27-08-2020 19:24:17 23.7 C 20 %
3861 27-08-2020 19:34:17 23.1 C 20 %
3862 27-08-2020 19:44:18 22.5 C 20 %
3863 27-08-2020 19:54:17 20.9 C 23 %
3864 27-08-2020 20:04:18 20.2 C 24 %
3865 27-08-2020 20:14:18 19.8 C 25 %
3866 27-08-2020 20:24:18 19.5 C 25 %
3867 27-08-2020 20:34:17 19 C 25 %
3868 27-08-2020 20:44:17 18.8 C 26 %
3869 27-08-2020 20:54:17 18.5 C 26 %
3870 27-08-2020 21:04:18 18.5 C 26 %
3871 27-08-2020 21:14:18 18.2 C 26 %
3872 27-08-2020 21:24:17 18.2 C 26 %
3873 27-08-2020 21:34:17 18.2 C 26 %
3874 27-08-2020 21:44:17 18.3 C 26 %
3875 27-08-2020 21:54:17 18 C 26 %
Sensor: Nr:Datum:Temp:Feuchte:
Aussen-T/F 3876 27-08-2020 22:04:17 18.1 C 26 %
3877 27-08-2020 22:14:17 17.7 C 27 %
3878 27-08-2020 22:24:17 17.7 C 27 %
3879 27-08-2020 22:34:17 17.2 C 28 %
3880 27-08-2020 22:44:17 17.4 C 29 %
3881 27-08-2020 22:54:18 18 C 27 %
3882 27-08-2020 23:04:17 18.2 C 27 %
3883 27-08-2020 23:14:17 17.4 C 31 %
3884 27-08-2020 23:24:17 17.7 C 31 %
3885 27-08-2020 23:34:17 16.8 C 35 %
3886 27-08-2020 23:44:17 16.4 C 36 %
3887 27-08-2020 23:54:17 16.6 C 36 %
3888 28-08-2020 00:04:18 16.9 C 35 %
3889 28-08-2020 00:14:18 17 C 34 %
3890 28-08-2020 00:24:17 17 C 34 %
3891 28-08-2020 00:34:17 17.1 C 34 %
3892 28-08-2020 00:44:17 17.2 C 32 %
3893 28-08-2020 00:54:17 17.1 C 33 %
3894 28-08-2020 01:04:18 17 C 34 %
3895 28-08-2020 01:14:18 17.1 C 33 %
3896 28-08-2020 01:24:17 17.2 C 33 %
3897 28-08-2020 01:34:18 16.7 C 35 %
3898 28-08-2020 01:44:18 15.9 C 39 %
3899 28-08-2020 01:54:17 15.9 C 41 %
3900 28-08-2020 02:04:18 16.1 C 41 %
Sensor: Nr:Datum:Temp:Feuchte:
Aussen-T/F 3901 28-08-2020 02:14:18 16 C 41 %
3902 28-08-2020 02:24:18 16 C 42 %
3903 28-08-2020 02:34:18 16 C 42 %
3904 28-08-2020 02:44:18 15.8 C 43 %
3905 28-08-2020 02:54:17 15.6 C 42 %
3906 28-08-2020 03:04:18 15.6 C 42 %
3907 28-08-2020 03:14:18 15.5 C 42 %
3908 28-08-2020 03:24:17 15.6 C 42 %
3909 28-08-2020 03:34:17 15.6 C 42 %
3910 28-08-2020 03:44:17 15.6 C 42 %
3911 28-08-2020 03:54:17 15.5 C 42 %
3912 28-08-2020 04:04:17 15.4 C 42 %
3913 28-08-2020 04:14:17 15.5 C 42 %
3914 28-08-2020 04:24:17 15.5 C 42 %
3915 28-08-2020 04:34:17 15.6 C 42 %
3916 28-08-2020 04:44:17 15.5 C 42 %
3917 28-08-2020 04:54:17 15.8 C 41 %
3918 28-08-2020 05:04:18 15.9 C 41 %
3919 28-08-2020 05:14:18 16 C 40 %
3920 28-08-2020 05:24:17 15.6 C 42 %
3921 28-08-2020 05:34:18 15.4 C 42 %
3922 28-08-2020 05:44:18 15.2 C 43 %
3923 28-08-2020 05:54:18 15.3 C 43 %
3924 28-08-2020 06:04:17 15.3 C 42 %
3925 28-08-2020 06:14:17 15.5 C 42 %
Sensor: Nr:Datum:Temp:Feuchte:
Aussen-T/F 3926 28-08-2020 06:24:17 15.5 C 42 %
3927 28-08-2020 06:34:18 15.5 C 42 %
3928 28-08-2020 06:44:18 15.6 C 41 %
3929 28-08-2020 06:54:17 15.5 C 42 %
3930 28-08-2020 07:04:18 15.5 C 42 %
3931 28-08-2020 07:14:18 15.5 C 42 %
3932 28-08-2020 07:24:17 15.5 C 42 %
3933 28-08-2020 07:34:18 15.9 C 40 %
3934 28-08-2020 07:44:18 15.8 C 41 %
3935 28-08-2020 07:54:18 16 C 40 %
3936 28-08-2020 08:04:18 16.4 C 39 %
3937 28-08-2020 08:14:18 16.6 C 38 %
3938 28-08-2020 08:24:18 16.9 C 36 %
3939 28-08-2020 08:34:17 17 C 36 %
3940 28-08-2020 08:44:17 17.5 C 35 %
3941 28-08-2020 08:54:17 17.5 C 35 %
3942 28-08-2020 09:04:17 17.6 C 35 %
3943 28-08-2020 09:14:17 17.9 C 34 %
3944 28-08-2020 09:24:18 17.8 C 34 %
3945 28-08-2020 09:34:17 18.1 C 33 %
3946 28-08-2020 09:44:17 18.1 C 33 %
3947 28-08-2020 09:54:17 18.2 C 33 %
3948 28-08-2020 10:04:18 18.8 C 32 %
3949 28-08-2020 10:14:18 19.4 C 31 %
3950 28-08-2020 10:24:17 19.8 C 30 %
Sensor: Nr:Datum:Temp:Feuchte:
Aussen-T/F 3951 28-08-2020 10:34:17 19.8 C 29 %
3952 28-08-2020 10:44:18 20 C 28 %
3953 28-08-2020 10:54:17 20.4 C 28 %
3954 28-08-2020 11:04:18 21.2 C 27 %
3955 28-08-2020 11:14:18 20.7 C 28 %
3956 28-08-2020 11:24:18 20.6 C 28 %
3957 28-08-2020 11:34:18 21.9 C 27 %
3958 28-08-2020 11:44:18 22.5 C 25 %
3959 28-08-2020 11:54:17 22.8 C 25 %
3960 28-08-2020 12:04:17 22.9 C 25 %
3961 28-08-2020 12:14:17 22 C 25 %
3962 28-08-2020 12:24:17 22.4 C 25 %
3963 28-08-2020 12:34:17 21.5 C 26 %
3964 28-08-2020 12:44:17 21.3 C 26 %
3965 28-08-2020 12:54:17 21.8 C 26 %
3966 28-08-2020 13:04:18 22.1 C 25 %
3967 28-08-2020 13:14:18 21.8 C 26 %
3968 28-08-2020 13:24:17 21.5 C 26 %
3969 28-08-2020 13:34:18 21.6 C 26 %
3970 28-08-2020 13:44:18 21.7 C 25 %
3971 28-08-2020 13:54:17 21.5 C 26 %
3972 28-08-2020 14:04:17 22.2 C 25 %
3973 28-08-2020 14:14:17 22.5 C 25 %
3974 28-08-2020 14:24:17 22.9 C 25 %
3975 28-08-2020 14:34:18 22.7 C 25 %
Sensor: Nr:Datum:Temp:Feuchte:
Aussen-T/F 3976 28-08-2020 14:44:18 22.5 C 25 %
3977 28-08-2020 14:54:17 22.5 C 25 %
3978 28-08-2020 15:04:18 21.9 C 25 %
3979 28-08-2020 15:14:18 22.7 C 25 %
3980 28-08-2020 15:24:18 22.7 C 25 %
3981 28-08-2020 15:34:17 23.8 C 23 %
3982 28-08-2020 15:44:18 24.5 C 22 %
3983 28-08-2020 15:54:18 22.9 C 24 %
3984 28-08-2020 16:04:17 23 C 23 %
3985 28-08-2020 16:14:18 22.9 C 24 %
3986 28-08-2020 16:24:17 22 C 24 %
3987 28-08-2020 16:34:18 23.7 C 23 %
3988 28-08-2020 16:44:18 24.7 C 22 %
3989 28-08-2020 16:54:17 24.6 C 22 %
3990 28-08-2020 17:04:17 26 C 21 %
3991 28-08-2020 17:14:17 23.9 C 22 %
3992 28-08-2020 17:24:17 23.4 C 22 %
3993 28-08-2020 17:34:18 23.7 C 21 %
3994 28-08-2020 17:44:18 23 C 22 %
3995 28-08-2020 17:54:17 23.4 C 21 %
3996 28-08-2020 18:04:18 23.1 C 21 %
3997 28-08-2020 18:14:18 22 C 22 %
3998 28-08-2020 18:24:18 21.6 C 23 %
3999 28-08-2020 18:34:18 21.3 C 23 %
4000 28-08-2020 18:44:18 20.9 C 24 %
Sensor: Nr:Datum:Temp:Feuchte:
Aussen-T/F 4001 28-08-2020 18:54:17 20.7 C 25 %
4002 28-08-2020 19:04:18 20.7 C 23 %
4003 28-08-2020 19:14:18 20.5 C 23 %
4004 28-08-2020 19:24:17 20.4 C 23 %
4005 28-08-2020 19:34:18 20.5 C 23 %
4006 28-08-2020 19:44:18 20.5 C 23 %
4007 28-08-2020 19:54:18 19.7 C 25 %
4008 28-08-2020 20:04:18 19.5 C 25 %
4009 28-08-2020 20:14:18 19.3 C 26 %
4010 28-08-2020 20:24:17 19.1 C 25 %
4011 28-08-2020 20:34:17 18.2 C 26 %
4012 28-08-2020 20:44:17 16.2 C 30 %
4013 28-08-2020 20:54:17 15 C 34 %
4014 28-08-2020 21:04:18 14.2 C 37 %
4015 28-08-2020 21:14:18 13.8 C 40 %
4016 28-08-2020 21:24:17 14.2 C 38 %
4017 28-08-2020 21:34:18 14.1 C 38 %
4018 28-08-2020 21:44:18 13.6 C 40 %
4019 28-08-2020 21:54:18 13.3 C 41 %
4020 28-08-2020 22:04:17 13.2 C 40 %
4021 28-08-2020 22:14:17 13.4 C 39 %
4022 28-08-2020 22:24:18 13.5 C 38 %
4023 28-08-2020 22:34:17 13.4 C 39 %
4024 28-08-2020 22:44:17 13 C 40 %
4025 28-08-2020 22:54:17 13.2 C 40 %
Sensor: Nr:Datum:Temp:Feuchte:
Aussen-T/F 4026 28-08-2020 23:04:18 12.9 C 41 %
4027 28-08-2020 23:14:18 12.3 C 41 %
4028 28-08-2020 23:24:17 12.6 C 41 %
4029 28-08-2020 23:34:17 12.4 C 41 %
4030 28-08-2020 23:44:17 12.5 C 41 %
4031 28-08-2020 23:54:17 12.4 C 41 %
4032 29-08-2020 00:04:18 12.5 C 41 %
4033 29-08-2020 00:14:18 12.5 C 40 %
4034 29-08-2020 00:24:17 12.7 C 40 %
4035 29-08-2020 00:34:18 12.6 C 41 %
4036 29-08-2020 00:44:18 12.8 C 40 %
4037 29-08-2020 00:54:17 12.5 C 41 %
4038 29-08-2020 01:04:18 12.7 C 41 %
4039 29-08-2020 01:14:18 12.7 C 40 %
4040 29-08-2020 01:24:17 12.2 C 41 %
4041 29-08-2020 01:34:18 12.5 C 41 %
4042 29-08-2020 01:44:18 12.2 C 41 %
4043 29-08-2020 01:54:18 11.7 C 42 %
4044 29-08-2020 02:04:17 11.8 C 44 %
4045 29-08-2020 02:14:17 12.1 C 42 %
4046 29-08-2020 02:24:17 12.1 C 41 %
4047 29-08-2020 02:34:18 11.8 C 43 %
4048 29-08-2020 02:44:18 11.7 C 44 %
4049 29-08-2020 02:54:17 12 C 42 %
4050 29-08-2020 03:04:17 12 C 41 %
Sensor: Nr:Datum:Temp:Feuchte:
Aussen-T/F 4051 29-08-2020 03:14:17 11.5 C 42 %
4052 29-08-2020 03:24:18 11.2 C 43 %
4053 29-08-2020 03:34:17 11.3 C 45 %
4054 29-08-2020 03:44:17 11.7 C 44 %
4055 29-08-2020 03:54:17 12 C 41 %
4056 29-08-2020 04:04:17 12 C 41 %
4057 29-08-2020 04:14:17 11.7 C 42 %
4058 29-08-2020 04:24:17 11.5 C 43 %
4059 29-08-2020 04:34:18 11.3 C 43 %
4060 29-08-2020 04:44:18 11.2 C 43 %
4061 29-08-2020 04:54:17 10.9 C 45 %
4062 29-08-2020 05:04:17 10.8 C 45 %
4063 29-08-2020 05:14:17 11 C 44 %
4064 29-08-2020 05:24:17 11.1 C 43 %
4065 29-08-2020 05:34:18 10.7 C 45 %
4066 29-08-2020 05:44:18 10.5 C 46 %
4067 29-08-2020 05:54:17 10.4 C 46 %
4068 29-08-2020 06:04:18 10.6 C 46 %
4069 29-08-2020 06:14:18 10.4 C 46 %
4070 29-08-2020 06:24:18 10.6 C 46 %
4071 29-08-2020 06:34:17 10.7 C 45 %
4072 29-08-2020 06:44:17 10.8 C 45 %
4073 29-08-2020 06:54:18 10.9 C 45 %
4074 29-08-2020 07:04:17 11 C 44 %
4075 29-08-2020 07:14:17 10.8 C 45 %
Sensor: Nr:Datum:Temp:Feuchte:
Aussen-T/F 4076 29-08-2020 07:24:17 11 C 44 %
4077 29-08-2020 07:34:17 11.1 C 44 %
4078 29-08-2020 07:44:17 11 C 44 %
4079 29-08-2020 07:54:17 11.4 C 45 %
4080 29-08-2020 08:04:17 11.8 C 45 %
4081 29-08-2020 08:14:17 12.1 C 43 %
4082 29-08-2020 08:24:18 12.4 C 43 %
4083 29-08-2020 08:34:18 12.7 C 41 %
4084 29-08-2020 08:44:18 13.4 C 39 %
4085 29-08-2020 08:54:18 13.8 C 38 %
4086 29-08-2020 09:04:17 14.5 C 36 %
4087 29-08-2020 09:14:17 15 C 35 %
4088 29-08-2020 09:24:17 15.4 C 34 %
4089 29-08-2020 09:34:17 15.2 C 34 %
4090 29-08-2020 09:44:18 15.7 C 34 %
4091 29-08-2020 09:54:17 16 C 33 %
4092 29-08-2020 10:04:17 16.5 C 32 %
4093 29-08-2020 10:14:17 16.7 C 32 %
4094 29-08-2020 10:24:17 16.7 C 32 %
4095 29-08-2020 10:34:17 16.6 C 32 %
4096 29-08-2020 10:44:17 17.1 C 32 %
4097 29-08-2020 10:54:17 17.6 C 31 %
4098 29-08-2020 11:04:18 18.1 C 31 %
4099 29-08-2020 11:14:18 17.8 C 31 %
4100 29-08-2020 11:24:17 18.4 C 30 %
Sensor: Nr:Datum:Temp:Feuchte:
Aussen-T/F 4101 29-08-2020 11:34:18 18.5 C 30 %
4102 29-08-2020 11:44:18 19.1 C 29 %
4103 29-08-2020 11:54:18 19.7 C 29 %
4104 29-08-2020 12:04:17 19.7 C 28 %
4105 29-08-2020 12:14:17 19 C 28 %
4106 29-08-2020 12:24:17 18.7 C 29 %
4107 29-08-2020 12:34:18 19.4 C 28 %
4108 29-08-2020 12:44:18 19.1 C 28 %
4109 29-08-2020 12:54:17 20 C 27 %
4110 29-08-2020 13:04:17 19.4 C 28 %
4111 29-08-2020 13:14:17 19.7 C 28 %
4112 29-08-2020 13:24:17 20.2 C 27 %
4113 29-08-2020 13:34:18 20 C 27 %
4114 29-08-2020 13:44:18 20 C 27 %
4115 29-08-2020 13:54:17 19.7 C 27 %
4116 29-08-2020 14:04:18 20.5 C 26 %
4117 29-08-2020 14:14:18 20.6 C 26 %
4118 29-08-2020 14:24:18 21.3 C 25 %
4119 29-08-2020 14:34:18 25.2 C 20 %
4120 29-08-2020 14:44:18 25.9 C 20 %
4121 29-08-2020 14:54:17 26.1 C 20 %
4122 29-08-2020 15:04:18 24.7 C 20 %
4123 29-08-2020 15:14:18 26.6 C 20 %
4124 29-08-2020 15:24:17 28.3 C 20 %
4125 29-08-2020 15:34:18 23.2 C 20 %
Sensor: Nr:Datum:Temp:Feuchte:
Aussen-T/F 4126 29-08-2020 15:44:18 23.3 C 20 %
4127 29-08-2020 15:54:17 25.9 C 20 %
4128 29-08-2020 16:04:17 27.7 C 20 %
4129 29-08-2020 16:14:17 27.9 C 20 %
4130 29-08-2020 16:24:17 27.1 C 20 %
4131 29-08-2020 16:34:18 27.9 C 20 %
4132 29-08-2020 16:44:18 24.1 C 20 %
4133 29-08-2020 16:54:17 23.7 C 20 %
4134 29-08-2020 17:04:17 26.8 C 20 %
4135 29-08-2020 17:14:17 29.2 C 20 %
4136 29-08-2020 17:24:17 24 C 20 %
4137 29-08-2020 17:34:18 23.5 C 20 %
4138 29-08-2020 17:44:18 22.5 C 20 %
4139 29-08-2020 17:54:17 25.2 C 20 %
4140 29-08-2020 18:04:17 22.3 C 20 %
4141 29-08-2020 18:14:17 21.5 C 22 %
4142 29-08-2020 18:24:17 21.1 C 21 %
4143 29-08-2020 18:34:18 21.1 C 23 %
4144 29-08-2020 18:44:18 20.4 C 25 %
4145 29-08-2020 18:54:17 21.4 C 22 %
4146 29-08-2020 19:04:17 21.2 C 22 %
4147 29-08-2020 19:14:17 21.4 C 22 %
4148 29-08-2020 19:24:17 21.3 C 23 %
4149 29-08-2020 19:34:17 21 C 23 %
4150 29-08-2020 19:44:17 20.8 C 25 %
Sensor: Nr:Datum:Temp:Feuchte:
Aussen-T/F 4151 29-08-2020 19:54:17 20.5 C 25 %
4152 29-08-2020 20:04:17 19.5 C 26 %
4153 29-08-2020 20:14:17 19.5 C 26 %
4154 29-08-2020 20:24:17 19.4 C 27 %
4155 29-08-2020 20:34:17 19.1 C 27 %
4156 29-08-2020 20:44:17 19 C 27 %
4157 29-08-2020 20:54:17 19 C 27 %
4158 29-08-2020 21:04:17 18.9 C 28 %
4159 29-08-2020 21:14:17 17.5 C 30 %
4160 29-08-2020 21:24:17 16.9 C 33 %
4161 29-08-2020 21:34:17 15.3 C 37 %
4162 29-08-2020 21:44:17 15 C 37 %
4163 29-08-2020 21:54:17 14.4 C 39 %
4164 29-08-2020 22:04:18 14.3 C 39 %
4165 29-08-2020 22:14:18 14.1 C 41 %
4166 29-08-2020 22:24:18 14.1 C 42 %
4167 29-08-2020 22:34:17 13.7 C 41 %
4168 29-08-2020 22:44:18 13.4 C 41 %
4169 29-08-2020 22:54:17 13.1 C 41 %
4170 29-08-2020 23:04:17 13.1 C 42 %
4171 29-08-2020 23:14:17 13 C 42 %
4172 29-08-2020 23:24:18 13.2 C 43 %
4173 29-08-2020 23:34:18 13.2 C 43 %
4174 29-08-2020 23:44:18 13.4 C 42 %
4175 29-08-2020 23:54:17 13.4 C 41 %
Sensor: Nr:Datum:Temp:Feuchte:
Aussen-T/F 4176 30-08-2020 00:04:18 12.9 C 43 %
4177 30-08-2020 00:14:18 12.7 C 44 %
4178 30-08-2020 00:24:18 12.5 C 44 %
4179 30-08-2020 00:34:17 12.7 C 44 %
4180 30-08-2020 00:44:18 12.7 C 44 %
4181 30-08-2020 00:54:17 12.4 C 44 %
4182 30-08-2020 01:04:18 11.8 C 45 %
4183 30-08-2020 01:14:18 12.1 C 44 %
4184 30-08-2020 01:24:18 12 C 44 %
4185 30-08-2020 01:34:18 11.7 C 45 %
4186 30-08-2020 01:44:18 11.7 C 45 %
4187 30-08-2020 01:54:17 11.6 C 45 %
4188 30-08-2020 02:04:17 11.2 C 45 %
4189 30-08-2020 02:14:18 11 C 45 %
4190 30-08-2020 02:24:17 11.4 C 45 %
4191 30-08-2020 02:34:18 11.1 C 45 %
4192 30-08-2020 02:44:18 11 C 45 %
4193 30-08-2020 02:54:17 10.8 C 45 %
4194 30-08-2020 03:04:17 10.8 C 45 %
4195 30-08-2020 03:14:18 10.6 C 45 %
4196 30-08-2020 03:24:17 10.6 C 45 %
4197 30-08-2020 03:34:18 10.6 C 45 %
4198 30-08-2020 03:44:18 10.5 C 45 %
4199 30-08-2020 03:54:17 10.1 C 45 %
4200 30-08-2020 04:04:18 10.1 C 45 %
Sensor: Nr:Datum:Temp:Feuchte:
Aussen-T/F 4201 30-08-2020 04:14:18 10.1 C 45 %
4202 30-08-2020 04:24:17 10.1 C 45 %
4203 30-08-2020 04:34:18 10.5 C 45 %
4204 30-08-2020 04:44:18 10.4 C 45 %
4205 30-08-2020 04:54:17 10.6 C 45 %
4206 30-08-2020 05:04:17 10.8 C 45 %
4207 30-08-2020 05:14:17 10.9 C 45 %
4208 30-08-2020 05:24:18 10.8 C 45 %
4209 30-08-2020 05:34:18 10.6 C 45 %
4210 30-08-2020 05:44:18 10.2 C 45 %
4211 30-08-2020 05:54:18 10.1 C 45 %
4212 30-08-2020 06:04:17 10.2 C 45 %
4213 30-08-2020 06:14:18 10.3 C 45 %
4214 30-08-2020 06:24:17 10.5 C 45 %
4215 30-08-2020 06:34:17 10.5 C 45 %
4216 30-08-2020 06:44:18 10.4 C 45 %
4217 30-08-2020 06:54:18 10.5 C 45 %
4218 30-08-2020 07:04:17 10.7 C 45 %
4219 30-08-2020 07:14:17 10.9 C 45 %
4220 30-08-2020 07:24:17 10.8 C 45 %
4221 30-08-2020 07:34:17 11.2 C 44 %
4222 30-08-2020 07:44:18 11.4 C 44 %
4223 30-08-2020 07:54:17 11.5 C 44 %
4224 30-08-2020 08:04:18 11.6 C 44 %
4225 30-08-2020 08:14:18 11.8 C 44 %
Sensor: Nr:Datum:Temp:Feuchte:
Aussen-T/F 4226 30-08-2020 08:24:18 11.8 C 44 %
4227 30-08-2020 08:34:17 12 C 43 %
4228 30-08-2020 08:44:17 12.4 C 43 %
4229 30-08-2020 08:54:17 12.6 C 43 %
4230 30-08-2020 09:04:17 13.2 C 41 %
4231 30-08-2020 09:14:17 13.5 C 41 %
4232 30-08-2020 09:24:17 14.2 C 39 %
4233 30-08-2020 09:34:17 14.3 C 37 %
4234 30-08-2020 09:44:17 14.7 C 37 %
4235 30-08-2020 09:54:17 15 C 36 %
4236 30-08-2020 10:04:17 15.5 C 36 %
4237 30-08-2020 10:14:17 15.8 C 35 %
4238 30-08-2020 10:24:17 15.8 C 35 %
4239 30-08-2020 10:34:17 16.3 C 34 %
4240 30-08-2020 10:44:17 16.5 C 33 %
4241 30-08-2020 10:54:17 16.5 C 34 %
4242 30-08-2020 11:04:17 16.3 C 34 %
4243 30-08-2020 11:14:18 17.1 C 33 %
4244 30-08-2020 11:24:18 17.3 C 32 %
4245 30-08-2020 11:34:17 17.8 C 32 %
4246 30-08-2020 11:44:17 18 C 31 %
4247 30-08-2020 11:54:17 17.8 C 32 %
4248 30-08-2020 12:04:17 17.7 C 32 %
4249 30-08-2020 12:14:17 18.1 C 31 %
4250 30-08-2020 12:24:17 17.8 C 31 %
Sensor: Nr:Datum:Temp:Feuchte:
Aussen-T/F 4251 30-08-2020 12:34:18 18.5 C 30 %
4252 30-08-2020 12:44:18 18.7 C 31 %
4253 30-08-2020 12:54:17 18.9 C 30 %
4254 30-08-2020 13:04:17 19.3 C 30 %
4255 30-08-2020 13:14:18 19.9 C 30 %
4256 30-08-2020 13:24:17 19.6 C 30 %
4257 30-08-2020 13:34:18 19.8 C 29 %
4258 30-08-2020 13:44:18 20.1 C 29 %
4259 30-08-2020 13:54:18 19.4 C 29 %
4260 30-08-2020 14:04:17 20.6 C 28 %
4261 30-08-2020 14:14:17 21 C 27 %
4262 30-08-2020 14:24:18 20.9 C 28 %
4263 30-08-2020 14:34:17 21.4 C 26 %
4264 30-08-2020 14:44:17 21.8 C 26 %
4265 30-08-2020 14:54:17 22.7 C 25 %
4266 30-08-2020 15:04:17 23.1 C 24 %
4267 30-08-2020 15:14:17 22.7 C 24 %
4268 30-08-2020 15:24:17 23.7 C 23 %
4269 30-08-2020 15:34:18 24.8 C 21 %
4270 30-08-2020 15:44:18 26.1 C 20 %
4271 30-08-2020 15:54:17 28.7 C 20 %
4272 30-08-2020 16:04:18 28.1 C 20 %
4273 30-08-2020 16:14:18 24.8 C 20 %
4274 30-08-2020 16:24:17 22.9 C 20 %
4275 30-08-2020 16:34:17 22.8 C 20 %
Sensor: Nr:Datum:Temp:Feuchte:
Aussen-T/F 4276 30-08-2020 16:44:18 23.3 C 20 %
4277 30-08-2020 16:54:17 23.4 C 20 %
4278 30-08-2020 17:04:17 22.8 C 21 %
4279 30-08-2020 17:14:17 22.1 C 21 %
4280 30-08-2020 17:24:17 23.3 C 20 %
4281 30-08-2020 17:34:17 23.9 C 20 %
4282 30-08-2020 17:44:18 24.7 C 20 %
4283 30-08-2020 17:54:17 23.7 C 20 %
4284 30-08-2020 18:04:17 22 C 20 %
4285 30-08-2020 18:14:18 22.6 C 20 %
4286 30-08-2020 18:24:17 22.5 C 20 %
4287 30-08-2020 18:34:17 22 C 21 %
4288 30-08-2020 18:44:17 21.8 C 21 %
4289 30-08-2020 18:54:17 21.3 C 21 %
4290 30-08-2020 19:04:17 21.2 C 21 %
4291 30-08-2020 19:14:17 21 C 22 %
4292 30-08-2020 19:24:17 20.6 C 25 %
4293 30-08-2020 19:34:17 20.3 C 25 %
4294 30-08-2020 19:44:17 19.5 C 25 %
4295 30-08-2020 19:54:17 18.9 C 27 %
4296 30-08-2020 20:04:18 18.4 C 28 %
4297 30-08-2020 20:14:18 18.3 C 28 %
4298 30-08-2020 20:24:18 17.9 C 29 %
4299 30-08-2020 20:34:18 18.6 C 28 %
4300 30-08-2020 20:44:18 19.1 C 27 %
Sensor: Nr:Datum:Temp:Feuchte:
Aussen-T/F 4301 30-08-2020 20:54:18 19.1 C 28 %
4302 30-08-2020 21:04:18 18.9 C 29 %
4303 30-08-2020 21:14:18 18.8 C 29 %
4304 30-08-2020 21:24:17 18.9 C 29 %
4305 30-08-2020 21:34:17 18.6 C 30 %
4306 30-08-2020 21:44:17 18.3 C 30 %
4307 30-08-2020 21:54:17 17.9 C 31 %
4308 30-08-2020 22:04:17 17.8 C 31 %
4309 30-08-2020 22:14:17 17.8 C 31 %
4310 30-08-2020 22:24:18 17.5 C 31 %
4311 30-08-2020 22:34:18 17.3 C 32 %
4312 30-08-2020 22:44:18 17.1 C 32 %
4313 30-08-2020 22:54:18 17 C 32 %
4314 30-08-2020 23:04:18 17 C 32 %
4315 30-08-2020 23:14:18 16.7 C 33 %
4316 30-08-2020 23:24:17 16.8 C 33 %
4317 30-08-2020 23:34:17 16.8 C 33 %
4318 30-08-2020 23:44:17 16.7 C 33 %
4319 30-08-2020 23:54:17 16.2 C 34 %
4320 31-08-2020 00:04:17 16.3 C 34 %
4321 31-08-2020 00:14:17 16.3 C 34 %
4322 31-08-2020 00:24:17 15.9 C 35 %
4323 31-08-2020 00:34:17 15.9 C 35 %
4324 31-08-2020 00:44:18 15.8 C 35 %
4325 31-08-2020 00:54:17 15.7 C 35 %
Sensor: Nr:Datum:Temp:Feuchte:
Aussen-T/F 4326 31-08-2020 01:04:17 15.8 C 35 %
4327 31-08-2020 01:14:17 15.9 C 35 %
4328 31-08-2020 01:24:17 16.1 C 35 %
4329 31-08-2020 01:34:17 15.9 C 35 %
4330 31-08-2020 01:44:17 15.4 C 36 %
4331 31-08-2020 01:54:17 15.2 C 36 %
4332 31-08-2020 02:04:17 15.2 C 36 %
4333 31-08-2020 02:14:17 15.5 C 36 %
4334 31-08-2020 02:24:17 15.6 C 36 %
4335 31-08-2020 02:34:17 15.8 C 36 %
4336 31-08-2020 02:44:17 15.7 C 36 %
4337 31-08-2020 02:54:17 15.5 C 36 %
4338 31-08-2020 03:04:17 14.8 C 37 %
4339 31-08-2020 03:14:17 14.2 C 37 %
4340 31-08-2020 03:24:17 13.5 C 39 %
4341 31-08-2020 03:34:17 13.5 C 39 %
4342 31-08-2020 03:44:18 13.3 C 40 %
4343 31-08-2020 03:54:17 13.6 C 40 %
4344 31-08-2020 04:04:18 13.9 C 40 %
4345 31-08-2020 04:14:18 14 C 38 %
4346 31-08-2020 04:24:17 13.6 C 40 %
4347 31-08-2020 04:34:18 13.6 C 40 %
4348 31-08-2020 04:44:18 13.1 C 40 %
4349 31-08-2020 04:54:17 13.1 C 41 %
4350 31-08-2020 05:04:17 12.8 C 41 %
Sensor: Nr:Datum:Temp:Feuchte:
Aussen-T/F 4351 31-08-2020 05:14:17 12.5 C 42 %
4352 31-08-2020 05:24:18 12.5 C 43 %
4353 31-08-2020 05:34:18 12.7 C 43 %
4354 31-08-2020 05:44:18 12.2 C 42 %
4355 31-08-2020 05:54:17 12.7 C 42 %
4356 31-08-2020 06:04:17 12.5 C 42 %
4357 31-08-2020 06:14:17 12.2 C 43 %
4358 31-08-2020 06:24:17 12 C 43 %
4359 31-08-2020 06:34:17 12.4 C 44 %
4360 31-08-2020 06:44:17 12.7 C 44 %
4361 31-08-2020 06:54:17 13 C 42 %
4362 31-08-2020 07:04:17 13.2 C 41 %
4363 31-08-2020 07:14:18 13.4 C 41 %
4364 31-08-2020 07:24:17 13.7 C 40 %
4365 31-08-2020 07:34:18 13.7 C 40 %
4366 31-08-2020 07:44:18 14 C 39 %
4367 31-08-2020 07:54:18 14.3 C 38 %
4368 31-08-2020 08:04:18 14.3 C 38 %
4369 31-08-2020 08:14:18 14.7 C 38 %
4370 31-08-2020 08:24:17 15.2 C 37 %
4371 31-08-2020 08:34:17 15.7 C 36 %
4372 31-08-2020 08:44:18 15.8 C 36 %
4373 31-08-2020 08:54:17 15.7 C 36 %
4374 31-08-2020 09:04:18 16.2 C 35 %
4375 31-08-2020 09:14:18 16.2 C 35 %
Sensor: Nr:Datum:Temp:Feuchte:
Aussen-T/F 4376 31-08-2020 09:24:17 16.3 C 35 %
4377 31-08-2020 09:34:17 16.4 C 35 %
4378 31-08-2020 09:44:18 16.8 C 35 %
4379 31-08-2020 09:54:18 17.2 C 34 %
4380 31-08-2020 10:04:17 17.2 C 34 %
4381 31-08-2020 10:14:17 17.2 C 34 %
4382 31-08-2020 10:24:17 17.4 C 34 %
4383 31-08-2020 10:34:17 17.4 C 34 %
4384 31-08-2020 10:44:17 17.8 C 34 %
4385 31-08-2020 10:54:18 18.1 C 33 %
4386 31-08-2020 11:04:18 18.2 C 32 %
4387 31-08-2020 11:14:18 18.5 C 32 %
4388 31-08-2020 11:24:17 19.2 C 31 %
4389 31-08-2020 11:34:18 20 C 30 %
4390 31-08-2020 11:44:18 20.4 C 30 %
4391 31-08-2020 11:54:17 21 C 28 %
4392 31-08-2020 12:04:18 21.3 C 29 %
4393 31-08-2020 12:14:18 21 C 29 %
4394 31-08-2020 12:24:17 20.3 C 30 %
4395 31-08-2020 12:34:17 21.6 C 28 %
4396 31-08-2020 12:44:17 20.7 C 30 %
4397 31-08-2020 12:54:17 21 C 28 %
4398 31-08-2020 13:04:17 21.8 C 29 %
4399 31-08-2020 13:14:17 21.3 C 29 %
4400 31-08-2020 13:24:17 21.2 C 29 %
Sensor: Nr:Datum:Temp:Feuchte:
Aussen-T/F 4401 31-08-2020 13:34:18 21 C 28 %
4402 31-08-2020 13:44:18 20.4 C 30 %
4403 31-08-2020 13:54:18 20.8 C 30 %
4404 31-08-2020 14:04:18 20.6 C 30 %
4405 31-08-2020 14:14:18 19.3 C 30 %
4406 31-08-2020 14:24:17 17.2 C 36 %
4407 31-08-2020 14:34:17 16.6 C 40 %
4408 31-08-2020 14:44:17 16.3 C 41 %
4409 31-08-2020 14:54:17 16.1 C 42 %
4410 31-08-2020 15:04:18 15.5 C 41 %
4411 31-08-2020 15:14:18 15.6 C 42 %
4412 31-08-2020 15:24:17 16 C 40 %
4413 31-08-2020 15:34:18 16.4 C 40 %
4414 31-08-2020 15:44:18 16.5 C 39 %
4415 31-08-2020 15:54:17 16.6 C 40 %
4416 31-08-2020 16:04:18 16.7 C 39 %
4417 31-08-2020 16:14:18 16.9 C 39 %
4418 31-08-2020 16:24:17 17.7 C 38 %
4419 31-08-2020 16:34:18 17.5 C 37 %
4420 31-08-2020 16:44:18 17.4 C 37 %
4421 31-08-2020 16:54:17 17 C 38 %
4422 31-08-2020 17:04:17 16.6 C 40 %
4423 31-08-2020 17:14:17 16.1 C 40 %
4424 31-08-2020 17:24:17 16 C 41 %
4425 31-08-2020 17:34:17 15.9 C 42 %
Sensor: Nr:Datum:Temp:Feuchte:
Aussen-T/F 4426 31-08-2020 17:44:17 16 C 42 %
4427 31-08-2020 17:54:17 15.9 C 42 %
4428 31-08-2020 18:04:17 15.9 C 43 %
4429 31-08-2020 18:14:18 15.8 C 42 %
4430 31-08-2020 18:24:17 16 C 41 %
4431 31-08-2020 18:34:17 16.1 C 40 %
4432 31-08-2020 18:44:17 15.9 C 40 %
4433 31-08-2020 18:54:17 15.7 C 42 %
4434 31-08-2020 19:04:18 15.6 C 43 %
4435 31-08-2020 19:14:18 15.1 C 43 %
4436 31-08-2020 19:24:17 14.8 C 43 %
4437 31-08-2020 19:34:17 14.8 C 43 %
4438 31-08-2020 19:44:17 14.8 C 43 %
4439 31-08-2020 19:54:17 14.7 C 43 %
4440 31-08-2020 20:04:18 14.7 C 43 %
4441 31-08-2020 20:14:18 14.5 C 43 %
4442 31-08-2020 20:24:17 14.5 C 43 %
4443 31-08-2020 20:34:18 14.4 C 43 %
4444 31-08-2020 20:44:18 14.4 C 42 %
4445 31-08-2020 20:54:18 14.4 C 42 %
4446 31-08-2020 21:04:18 14.3 C 42 %
4447 31-08-2020 21:14:18 14.2 C 42 %
4448 31-08-2020 21:24:18 14.2 C 42 %
4449 31-08-2020 21:34:17 14.2 C 42 %
4450 31-08-2020 21:44:17 14.2 C 42 %
Sensor: Nr:Datum:Temp:Feuchte:
Aussen-T/F 4451 31-08-2020 21:54:17 14.2 C 42 %
4452 31-08-2020 22:04:17 14.2 C 42 %
4453 31-08-2020 22:14:17 14.2 C 42 %
4454 31-08-2020 22:24:17 14.2 C 42 %
4455 31-08-2020 22:34:17 14.2 C 42 %
4456 31-08-2020 22:44:17 14.1 C 42 %
4457 31-08-2020 22:54:18 14.2 C 42 %
4458 31-08-2020 23:04:17 14.3 C 42 %
4459 31-08-2020 23:14:17 14.2 C 42 %
4460 31-08-2020 23:24:17 14.1 C 42 %
4461 31-08-2020 23:34:17 14 C 42 %
4462 31-08-2020 23:44:17 13.9 C 42 %
4463 31-08-2020 23:54:18 13.9 C 42 %
4464 01-09-2020 00:04:17 13.8 C 42 %
4465 01-09-2020 00:14:17 13.8 C 42 %
4466 01-09-2020 00:24:17 13.8 C 42 %
4467 01-09-2020 00:34:17 13.8 C 42 %
4468 01-09-2020 00:44:18 13.8 C 42 %
4469 01-09-2020 00:54:17 13.8 C 42 %
4470 01-09-2020 01:04:17 13.8 C 42 %
4471 01-09-2020 01:14:17 13.8 C 42 %
4472 01-09-2020 01:24:18 13.7 C 41 %
4473 01-09-2020 01:34:17 13.7 C 41 %
4474 01-09-2020 01:44:18 13.8 C 41 %
4475 01-09-2020 01:54:17 13.6 C 41 %
Sensor: Nr:Datum:Temp:Feuchte:
Aussen-T/F 4476 01-09-2020 02:04:18 13.5 C 41 %
4477 01-09-2020 02:14:18 13.5 C 41 %
4478 01-09-2020 02:24:17 13.4 C 41 %
4479 01-09-2020 02:34:17 13.2 C 41 %
4480 01-09-2020 02:44:17 12.8 C 42 %
4481 01-09-2020 02:54:17 12.6 C 42 %
4482 01-09-2020 03:04:18 12.9 C 42 %
4483 01-09-2020 03:14:18 12.9 C 42 %
4484 01-09-2020 03:24:17 13.1 C 41 %
4485 01-09-2020 03:34:18 13 C 41 %
4486 01-09-2020 03:44:18 12.9 C 42 %
4487 01-09-2020 03:54:17 12.7 C 42 %
4488 01-09-2020 04:04:18 12.8 C 42 %
4489 01-09-2020 04:14:18 12.8 C 42 %
4490 01-09-2020 04:24:17 12.7 C 42 %
4491 01-09-2020 04:34:17 12.6 C 42 %
4492 01-09-2020 04:44:17 12.5 C 42 %
4493 01-09-2020 04:54:18 12.5 C 42 %
4494 01-09-2020 05:04:17 12.5 C 42 %
4495 01-09-2020 05:14:17 12.4 C 42 %
4496 01-09-2020 05:24:17 12.2 C 42 %
4497 01-09-2020 05:34:17 12.1 C 42 %
4498 01-09-2020 05:44:17 12 C 42 %
4499 01-09-2020 05:54:17 12 C 42 %
4500 01-09-2020 06:04:17 11.9 C 42 %
Sensor: Nr:Datum:Temp:Feuchte:
Aussen-T/F 4501 01-09-2020 06:14:17 11.8 C 42 %
4502 01-09-2020 06:24:17 11.8 C 42 %
4503 01-09-2020 06:34:17 11.8 C 42 %
4504 01-09-2020 06:44:17 11.9 C 42 %
4505 01-09-2020 06:54:18 12.1 C 42 %
4506 01-09-2020 07:04:17 12.2 C 41 %
4507 01-09-2020 07:14:17 12.2 C 41 %
4508 01-09-2020 07:24:17 12.3 C 41 %
4509 01-09-2020 07:34:17 12.3 C 41 %
4510 01-09-2020 07:44:17 12 C 41 %
4511 01-09-2020 07:54:18 12.7 C 42 %
4512 01-09-2020 08:04:18 12.8 C 42 %
4513 01-09-2020 08:14:18 13.1 C 41 %
4514 01-09-2020 08:24:17 13.3 C 41 %
4515 01-09-2020 08:34:17 13.4 C 41 %
4516 01-09-2020 08:44:17 13.7 C 41 %
4517 01-09-2020 08:54:17 13.8 C 42 %
4518 01-09-2020 09:04:17 13.9 C 42 %
4519 01-09-2020 09:14:17 14.1 C 42 %
4520 01-09-2020 09:24:17 14.3 C 40 %
4521 01-09-2020 09:34:17 14.7 C 41 %
4522 01-09-2020 09:44:17 14.9 C 40 %
4523 01-09-2020 09:54:18 15.1 C 40 %
4524 01-09-2020 10:04:17 15.4 C 38 %
4525 01-09-2020 10:14:17 15.6 C 37 %
Sensor: Nr:Datum:Temp:Feuchte:
Aussen-T/F 4526 01-09-2020 10:24:17 15.7 C 37 %
4527 01-09-2020 10:34:18 15.7 C 36 %
4528 01-09-2020 10:44:18 16.3 C 35 %
4529 01-09-2020 10:54:17 16.8 C 35 %
4530 01-09-2020 11:04:17 17.3 C 34 %
4531 01-09-2020 11:14:17 17.6 C 33 %
4532 01-09-2020 11:24:17 18.1 C 33 %
4533 01-09-2020 11:34:17 18 C 32 %
4534 01-09-2020 11:44:17 18.8 C 32 %
4535 01-09-2020 11:54:17 18.1 C 31 %
4536 01-09-2020 12:04:17 18.1 C 31 %
4537 01-09-2020 12:14:18 18.1 C 32 %
4538 01-09-2020 12:24:17 19.1 C 31 %
4539 01-09-2020 12:34:17 19.4 C 30 %
4540 01-09-2020 12:44:17 19.4 C 31 %
4541 01-09-2020 12:54:17 19.8 C 30 %
4542 01-09-2020 13:04:17 19.6 C 30 %
4543 01-09-2020 13:14:17 19.2 C 30 %
4544 01-09-2020 13:24:17 20.6 C 29 %
4545 01-09-2020 13:34:17 21 C 27 %
4546 01-09-2020 13:44:17 21.3 C 26 %
4547 01-09-2020 13:54:17 21 C 25 %
4548 01-09-2020 14:04:17 21.3 C 25 %
4549 01-09-2020 14:14:17 20.8 C 25 %
4550 01-09-2020 14:24:17 20.7 C 26 %
Sensor: Nr:Datum:Temp:Feuchte:
Aussen-T/F 4551 01-09-2020 14:34:17 22.7 C 24 %
4552 01-09-2020 14:44:17 23.5 C 22 %
4553 01-09-2020 14:54:17 22.4 C 21 %
4554 01-09-2020 15:04:18 22.9 C 21 %
4555 01-09-2020 15:14:18 22.8 C 21 %
4556 01-09-2020 15:24:17 22.9 C 23 %
4557 01-09-2020 15:34:18 26 C 20 %
4558 01-09-2020 15:44:18 23.9 C 20 %
4559 01-09-2020 15:54:17 21.1 C 23 %
4560 01-09-2020 16:04:17 19.7 C 26 %
4561 01-09-2020 16:14:17 17.5 C 32 %
4562 01-09-2020 16:24:17 17 C 35 %
4563 01-09-2020 16:34:17 16.8 C 34 %
4564 01-09-2020 16:44:17 17.7 C 32 %
4565 01-09-2020 16:54:17 17.7 C 32 %
4566 01-09-2020 17:04:18 17.6 C 32 %
4567 01-09-2020 17:14:18 17.6 C 32 %
4568 01-09-2020 17:24:18 17.4 C 32 %
4569 01-09-2020 17:34:18 16.7 C 33 %
4570 01-09-2020 17:44:18 16.6 C 34 %
4571 01-09-2020 17:54:17 16.2 C 35 %
4572 01-09-2020 18:04:17 16 C 35 %
4573 01-09-2020 18:14:17 16.1 C 35 %
4574 01-09-2020 18:24:17 16.1 C 35 %
4575 01-09-2020 18:34:17 15.8 C 35 %
Sensor: Nr:Datum:Temp:Feuchte:
Aussen-T/F 4576 01-09-2020 18:44:18 15.8 C 35 %
4577 01-09-2020 18:54:17 15.8 C 35 %
4578 01-09-2020 19:04:17 15.8 C 36 %
4579 01-09-2020 19:14:17 16.5 C 35 %
4580 01-09-2020 19:24:18 16.7 C 35 %
4581 01-09-2020 19:34:17 16.6 C 35 %
4582 01-09-2020 19:44:17 16.2 C 35 %
4583 01-09-2020 19:54:17 15.5 C 36 %
4584 01-09-2020 20:04:17 14.5 C 38 %
4585 01-09-2020 20:14:17 14.5 C 38 %
4586 01-09-2020 20:24:17 14.5 C 37 %
4587 01-09-2020 20:34:18 14.4 C 38 %
4588 01-09-2020 20:44:18 14.1 C 37 %
4589 01-09-2020 20:54:18 14.1 C 38 %
4590 01-09-2020 21:04:18 14.2 C 37 %
4591 01-09-2020 21:14:18 14.2 C 38 %
4592 01-09-2020 21:24:18 14.1 C 37 %
4593 01-09-2020 21:34:17 14 C 38 %
4594 01-09-2020 21:44:17 14 C 38 %
4595 01-09-2020 21:54:17 13.9 C 40 %
4596 01-09-2020 22:04:17 13.8 C 40 %
4597 01-09-2020 22:14:17 13.4 C 40 %
4598 01-09-2020 22:24:18 13.1 C 40 %
4599 01-09-2020 22:34:17 12.8 C 41 %
4600 01-09-2020 22:44:17 12.8 C 42 %
Sensor: Nr:Datum:Temp:Feuchte:
Aussen-T/F 4601 01-09-2020 22:54:17 13 C 41 %
4602 01-09-2020 23:04:17 13.2 C 41 %
4603 01-09-2020 23:14:17 13.1 C 41 %
4604 01-09-2020 23:24:17 13.1 C 41 %
4605 01-09-2020 23:34:17 13.1 C 41 %
4606 01-09-2020 23:44:17 13.1 C 41 %
4607 01-09-2020 23:54:17 13.2 C 41 %
4608 02-09-2020 00:04:18 13.2 C 41 %
4609 02-09-2020 00:14:18 13.1 C 41 %
4610 02-09-2020 00:24:17 13.2 C 41 %
4611 02-09-2020 00:34:18 13 C 41 %
4612 02-09-2020 00:44:18 13.1 C 41 %
4613 02-09-2020 00:54:17 13.1 C 41 %
4614 02-09-2020 01:04:18 13.2 C 41 %
4615 02-09-2020 01:14:18 13.1 C 41 %
4616 02-09-2020 01:24:17 13.1 C 41 %
4617 02-09-2020 01:34:18 13.1 C 41 %
4618 02-09-2020 01:44:18 13 C 41 %
4619 02-09-2020 01:54:17 12.9 C 42 %
4620 02-09-2020 02:04:18 12.8 C 42 %
4621 02-09-2020 02:14:18 12.6 C 42 %
4622 02-09-2020 02:24:17 12.3 C 43 %
4623 02-09-2020 02:34:17 12.2 C 43 %
4624 02-09-2020 02:44:17 12.4 C 43 %
4625 02-09-2020 02:54:17 12.9 C 41 %
Sensor: Nr:Datum:Temp:Feuchte:
Aussen-T/F 4626 02-09-2020 03:04:18 12.9 C 41 %
4627 02-09-2020 03:14:18 13 C 40 %
4628 02-09-2020 03:24:17 12.8 C 42 %
4629 02-09-2020 03:34:17 12.8 C 42 %
4630 02-09-2020 03:44:17 12.9 C 41 %
4631 02-09-2020 03:54:17 12.8 C 42 %
4632 02-09-2020 04:04:17 12.5 C 42 %
4633 02-09-2020 04:14:17 12.3 C 43 %
4634 02-09-2020 04:24:17 12.3 C 44 %
4635 02-09-2020 04:34:18 12.2 C 44 %
4636 02-09-2020 04:44:18 12.3 C 44 %
4637 02-09-2020 04:54:17 12.2 C 44 %
4638 02-09-2020 05:04:17 12.1 C 44 %
4639 02-09-2020 05:14:17 12.2 C 44 %
4640 02-09-2020 05:24:17 12.1 C 44 %
4641 02-09-2020 05:34:17 12.2 C 44 %
4642 02-09-2020 05:44:17 12.2 C 44 %
4643 02-09-2020 05:54:17 12.3 C 44 %
4644 02-09-2020 06:14:17 12.2 C 43 %
4645 02-09-2020 06:14:18 12.1 C 44 %
4646 02-09-2020 06:24:18 12 C 44 %
4647 02-09-2020 06:44:17 11.7 C 44 %
4648 02-09-2020 06:44:17 11.6 C 45 %
4649 02-09-2020 06:54:17 11.2 C 45 %
4650 02-09-2020 07:04:18 11.2 C 45 %
Sensor: Nr:Datum:Temp:Feuchte:
Aussen-T/F 4651 02-09-2020 07:14:18 11.3 C 44 %
4652 02-09-2020 07:24:18 11.1 C 44 %
4653 02-09-2020 07:34:18 11 C 45 %
4654 02-09-2020 07:44:18 11 C 45 %